<?xml version="1.0" encoding="UTF-8" standalone="no" ?>
<gpx xmlns="http://www.topografix.com/GPX/1/1" xmlns:xsi="http://www.w3.org/2001/XMLSchema-instance" xsi:schemaLocation="http://www.topografix.com/GPX/1/1 http://www.topografix.com/GPX/1/1/gpx.xsd" version="1.1" creator="VisuGPX - https://www.visugpx.com">
  <metadata>
    <name>Bérigoule</name>
    <desc><![CDATA[a corriger]]></desc>
  </metadata>
  <trk>
    <name><![CDATA[BERIGOULE 04:19:01 PM]]></name>
    <trkseg>
      <trkpt lat="43.82898" lon="5.4036">
        <ele>494.74</ele>
        <time>2012-12-10T10:17:06Z</time>
      </trkpt>
      <trkpt lat="43.96064" lon="5.2473">
        <ele>494.26</ele>
        <time>2012-12-10T10:17:07Z</time>
      </trkpt>
      <trkpt lat="43.96068" lon="5.24739">
        <ele>491.37</ele>
        <time>2012-12-10T10:17:27Z</time>
      </trkpt>
      <trkpt lat="43.96069" lon="5.24737">
        <ele>490.89</ele>
        <time>2012-12-10T10:17:47Z</time>
      </trkpt>
      <trkpt lat="43.96062" lon="5.24735">
        <ele>490.89</ele>
        <time>2012-12-10T10:18:09Z</time>
      </trkpt>
      <trkpt lat="43.9606" lon="5.24739">
        <ele>490.89</ele>
        <time>2012-12-10T10:18:13Z</time>
      </trkpt>
      <trkpt lat="43.96059" lon="5.24741">
        <ele>491.37</ele>
        <time>2012-12-10T10:18:15Z</time>
      </trkpt>
      <trkpt lat="43.96049" lon="5.24745">
        <ele>489.45</ele>
        <time>2012-12-10T10:18:29Z</time>
      </trkpt>
      <trkpt lat="43.96047" lon="5.24746">
        <ele>494.26</ele>
        <time>2012-12-10T10:18:43Z</time>
      </trkpt>
      <trkpt lat="43.96047" lon="5.24746">
        <ele>490.89</ele>
        <time>2012-12-10T10:18:44Z</time>
      </trkpt>
      <trkpt lat="43.96047" lon="5.24743">
        <ele>487.53</ele>
        <time>2012-12-10T10:18:57Z</time>
      </trkpt>
      <trkpt lat="43.96046" lon="5.24743">
        <ele>497.14</ele>
        <time>2012-12-10T10:18:58Z</time>
      </trkpt>
      <trkpt lat="43.96046" lon="5.24743">
        <ele>491.85</ele>
        <time>2012-12-10T10:18:59Z</time>
      </trkpt>
      <trkpt lat="43.96051" lon="5.24742">
        <ele>486.56</ele>
        <time>2012-12-10T10:19:17Z</time>
      </trkpt>
      <trkpt lat="43.96051" lon="5.24743">
        <ele>492.33</ele>
        <time>2012-12-10T10:19:18Z</time>
      </trkpt>
      <trkpt lat="43.96051" lon="5.24743">
        <ele>487.05</ele>
        <time>2012-12-10T10:19:19Z</time>
      </trkpt>
      <trkpt lat="43.96051" lon="5.24742">
        <ele>494.74</ele>
        <time>2012-12-10T10:19:21Z</time>
      </trkpt>
      <trkpt lat="43.96051" lon="5.24742">
        <ele>491.37</ele>
        <time>2012-12-10T10:19:22Z</time>
      </trkpt>
      <trkpt lat="43.96048" lon="5.24745">
        <ele>498.1</ele>
        <time>2012-12-10T10:19:30Z</time>
      </trkpt>
      <trkpt lat="43.96048" lon="5.24746">
        <ele>498.1</ele>
        <time>2012-12-10T10:19:31Z</time>
      </trkpt>
      <trkpt lat="43.96051" lon="5.24746">
        <ele>495.7</ele>
        <time>2012-12-10T10:19:54Z</time>
      </trkpt>
      <trkpt lat="43.96052" lon="5.24745">
        <ele>495.22</ele>
        <time>2012-12-10T10:19:55Z</time>
      </trkpt>
      <trkpt lat="43.96055" lon="5.24742">
        <ele>498.1</ele>
        <time>2012-12-10T10:20:00Z</time>
      </trkpt>
      <trkpt lat="43.96053" lon="5.24743">
        <ele>495.22</ele>
        <time>2012-12-10T10:20:06Z</time>
      </trkpt>
      <trkpt lat="43.96052" lon="5.24743">
        <ele>500.02</ele>
        <time>2012-12-10T10:20:08Z</time>
      </trkpt>
      <trkpt lat="43.96051" lon="5.24745">
        <ele>494.74</ele>
        <time>2012-12-10T10:20:09Z</time>
      </trkpt>
      <trkpt lat="43.9605" lon="5.24746">
        <ele>500.02</ele>
        <time>2012-12-10T10:20:11Z</time>
      </trkpt>
      <trkpt lat="43.9605" lon="5.24746">
        <ele>497.14</ele>
        <time>2012-12-10T10:20:12Z</time>
      </trkpt>
      <trkpt lat="43.9605" lon="5.24746">
        <ele>493.29</ele>
        <time>2012-12-10T10:20:13Z</time>
      </trkpt>
      <trkpt lat="43.9605" lon="5.24747">
        <ele>497.62</ele>
        <time>2012-12-10T10:20:14Z</time>
      </trkpt>
      <trkpt lat="43.96059" lon="5.24741">
        <ele>497.14</ele>
        <time>2012-12-10T10:20:24Z</time>
      </trkpt>
      <trkpt lat="43.96069" lon="5.2474">
        <ele>497.62</ele>
        <time>2012-12-10T10:20:35Z</time>
      </trkpt>
      <trkpt lat="43.96088" lon="5.24741">
        <ele>498.1</ele>
        <time>2012-12-10T10:20:53Z</time>
      </trkpt>
      <trkpt lat="43.96105" lon="5.24742">
        <ele>499.54</ele>
        <time>2012-12-10T10:21:11Z</time>
      </trkpt>
      <trkpt lat="43.96121" lon="5.24748">
        <ele>500.5</ele>
        <time>2012-12-10T10:21:29Z</time>
      </trkpt>
      <trkpt lat="43.9613" lon="5.24759">
        <ele>500.98</ele>
        <time>2012-12-10T10:21:43Z</time>
      </trkpt>
      <trkpt lat="43.96142" lon="5.24775">
        <ele>502.43</ele>
        <time>2012-12-10T10:22:02Z</time>
      </trkpt>
      <trkpt lat="43.96145" lon="5.24783">
        <ele>502.43</ele>
        <time>2012-12-10T10:22:15Z</time>
      </trkpt>
      <trkpt lat="43.96152" lon="5.24801">
        <ele>502.91</ele>
        <time>2012-12-10T10:22:32Z</time>
      </trkpt>
      <trkpt lat="43.9616" lon="5.24817">
        <ele>502.43</ele>
        <time>2012-12-10T10:22:52Z</time>
      </trkpt>
      <trkpt lat="43.96158" lon="5.24814">
        <ele>503.39</ele>
        <time>2012-12-10T10:23:11Z</time>
      </trkpt>
      <trkpt lat="43.9616" lon="5.24816">
        <ele>503.87</ele>
        <time>2012-12-10T10:23:39Z</time>
      </trkpt>
      <trkpt lat="43.96158" lon="5.24816">
        <ele>502.91</ele>
        <time>2012-12-10T10:24:03Z</time>
      </trkpt>
      <trkpt lat="43.9616" lon="5.24817">
        <ele>503.87</ele>
        <time>2012-12-10T10:24:31Z</time>
      </trkpt>
      <trkpt lat="43.96161" lon="5.24817">
        <ele>504.35</ele>
        <time>2012-12-10T10:24:37Z</time>
      </trkpt>
      <trkpt lat="43.9616" lon="5.24822">
        <ele>504.83</ele>
        <time>2012-12-10T10:24:54Z</time>
      </trkpt>
      <trkpt lat="43.9617" lon="5.24843">
        <ele>506.27</ele>
        <time>2012-12-10T10:25:14Z</time>
      </trkpt>
      <trkpt lat="43.96182" lon="5.2486">
        <ele>506.75</ele>
        <time>2012-12-10T10:25:32Z</time>
      </trkpt>
      <trkpt lat="43.96186" lon="5.24869">
        <ele>506.75</ele>
        <time>2012-12-10T10:25:47Z</time>
      </trkpt>
      <trkpt lat="43.96189" lon="5.24872">
        <ele>507.71</ele>
        <time>2012-12-10T10:26:09Z</time>
      </trkpt>
      <trkpt lat="43.9619" lon="5.24876">
        <ele>508.67</ele>
        <time>2012-12-10T10:26:12Z</time>
      </trkpt>
      <trkpt lat="43.96201" lon="5.24903">
        <ele>508.67</ele>
        <time>2012-12-10T10:26:32Z</time>
      </trkpt>
      <trkpt lat="43.96207" lon="5.24911">
        <ele>510.12</ele>
        <time>2012-12-10T10:26:40Z</time>
      </trkpt>
      <trkpt lat="43.9621" lon="5.24914">
        <ele>510.12</ele>
        <time>2012-12-10T10:26:43Z</time>
      </trkpt>
      <trkpt lat="43.96231" lon="5.24922">
        <ele>511.56</ele>
        <time>2012-12-10T10:27:03Z</time>
      </trkpt>
      <trkpt lat="43.9624" lon="5.24921">
        <ele>512.52</ele>
        <time>2012-12-10T10:27:21Z</time>
      </trkpt>
      <trkpt lat="43.9626" lon="5.24924">
        <ele>513</ele>
        <time>2012-12-10T10:27:42Z</time>
      </trkpt>
      <trkpt lat="43.96267" lon="5.24923">
        <ele>514.44</ele>
        <time>2012-12-10T10:27:49Z</time>
      </trkpt>
      <trkpt lat="43.96274" lon="5.24923">
        <ele>515.88</ele>
        <time>2012-12-10T10:27:56Z</time>
      </trkpt>
      <trkpt lat="43.96295" lon="5.24924">
        <ele>516.37</ele>
        <time>2012-12-10T10:28:15Z</time>
      </trkpt>
      <trkpt lat="43.96314" lon="5.24925">
        <ele>516.85</ele>
        <time>2012-12-10T10:28:31Z</time>
      </trkpt>
      <trkpt lat="43.96337" lon="5.24928">
        <ele>517.81</ele>
        <time>2012-12-10T10:28:52Z</time>
      </trkpt>
      <trkpt lat="43.96339" lon="5.24928">
        <ele>518.77</ele>
        <time>2012-12-10T10:28:54Z</time>
      </trkpt>
      <trkpt lat="43.96361" lon="5.24929">
        <ele>518.77</ele>
        <time>2012-12-10T10:29:14Z</time>
      </trkpt>
      <trkpt lat="43.96378" lon="5.24931">
        <ele>520.69</ele>
        <time>2012-12-10T10:29:32Z</time>
      </trkpt>
      <trkpt lat="43.96394" lon="5.24931">
        <ele>521.65</ele>
        <time>2012-12-10T10:29:50Z</time>
      </trkpt>
      <trkpt lat="43.96399" lon="5.24932">
        <ele>521.17</ele>
        <time>2012-12-10T10:30:14Z</time>
      </trkpt>
      <trkpt lat="43.96399" lon="5.24925">
        <ele>521.65</ele>
        <time>2012-12-10T10:30:43Z</time>
      </trkpt>
      <trkpt lat="43.96395" lon="5.24924">
        <ele>521.65</ele>
        <time>2012-12-10T10:31:14Z</time>
      </trkpt>
      <trkpt lat="43.96394" lon="5.24921">
        <ele>523.09</ele>
        <time>2012-12-10T10:31:38Z</time>
      </trkpt>
      <trkpt lat="43.96399" lon="5.2493">
        <ele>521.65</ele>
        <time>2012-12-10T10:32:02Z</time>
      </trkpt>
      <trkpt lat="43.96405" lon="5.24932">
        <ele>523.09</ele>
        <time>2012-12-10T10:32:06Z</time>
      </trkpt>
      <trkpt lat="43.96425" lon="5.24935">
        <ele>523.09</ele>
        <time>2012-12-10T10:32:23Z</time>
      </trkpt>
      <trkpt lat="43.96427" lon="5.24935">
        <ele>525.02</ele>
        <time>2012-12-10T10:32:36Z</time>
      </trkpt>
      <trkpt lat="43.96441" lon="5.24938">
        <ele>524.54</ele>
        <time>2012-12-10T10:32:53Z</time>
      </trkpt>
      <trkpt lat="43.9646" lon="5.2494">
        <ele>525.5</ele>
        <time>2012-12-10T10:33:10Z</time>
      </trkpt>
      <trkpt lat="43.96472" lon="5.24943">
        <ele>526.94</ele>
        <time>2012-12-10T10:33:21Z</time>
      </trkpt>
      <trkpt lat="43.96483" lon="5.24946">
        <ele>527.9</ele>
        <time>2012-12-10T10:33:38Z</time>
      </trkpt>
      <trkpt lat="43.96499" lon="5.24948">
        <ele>527.9</ele>
        <time>2012-12-10T10:33:51Z</time>
      </trkpt>
      <trkpt lat="43.96521" lon="5.24951">
        <ele>527.9</ele>
        <time>2012-12-10T10:34:09Z</time>
      </trkpt>
      <trkpt lat="43.96543" lon="5.24958">
        <ele>528.86</ele>
        <time>2012-12-10T10:34:33Z</time>
      </trkpt>
      <trkpt lat="43.96559" lon="5.24959">
        <ele>529.82</ele>
        <time>2012-12-10T10:34:46Z</time>
      </trkpt>
      <trkpt lat="43.96574" lon="5.24963">
        <ele>530.79</ele>
        <time>2012-12-10T10:35:03Z</time>
      </trkpt>
      <trkpt lat="43.9659" lon="5.24966">
        <ele>529.82</ele>
        <time>2012-12-10T10:35:21Z</time>
      </trkpt>
      <trkpt lat="43.96592" lon="5.24964">
        <ele>530.79</ele>
        <time>2012-12-10T10:35:35Z</time>
      </trkpt>
      <trkpt lat="43.96599" lon="5.24961">
        <ele>530.3</ele>
        <time>2012-12-10T10:35:53Z</time>
      </trkpt>
      <trkpt lat="43.96607" lon="5.24955">
        <ele>531.27</ele>
        <time>2012-12-10T10:36:19Z</time>
      </trkpt>
      <trkpt lat="43.96615" lon="5.24949">
        <ele>531.27</ele>
        <time>2012-12-10T10:36:25Z</time>
      </trkpt>
      <trkpt lat="43.96635" lon="5.24939">
        <ele>533.19</ele>
        <time>2012-12-10T10:36:44Z</time>
      </trkpt>
      <trkpt lat="43.96655" lon="5.24923">
        <ele>531.75</ele>
        <time>2012-12-10T10:37:04Z</time>
      </trkpt>
      <trkpt lat="43.96666" lon="5.24911">
        <ele>534.63</ele>
        <time>2012-12-10T10:37:19Z</time>
      </trkpt>
      <trkpt lat="43.96667" lon="5.24911">
        <ele>534.63</ele>
        <time>2012-12-10T10:37:20Z</time>
      </trkpt>
      <trkpt lat="43.9667" lon="5.24908">
        <ele>535.11</ele>
        <time>2012-12-10T10:37:25Z</time>
      </trkpt>
      <trkpt lat="43.96675" lon="5.24897">
        <ele>533.67</ele>
        <time>2012-12-10T10:37:34Z</time>
      </trkpt>
      <trkpt lat="43.9669" lon="5.24881">
        <ele>531.75</ele>
        <time>2012-12-10T10:37:49Z</time>
      </trkpt>
      <trkpt lat="43.96694" lon="5.24878">
        <ele>534.63</ele>
        <time>2012-12-10T10:37:54Z</time>
      </trkpt>
      <trkpt lat="43.967" lon="5.24869">
        <ele>535.59</ele>
        <time>2012-12-10T10:38:07Z</time>
      </trkpt>
      <trkpt lat="43.96704" lon="5.24869">
        <ele>536.07</ele>
        <time>2012-12-10T10:38:11Z</time>
      </trkpt>
      <trkpt lat="43.96717" lon="5.24868">
        <ele>536.07</ele>
        <time>2012-12-10T10:38:24Z</time>
      </trkpt>
      <trkpt lat="43.96723" lon="5.24871">
        <ele>537.51</ele>
        <time>2012-12-10T10:38:32Z</time>
      </trkpt>
      <trkpt lat="43.96746" lon="5.24876">
        <ele>537.03</ele>
        <time>2012-12-10T10:38:52Z</time>
      </trkpt>
      <trkpt lat="43.96761" lon="5.2488">
        <ele>537.03</ele>
        <time>2012-12-10T10:39:10Z</time>
      </trkpt>
      <trkpt lat="43.96774" lon="5.24886">
        <ele>537.51</ele>
        <time>2012-12-10T10:39:22Z</time>
      </trkpt>
      <trkpt lat="43.96788" lon="5.24888">
        <ele>537.99</ele>
        <time>2012-12-10T10:39:34Z</time>
      </trkpt>
      <trkpt lat="43.9681" lon="5.24896">
        <ele>539.44</ele>
        <time>2012-12-10T10:39:56Z</time>
      </trkpt>
      <trkpt lat="43.96833" lon="5.24902">
        <ele>539.92</ele>
        <time>2012-12-10T10:40:16Z</time>
      </trkpt>
      <trkpt lat="43.96849" lon="5.24907">
        <ele>540.4</ele>
        <time>2012-12-10T10:40:31Z</time>
      </trkpt>
      <trkpt lat="43.96863" lon="5.24918">
        <ele>543.28</ele>
        <time>2012-12-10T10:40:47Z</time>
      </trkpt>
      <trkpt lat="43.96867" lon="5.24925">
        <ele>541.84</ele>
        <time>2012-12-10T10:41:04Z</time>
      </trkpt>
      <trkpt lat="43.96876" lon="5.24938">
        <ele>541.36</ele>
        <time>2012-12-10T10:41:22Z</time>
      </trkpt>
      <trkpt lat="43.96878" lon="5.24941">
        <ele>542.8</ele>
        <time>2012-12-10T10:41:25Z</time>
      </trkpt>
      <trkpt lat="43.96884" lon="5.24956">
        <ele>543.28</ele>
        <time>2012-12-10T10:41:42Z</time>
      </trkpt>
      <trkpt lat="43.96885" lon="5.24956">
        <ele>543.28</ele>
        <time>2012-12-10T10:41:43Z</time>
      </trkpt>
      <trkpt lat="43.96903" lon="5.2498">
        <ele>543.28</ele>
        <time>2012-12-10T10:42:06Z</time>
      </trkpt>
      <trkpt lat="43.96918" lon="5.24997">
        <ele>543.28</ele>
        <time>2012-12-10T10:42:24Z</time>
      </trkpt>
      <trkpt lat="43.96933" lon="5.25008">
        <ele>544.24</ele>
        <time>2012-12-10T10:42:40Z</time>
      </trkpt>
      <trkpt lat="43.96956" lon="5.2501">
        <ele>545.2</ele>
        <time>2012-12-10T10:43:02Z</time>
      </trkpt>
      <trkpt lat="43.96975" lon="5.25006">
        <ele>544.72</ele>
        <time>2012-12-10T10:43:20Z</time>
      </trkpt>
      <trkpt lat="43.96986" lon="5.25004">
        <ele>544.72</ele>
        <time>2012-12-10T10:43:30Z</time>
      </trkpt>
      <trkpt lat="43.97009" lon="5.25">
        <ele>546.17</ele>
        <time>2012-12-10T10:43:51Z</time>
      </trkpt>
      <trkpt lat="43.97023" lon="5.24995">
        <ele>546.65</ele>
        <time>2012-12-10T10:44:09Z</time>
      </trkpt>
      <trkpt lat="43.97042" lon="5.24992">
        <ele>546.65</ele>
        <time>2012-12-10T10:44:28Z</time>
      </trkpt>
      <trkpt lat="43.97057" lon="5.24989">
        <ele>548.57</ele>
        <time>2012-12-10T10:44:43Z</time>
      </trkpt>
      <trkpt lat="43.97077" lon="5.24985">
        <ele>550.01</ele>
        <time>2012-12-10T10:45:01Z</time>
      </trkpt>
      <trkpt lat="43.97078" lon="5.24985">
        <ele>550.49</ele>
        <time>2012-12-10T10:45:02Z</time>
      </trkpt>
      <trkpt lat="43.97093" lon="5.24989">
        <ele>549.53</ele>
        <time>2012-12-10T10:45:20Z</time>
      </trkpt>
      <trkpt lat="43.97112" lon="5.24996">
        <ele>551.45</ele>
        <time>2012-12-10T10:45:38Z</time>
      </trkpt>
      <trkpt lat="43.97126" lon="5.25009">
        <ele>551.45</ele>
        <time>2012-12-10T10:45:55Z</time>
      </trkpt>
      <trkpt lat="43.97139" lon="5.25022">
        <ele>551.45</ele>
        <time>2012-12-10T10:46:11Z</time>
      </trkpt>
      <trkpt lat="43.97159" lon="5.25041">
        <ele>553.38</ele>
        <time>2012-12-10T10:46:33Z</time>
      </trkpt>
      <trkpt lat="43.97173" lon="5.25054">
        <ele>552.9</ele>
        <time>2012-12-10T10:46:51Z</time>
      </trkpt>
      <trkpt lat="43.97185" lon="5.2506">
        <ele>555.3</ele>
        <time>2012-12-10T10:47:04Z</time>
      </trkpt>
      <trkpt lat="43.97189" lon="5.25061">
        <ele>554.34</ele>
        <time>2012-12-10T10:47:07Z</time>
      </trkpt>
      <trkpt lat="43.97204" lon="5.25058">
        <ele>555.3</ele>
        <time>2012-12-10T10:47:23Z</time>
      </trkpt>
      <trkpt lat="43.97218" lon="5.25065">
        <ele>554.34</ele>
        <time>2012-12-10T10:47:39Z</time>
      </trkpt>
      <trkpt lat="43.97234" lon="5.25066">
        <ele>554.34</ele>
        <time>2012-12-10T10:47:56Z</time>
      </trkpt>
      <trkpt lat="43.97251" lon="5.25069">
        <ele>555.3</ele>
        <time>2012-12-10T10:48:12Z</time>
      </trkpt>
      <trkpt lat="43.97267" lon="5.25071">
        <ele>556.26</ele>
        <time>2012-12-10T10:48:28Z</time>
      </trkpt>
      <trkpt lat="43.9728" lon="5.2508">
        <ele>556.26</ele>
        <time>2012-12-10T10:48:45Z</time>
      </trkpt>
      <trkpt lat="43.97286" lon="5.25094">
        <ele>557.22</ele>
        <time>2012-12-10T10:49:00Z</time>
      </trkpt>
      <trkpt lat="43.97289" lon="5.25115">
        <ele>556.26</ele>
        <time>2012-12-10T10:49:16Z</time>
      </trkpt>
      <trkpt lat="43.97289" lon="5.25118">
        <ele>557.22</ele>
        <time>2012-12-10T10:49:23Z</time>
      </trkpt>
      <trkpt lat="43.97284" lon="5.25137">
        <ele>559.14</ele>
        <time>2012-12-10T10:49:37Z</time>
      </trkpt>
      <trkpt lat="43.97282" lon="5.25148">
        <ele>559.14</ele>
        <time>2012-12-10T10:49:47Z</time>
      </trkpt>
      <trkpt lat="43.9728" lon="5.25157">
        <ele>559.62</ele>
        <time>2012-12-10T10:49:54Z</time>
      </trkpt>
      <trkpt lat="43.97275" lon="5.25178">
        <ele>560.11</ele>
        <time>2012-12-10T10:50:12Z</time>
      </trkpt>
      <trkpt lat="43.97272" lon="5.25202">
        <ele>560.59</ele>
        <time>2012-12-10T10:50:30Z</time>
      </trkpt>
      <trkpt lat="43.97271" lon="5.25216">
        <ele>562.03</ele>
        <time>2012-12-10T10:50:40Z</time>
      </trkpt>
      <trkpt lat="43.97281" lon="5.25221">
        <ele>563.47</ele>
        <time>2012-12-10T10:50:56Z</time>
      </trkpt>
      <trkpt lat="43.97283" lon="5.2522">
        <ele>563.95</ele>
        <time>2012-12-10T10:51:02Z</time>
      </trkpt>
      <trkpt lat="43.97287" lon="5.25218">
        <ele>562.99</ele>
        <time>2012-12-10T10:51:25Z</time>
      </trkpt>
      <trkpt lat="43.97291" lon="5.25218">
        <ele>564.43</ele>
        <time>2012-12-10T10:51:32Z</time>
      </trkpt>
      <trkpt lat="43.97298" lon="5.25234">
        <ele>564.91</ele>
        <time>2012-12-10T10:51:48Z</time>
      </trkpt>
      <trkpt lat="43.97304" lon="5.25238">
        <ele>565.87</ele>
        <time>2012-12-10T10:52:06Z</time>
      </trkpt>
      <trkpt lat="43.97301" lon="5.25237">
        <ele>565.39</ele>
        <time>2012-12-10T10:52:38Z</time>
      </trkpt>
      <trkpt lat="43.97297" lon="5.25241">
        <ele>565.39</ele>
        <time>2012-12-10T10:53:02Z</time>
      </trkpt>
      <trkpt lat="43.97299" lon="5.25242">
        <ele>565.87</ele>
        <time>2012-12-10T10:53:22Z</time>
      </trkpt>
      <trkpt lat="43.9729" lon="5.25227">
        <ele>563.95</ele>
        <time>2012-12-10T10:53:38Z</time>
      </trkpt>
      <trkpt lat="43.97283" lon="5.25215">
        <ele>564.91</ele>
        <time>2012-12-10T10:53:54Z</time>
      </trkpt>
      <trkpt lat="43.97294" lon="5.25217">
        <ele>563.95</ele>
        <time>2012-12-10T10:54:09Z</time>
      </trkpt>
      <trkpt lat="43.97301" lon="5.25216">
        <ele>563.95</ele>
        <time>2012-12-10T10:54:26Z</time>
      </trkpt>
      <trkpt lat="43.97302" lon="5.25217">
        <ele>565.39</ele>
        <time>2012-12-10T10:54:48Z</time>
      </trkpt>
      <trkpt lat="43.97303" lon="5.25216">
        <ele>565.39</ele>
        <time>2012-12-10T10:55:09Z</time>
      </trkpt>
      <trkpt lat="43.97303" lon="5.25216">
        <ele>566.35</ele>
        <time>2012-12-10T10:55:15Z</time>
      </trkpt>
      <trkpt lat="43.97303" lon="5.25216">
        <ele>565.39</ele>
        <time>2012-12-10T10:55:18Z</time>
      </trkpt>
      <trkpt lat="43.97303" lon="5.25216">
        <ele>564.91</ele>
        <time>2012-12-10T10:55:25Z</time>
      </trkpt>
      <trkpt lat="43.97298" lon="5.25217">
        <ele>566.35</ele>
        <time>2012-12-10T10:55:49Z</time>
      </trkpt>
      <trkpt lat="43.97303" lon="5.25214">
        <ele>565.87</ele>
        <time>2012-12-10T10:56:04Z</time>
      </trkpt>
      <trkpt lat="43.97305" lon="5.25215">
        <ele>566.35</ele>
        <time>2012-12-10T10:56:24Z</time>
      </trkpt>
      <trkpt lat="43.97303" lon="5.25211">
        <ele>566.83</ele>
        <time>2012-12-10T10:56:55Z</time>
      </trkpt>
      <trkpt lat="43.97303" lon="5.25212">
        <ele>566.83</ele>
        <time>2012-12-10T10:57:05Z</time>
      </trkpt>
      <trkpt lat="43.97303" lon="5.25212">
        <ele>566.35</ele>
        <time>2012-12-10T10:57:30Z</time>
      </trkpt>
      <trkpt lat="43.97302" lon="5.25214">
        <ele>565.39</ele>
        <time>2012-12-10T10:57:53Z</time>
      </trkpt>
      <trkpt lat="43.97316" lon="5.25212">
        <ele>568.28</ele>
        <time>2012-12-10T10:58:08Z</time>
      </trkpt>
      <trkpt lat="43.9733" lon="5.2522">
        <ele>568.76</ele>
        <time>2012-12-10T10:58:28Z</time>
      </trkpt>
      <trkpt lat="43.97346" lon="5.25229">
        <ele>571.64</ele>
        <time>2012-12-10T10:58:48Z</time>
      </trkpt>
      <trkpt lat="43.97358" lon="5.25237">
        <ele>573.08</ele>
        <time>2012-12-10T10:59:05Z</time>
      </trkpt>
      <trkpt lat="43.97361" lon="5.2524">
        <ele>574.04</ele>
        <time>2012-12-10T10:59:10Z</time>
      </trkpt>
      <trkpt lat="43.97374" lon="5.25248">
        <ele>573.56</ele>
        <time>2012-12-10T10:59:29Z</time>
      </trkpt>
      <trkpt lat="43.97381" lon="5.25254">
        <ele>576.93</ele>
        <time>2012-12-10T10:59:38Z</time>
      </trkpt>
      <trkpt lat="43.97381" lon="5.25254">
        <ele>576.93</ele>
        <time>2012-12-10T10:59:39Z</time>
      </trkpt>
      <trkpt lat="43.97394" lon="5.25262">
        <ele>576.45</ele>
        <time>2012-12-10T10:59:56Z</time>
      </trkpt>
      <trkpt lat="43.97411" lon="5.25271">
        <ele>578.37</ele>
        <time>2012-12-10T11:00:17Z</time>
      </trkpt>
      <trkpt lat="43.97422" lon="5.2528">
        <ele>580.29</ele>
        <time>2012-12-10T11:00:34Z</time>
      </trkpt>
      <trkpt lat="43.9743" lon="5.25284">
        <ele>581.25</ele>
        <time>2012-12-10T11:00:44Z</time>
      </trkpt>
      <trkpt lat="43.97442" lon="5.25288">
        <ele>582.7</ele>
        <time>2012-12-10T11:00:59Z</time>
      </trkpt>
      <trkpt lat="43.97453" lon="5.25296">
        <ele>583.66</ele>
        <time>2012-12-10T11:01:16Z</time>
      </trkpt>
      <trkpt lat="43.97462" lon="5.25304">
        <ele>585.58</ele>
        <time>2012-12-10T11:01:31Z</time>
      </trkpt>
      <trkpt lat="43.97474" lon="5.25309">
        <ele>585.1</ele>
        <time>2012-12-10T11:01:44Z</time>
      </trkpt>
      <trkpt lat="43.97485" lon="5.25314">
        <ele>587.5</ele>
        <time>2012-12-10T11:01:59Z</time>
      </trkpt>
      <trkpt lat="43.97499" lon="5.25312">
        <ele>588.46</ele>
        <time>2012-12-10T11:02:16Z</time>
      </trkpt>
      <trkpt lat="43.9751" lon="5.25314">
        <ele>589.91</ele>
        <time>2012-12-10T11:02:28Z</time>
      </trkpt>
      <trkpt lat="43.97521" lon="5.25317">
        <ele>592.31</ele>
        <time>2012-12-10T11:02:42Z</time>
      </trkpt>
      <trkpt lat="43.97531" lon="5.2532">
        <ele>591.35</ele>
        <time>2012-12-10T11:02:58Z</time>
      </trkpt>
      <trkpt lat="43.97545" lon="5.25322">
        <ele>590.39</ele>
        <time>2012-12-10T11:03:16Z</time>
      </trkpt>
      <trkpt lat="43.97558" lon="5.25324">
        <ele>590.87</ele>
        <time>2012-12-10T11:03:33Z</time>
      </trkpt>
      <trkpt lat="43.97574" lon="5.25328">
        <ele>590.39</ele>
        <time>2012-12-10T11:03:54Z</time>
      </trkpt>
      <trkpt lat="43.97587" lon="5.25332">
        <ele>591.35</ele>
        <time>2012-12-10T11:04:11Z</time>
      </trkpt>
      <trkpt lat="43.97603" lon="5.25334">
        <ele>591.83</ele>
        <time>2012-12-10T11:04:31Z</time>
      </trkpt>
      <trkpt lat="43.97619" lon="5.25335">
        <ele>589.91</ele>
        <time>2012-12-10T11:04:49Z</time>
      </trkpt>
      <trkpt lat="43.97637" lon="5.25339">
        <ele>587.5</ele>
        <time>2012-12-10T11:05:10Z</time>
      </trkpt>
      <trkpt lat="43.97654" lon="5.25346">
        <ele>587.5</ele>
        <time>2012-12-10T11:05:30Z</time>
      </trkpt>
      <trkpt lat="43.9766" lon="5.2535">
        <ele>587.5</ele>
        <time>2012-12-10T11:05:38Z</time>
      </trkpt>
      <trkpt lat="43.97678" lon="5.25357">
        <ele>586.54</ele>
        <time>2012-12-10T11:05:58Z</time>
      </trkpt>
      <trkpt lat="43.97694" lon="5.25362">
        <ele>588.46</ele>
        <time>2012-12-10T11:06:16Z</time>
      </trkpt>
      <trkpt lat="43.97695" lon="5.25362">
        <ele>588.95</ele>
        <time>2012-12-10T11:06:17Z</time>
      </trkpt>
      <trkpt lat="43.97704" lon="5.25366">
        <ele>584.62</ele>
        <time>2012-12-10T11:06:28Z</time>
      </trkpt>
      <trkpt lat="43.9771" lon="5.25367">
        <ele>587.5</ele>
        <time>2012-12-10T11:06:34Z</time>
      </trkpt>
      <trkpt lat="43.97726" lon="5.25369">
        <ele>588.95</ele>
        <time>2012-12-10T11:06:53Z</time>
      </trkpt>
      <trkpt lat="43.9773" lon="5.2537">
        <ele>590.87</ele>
        <time>2012-12-10T11:06:58Z</time>
      </trkpt>
      <trkpt lat="43.97744" lon="5.25369">
        <ele>591.83</ele>
        <time>2012-12-10T11:07:15Z</time>
      </trkpt>
      <trkpt lat="43.97757" lon="5.25368">
        <ele>589.43</ele>
        <time>2012-12-10T11:07:31Z</time>
      </trkpt>
      <trkpt lat="43.97773" lon="5.25367">
        <ele>589.43</ele>
        <time>2012-12-10T11:07:49Z</time>
      </trkpt>
      <trkpt lat="43.97786" lon="5.25373">
        <ele>589.91</ele>
        <time>2012-12-10T11:08:04Z</time>
      </trkpt>
      <trkpt lat="43.97804" lon="5.25381">
        <ele>591.83</ele>
        <time>2012-12-10T11:08:22Z</time>
      </trkpt>
      <trkpt lat="43.97818" lon="5.2539">
        <ele>589.43</ele>
        <time>2012-12-10T11:08:41Z</time>
      </trkpt>
      <trkpt lat="43.9782" lon="5.25392">
        <ele>591.83</ele>
        <time>2012-12-10T11:08:58Z</time>
      </trkpt>
      <trkpt lat="43.97819" lon="5.25393">
        <ele>590.39</ele>
        <time>2012-12-10T11:09:03Z</time>
      </trkpt>
      <trkpt lat="43.9783" lon="5.25403">
        <ele>588.46</ele>
        <time>2012-12-10T11:09:20Z</time>
      </trkpt>
      <trkpt lat="43.97833" lon="5.25406">
        <ele>588.95</ele>
        <time>2012-12-10T11:09:24Z</time>
      </trkpt>
      <trkpt lat="43.97846" lon="5.25414">
        <ele>589.91</ele>
        <time>2012-12-10T11:09:41Z</time>
      </trkpt>
      <trkpt lat="43.97856" lon="5.25419">
        <ele>591.35</ele>
        <time>2012-12-10T11:09:54Z</time>
      </trkpt>
      <trkpt lat="43.97863" lon="5.25422">
        <ele>592.31</ele>
        <time>2012-12-10T11:10:02Z</time>
      </trkpt>
      <trkpt lat="43.97874" lon="5.25426">
        <ele>589.43</ele>
        <time>2012-12-10T11:10:15Z</time>
      </trkpt>
      <trkpt lat="43.97877" lon="5.25428">
        <ele>591.83</ele>
        <time>2012-12-10T11:10:21Z</time>
      </trkpt>
      <trkpt lat="43.97887" lon="5.25436">
        <ele>593.27</ele>
        <time>2012-12-10T11:10:38Z</time>
      </trkpt>
      <trkpt lat="43.97895" lon="5.25439">
        <ele>593.27</ele>
        <time>2012-12-10T11:10:53Z</time>
      </trkpt>
      <trkpt lat="43.97901" lon="5.25445">
        <ele>592.31</ele>
        <time>2012-12-10T11:11:05Z</time>
      </trkpt>
      <trkpt lat="43.97908" lon="5.25451">
        <ele>593.27</ele>
        <time>2012-12-10T11:11:17Z</time>
      </trkpt>
      <trkpt lat="43.97913" lon="5.25453">
        <ele>591.35</ele>
        <time>2012-12-10T11:11:28Z</time>
      </trkpt>
      <trkpt lat="43.97917" lon="5.25455">
        <ele>593.27</ele>
        <time>2012-12-10T11:11:42Z</time>
      </trkpt>
      <trkpt lat="43.9792" lon="5.25456">
        <ele>593.75</ele>
        <time>2012-12-10T11:11:57Z</time>
      </trkpt>
      <trkpt lat="43.97922" lon="5.25458">
        <ele>591.35</ele>
        <time>2012-12-10T11:12:01Z</time>
      </trkpt>
      <trkpt lat="43.9793" lon="5.25464">
        <ele>593.27</ele>
        <time>2012-12-10T11:12:15Z</time>
      </trkpt>
      <trkpt lat="43.97941" lon="5.25475">
        <ele>591.83</ele>
        <time>2012-12-10T11:12:32Z</time>
      </trkpt>
      <trkpt lat="43.97943" lon="5.25476">
        <ele>593.75</ele>
        <time>2012-12-10T11:12:35Z</time>
      </trkpt>
      <trkpt lat="43.97947" lon="5.25478">
        <ele>592.31</ele>
        <time>2012-12-10T11:12:40Z</time>
      </trkpt>
      <trkpt lat="43.97949" lon="5.2548">
        <ele>593.27</ele>
        <time>2012-12-10T11:12:44Z</time>
      </trkpt>
      <trkpt lat="43.97957" lon="5.2549">
        <ele>592.31</ele>
        <time>2012-12-10T11:12:58Z</time>
      </trkpt>
      <trkpt lat="43.9796" lon="5.25492">
        <ele>593.75</ele>
        <time>2012-12-10T11:13:01Z</time>
      </trkpt>
      <trkpt lat="43.97963" lon="5.25498">
        <ele>594.23</ele>
        <time>2012-12-10T11:13:16Z</time>
      </trkpt>
      <trkpt lat="43.97977" lon="5.25509">
        <ele>594.71</ele>
        <time>2012-12-10T11:13:35Z</time>
      </trkpt>
      <trkpt lat="43.97985" lon="5.25517">
        <ele>596.15</ele>
        <time>2012-12-10T11:13:53Z</time>
      </trkpt>
      <trkpt lat="43.97988" lon="5.25524">
        <ele>598.08</ele>
        <time>2012-12-10T11:14:09Z</time>
      </trkpt>
      <trkpt lat="43.97995" lon="5.25529">
        <ele>598.08</ele>
        <time>2012-12-10T11:14:29Z</time>
      </trkpt>
      <trkpt lat="43.98" lon="5.25538">
        <ele>597.6</ele>
        <time>2012-12-10T11:14:44Z</time>
      </trkpt>
      <trkpt lat="43.98013" lon="5.25552">
        <ele>600.48</ele>
        <time>2012-12-10T11:15:05Z</time>
      </trkpt>
      <trkpt lat="43.98014" lon="5.25553">
        <ele>601.92</ele>
        <time>2012-12-10T11:15:08Z</time>
      </trkpt>
      <trkpt lat="43.98029" lon="5.25564">
        <ele>599.04</ele>
        <time>2012-12-10T11:15:28Z</time>
      </trkpt>
      <trkpt lat="43.98035" lon="5.25569">
        <ele>601.44</ele>
        <time>2012-12-10T11:15:35Z</time>
      </trkpt>
      <trkpt lat="43.98037" lon="5.2557">
        <ele>602.88</ele>
        <time>2012-12-10T11:15:38Z</time>
      </trkpt>
      <trkpt lat="43.98043" lon="5.25572">
        <ele>603.85</ele>
        <time>2012-12-10T11:15:55Z</time>
      </trkpt>
      <trkpt lat="43.98056" lon="5.25585">
        <ele>605.77</ele>
        <time>2012-12-10T11:16:10Z</time>
      </trkpt>
      <trkpt lat="43.98067" lon="5.25601">
        <ele>608.17</ele>
        <time>2012-12-10T11:16:26Z</time>
      </trkpt>
      <trkpt lat="43.98072" lon="5.25607">
        <ele>604.33</ele>
        <time>2012-12-10T11:16:32Z</time>
      </trkpt>
      <trkpt lat="43.98073" lon="5.2561">
        <ele>602.4</ele>
        <time>2012-12-10T11:16:34Z</time>
      </trkpt>
      <trkpt lat="43.98074" lon="5.25612">
        <ele>605.77</ele>
        <time>2012-12-10T11:16:36Z</time>
      </trkpt>
      <trkpt lat="43.98075" lon="5.25613">
        <ele>604.81</ele>
        <time>2012-12-10T11:16:37Z</time>
      </trkpt>
      <trkpt lat="43.98083" lon="5.25625">
        <ele>608.17</ele>
        <time>2012-12-10T11:16:50Z</time>
      </trkpt>
      <trkpt lat="43.98088" lon="5.25633">
        <ele>608.65</ele>
        <time>2012-12-10T11:16:58Z</time>
      </trkpt>
      <trkpt lat="43.98098" lon="5.25654">
        <ele>610.57</ele>
        <time>2012-12-10T11:17:18Z</time>
      </trkpt>
      <trkpt lat="43.98105" lon="5.25674">
        <ele>611.06</ele>
        <time>2012-12-10T11:17:37Z</time>
      </trkpt>
      <trkpt lat="43.98108" lon="5.25684">
        <ele>611.54</ele>
        <time>2012-12-10T11:17:47Z</time>
      </trkpt>
      <trkpt lat="43.98112" lon="5.25699">
        <ele>613.46</ele>
        <time>2012-12-10T11:18:02Z</time>
      </trkpt>
      <trkpt lat="43.9812" lon="5.2571">
        <ele>612.5</ele>
        <time>2012-12-10T11:18:20Z</time>
      </trkpt>
      <trkpt lat="43.98129" lon="5.25722">
        <ele>615.38</ele>
        <time>2012-12-10T11:18:38Z</time>
      </trkpt>
      <trkpt lat="43.9813" lon="5.25722">
        <ele>615.38</ele>
        <time>2012-12-10T11:18:39Z</time>
      </trkpt>
      <trkpt lat="43.98131" lon="5.25724">
        <ele>614.42</ele>
        <time>2012-12-10T11:18:41Z</time>
      </trkpt>
      <trkpt lat="43.98141" lon="5.25734">
        <ele>614.42</ele>
        <time>2012-12-10T11:18:58Z</time>
      </trkpt>
      <trkpt lat="43.98156" lon="5.25744">
        <ele>614.9</ele>
        <time>2012-12-10T11:19:16Z</time>
      </trkpt>
      <trkpt lat="43.98161" lon="5.25747">
        <ele>617.3</ele>
        <time>2012-12-10T11:19:23Z</time>
      </trkpt>
      <trkpt lat="43.98174" lon="5.25746">
        <ele>618.26</ele>
        <time>2012-12-10T11:19:41Z</time>
      </trkpt>
      <trkpt lat="43.98187" lon="5.25757">
        <ele>619.23</ele>
        <time>2012-12-10T11:20:00Z</time>
      </trkpt>
      <trkpt lat="43.98194" lon="5.25773">
        <ele>620.67</ele>
        <time>2012-12-10T11:20:19Z</time>
      </trkpt>
      <trkpt lat="43.98199" lon="5.2579">
        <ele>621.15</ele>
        <time>2012-12-10T11:20:39Z</time>
      </trkpt>
      <trkpt lat="43.98204" lon="5.25804">
        <ele>624.03</ele>
        <time>2012-12-10T11:20:58Z</time>
      </trkpt>
      <trkpt lat="43.98205" lon="5.25811">
        <ele>624.51</ele>
        <time>2012-12-10T11:21:17Z</time>
      </trkpt>
      <trkpt lat="43.98209" lon="5.25821">
        <ele>627.88</ele>
        <time>2012-12-10T11:21:29Z</time>
      </trkpt>
      <trkpt lat="43.98215" lon="5.2584">
        <ele>627.4</ele>
        <time>2012-12-10T11:21:47Z</time>
      </trkpt>
      <trkpt lat="43.98219" lon="5.25855">
        <ele>628.36</ele>
        <time>2012-12-10T11:22:04Z</time>
      </trkpt>
      <trkpt lat="43.98227" lon="5.25863">
        <ele>631.24</ele>
        <time>2012-12-10T11:22:21Z</time>
      </trkpt>
      <trkpt lat="43.98234" lon="5.25875">
        <ele>631.72</ele>
        <time>2012-12-10T11:22:40Z</time>
      </trkpt>
      <trkpt lat="43.98236" lon="5.25891">
        <ele>633.65</ele>
        <time>2012-12-10T11:22:58Z</time>
      </trkpt>
      <trkpt lat="43.98236" lon="5.259">
        <ele>635.09</ele>
        <time>2012-12-10T11:23:15Z</time>
      </trkpt>
      <trkpt lat="43.98238" lon="5.25908">
        <ele>637.97</ele>
        <time>2012-12-10T11:23:25Z</time>
      </trkpt>
      <trkpt lat="43.9824" lon="5.25919">
        <ele>637.01</ele>
        <time>2012-12-10T11:23:39Z</time>
      </trkpt>
      <trkpt lat="43.98242" lon="5.25935">
        <ele>637.01</ele>
        <time>2012-12-10T11:23:58Z</time>
      </trkpt>
      <trkpt lat="43.98243" lon="5.2595">
        <ele>638.93</ele>
        <time>2012-12-10T11:24:16Z</time>
      </trkpt>
      <trkpt lat="43.98245" lon="5.25959">
        <ele>641.82</ele>
        <time>2012-12-10T11:24:32Z</time>
      </trkpt>
      <trkpt lat="43.98246" lon="5.25963">
        <ele>642.78</ele>
        <time>2012-12-10T11:24:54Z</time>
      </trkpt>
      <trkpt lat="43.98248" lon="5.25962">
        <ele>644.22</ele>
        <time>2012-12-10T11:25:01Z</time>
      </trkpt>
      <trkpt lat="43.98252" lon="5.25955">
        <ele>644.7</ele>
        <time>2012-12-10T11:25:21Z</time>
      </trkpt>
      <trkpt lat="43.98244" lon="5.25956">
        <ele>644.22</ele>
        <time>2012-12-10T11:25:46Z</time>
      </trkpt>
      <trkpt lat="43.98244" lon="5.25958">
        <ele>644.7</ele>
        <time>2012-12-10T11:26:15Z</time>
      </trkpt>
      <trkpt lat="43.98242" lon="5.25958">
        <ele>642.3</ele>
        <time>2012-12-10T11:26:44Z</time>
      </trkpt>
      <trkpt lat="43.98243" lon="5.25958">
        <ele>643.26</ele>
        <time>2012-12-10T11:27:10Z</time>
      </trkpt>
      <trkpt lat="43.98242" lon="5.25958">
        <ele>645.18</ele>
        <time>2012-12-10T11:27:42Z</time>
      </trkpt>
      <trkpt lat="43.98241" lon="5.25958">
        <ele>644.22</ele>
        <time>2012-12-10T11:28:10Z</time>
      </trkpt>
      <trkpt lat="43.98243" lon="5.2596">
        <ele>642.3</ele>
        <time>2012-12-10T11:28:41Z</time>
      </trkpt>
      <trkpt lat="43.98243" lon="5.2596">
        <ele>643.74</ele>
        <time>2012-12-10T11:28:43Z</time>
      </trkpt>
      <trkpt lat="43.98243" lon="5.25959">
        <ele>645.18</ele>
        <time>2012-12-10T11:28:45Z</time>
      </trkpt>
      <trkpt lat="43.98242" lon="5.25961">
        <ele>644.22</ele>
        <time>2012-12-10T11:29:10Z</time>
      </trkpt>
      <trkpt lat="43.98245" lon="5.25965">
        <ele>644.22</ele>
        <time>2012-12-10T11:29:36Z</time>
      </trkpt>
      <trkpt lat="43.98246" lon="5.25967">
        <ele>643.74</ele>
        <time>2012-12-10T11:29:59Z</time>
      </trkpt>
      <trkpt lat="43.98242" lon="5.25971">
        <ele>643.74</ele>
        <time>2012-12-10T11:30:15Z</time>
      </trkpt>
      <trkpt lat="43.98248" lon="5.25983">
        <ele>645.18</ele>
        <time>2012-12-10T11:30:33Z</time>
      </trkpt>
      <trkpt lat="43.98252" lon="5.25993">
        <ele>648.55</ele>
        <time>2012-12-10T11:30:45Z</time>
      </trkpt>
      <trkpt lat="43.98252" lon="5.26002">
        <ele>649.03</ele>
        <time>2012-12-10T11:30:57Z</time>
      </trkpt>
      <trkpt lat="43.98253" lon="5.26006">
        <ele>652.39</ele>
        <time>2012-12-10T11:31:04Z</time>
      </trkpt>
      <trkpt lat="43.98254" lon="5.26008">
        <ele>649.03</ele>
        <time>2012-12-10T11:31:06Z</time>
      </trkpt>
      <trkpt lat="43.98254" lon="5.26009">
        <ele>652.87</ele>
        <time>2012-12-10T11:31:07Z</time>
      </trkpt>
      <trkpt lat="43.98254" lon="5.26011">
        <ele>649.51</ele>
        <time>2012-12-10T11:31:10Z</time>
      </trkpt>
      <trkpt lat="43.98255" lon="5.26014">
        <ele>652.87</ele>
        <time>2012-12-10T11:31:14Z</time>
      </trkpt>
      <trkpt lat="43.98255" lon="5.26015">
        <ele>649.99</ele>
        <time>2012-12-10T11:31:15Z</time>
      </trkpt>
      <trkpt lat="43.98255" lon="5.26017">
        <ele>653.35</ele>
        <time>2012-12-10T11:31:17Z</time>
      </trkpt>
      <trkpt lat="43.98256" lon="5.26017">
        <ele>649.99</ele>
        <time>2012-12-10T11:31:18Z</time>
      </trkpt>
      <trkpt lat="43.98256" lon="5.26018">
        <ele>653.35</ele>
        <time>2012-12-10T11:31:20Z</time>
      </trkpt>
      <trkpt lat="43.98257" lon="5.2602">
        <ele>649.99</ele>
        <time>2012-12-10T11:31:25Z</time>
      </trkpt>
      <trkpt lat="43.98257" lon="5.26021">
        <ele>654.31</ele>
        <time>2012-12-10T11:31:26Z</time>
      </trkpt>
      <trkpt lat="43.98258" lon="5.26022">
        <ele>650.95</ele>
        <time>2012-12-10T11:31:29Z</time>
      </trkpt>
      <trkpt lat="43.98261" lon="5.26032">
        <ele>652.39</ele>
        <time>2012-12-10T11:31:49Z</time>
      </trkpt>
      <trkpt lat="43.98265" lon="5.26041">
        <ele>654.31</ele>
        <time>2012-12-10T11:32:09Z</time>
      </trkpt>
      <trkpt lat="43.98267" lon="5.26052">
        <ele>657.68</ele>
        <time>2012-12-10T11:32:26Z</time>
      </trkpt>
      <trkpt lat="43.98269" lon="5.26062">
        <ele>658.16</ele>
        <time>2012-12-10T11:32:46Z</time>
      </trkpt>
      <trkpt lat="43.9827" lon="5.26067">
        <ele>660.56</ele>
        <time>2012-12-10T11:32:57Z</time>
      </trkpt>
      <trkpt lat="43.98275" lon="5.26072">
        <ele>659.12</ele>
        <time>2012-12-10T11:33:15Z</time>
      </trkpt>
      <trkpt lat="43.98277" lon="5.26075">
        <ele>663.45</ele>
        <time>2012-12-10T11:33:25Z</time>
      </trkpt>
      <trkpt lat="43.98276" lon="5.26076">
        <ele>663.45</ele>
        <time>2012-12-10T11:33:26Z</time>
      </trkpt>
      <trkpt lat="43.98277" lon="5.26077">
        <ele>659.6</ele>
        <time>2012-12-10T11:33:33Z</time>
      </trkpt>
      <trkpt lat="43.98277" lon="5.26077">
        <ele>661.52</ele>
        <time>2012-12-10T11:33:39Z</time>
      </trkpt>
      <trkpt lat="43.98279" lon="5.26085">
        <ele>662.97</ele>
        <time>2012-12-10T11:33:56Z</time>
      </trkpt>
      <trkpt lat="43.98278" lon="5.26089">
        <ele>664.89</ele>
        <time>2012-12-10T11:34:03Z</time>
      </trkpt>
      <trkpt lat="43.98278" lon="5.26093">
        <ele>668.25</ele>
        <time>2012-12-10T11:34:13Z</time>
      </trkpt>
      <trkpt lat="43.98281" lon="5.26096">
        <ele>667.77</ele>
        <time>2012-12-10T11:34:32Z</time>
      </trkpt>
      <trkpt lat="43.98292" lon="5.26108">
        <ele>668.25</ele>
        <time>2012-12-10T11:34:51Z</time>
      </trkpt>
      <trkpt lat="43.98299" lon="5.26122">
        <ele>669.22</ele>
        <time>2012-12-10T11:35:09Z</time>
      </trkpt>
      <trkpt lat="43.98302" lon="5.26133">
        <ele>672.1</ele>
        <time>2012-12-10T11:35:26Z</time>
      </trkpt>
      <trkpt lat="43.98303" lon="5.26133">
        <ele>670.18</ele>
        <time>2012-12-10T11:35:27Z</time>
      </trkpt>
      <trkpt lat="43.98302" lon="5.26146">
        <ele>671.62</ele>
        <time>2012-12-10T11:35:46Z</time>
      </trkpt>
      <trkpt lat="43.98307" lon="5.26155">
        <ele>674.98</ele>
        <time>2012-12-10T11:36:01Z</time>
      </trkpt>
      <trkpt lat="43.98315" lon="5.26171">
        <ele>674.98</ele>
        <time>2012-12-10T11:36:17Z</time>
      </trkpt>
      <trkpt lat="43.9832" lon="5.26183">
        <ele>674.02</ele>
        <time>2012-12-10T11:36:32Z</time>
      </trkpt>
      <trkpt lat="43.98327" lon="5.26195">
        <ele>673.54</ele>
        <time>2012-12-10T11:36:47Z</time>
      </trkpt>
      <trkpt lat="43.98331" lon="5.26202">
        <ele>676.42</ele>
        <time>2012-12-10T11:36:56Z</time>
      </trkpt>
      <trkpt lat="43.98336" lon="5.26218">
        <ele>677.87</ele>
        <time>2012-12-10T11:37:13Z</time>
      </trkpt>
      <trkpt lat="43.98342" lon="5.26232">
        <ele>678.35</ele>
        <time>2012-12-10T11:37:32Z</time>
      </trkpt>
      <trkpt lat="43.9835" lon="5.26248">
        <ele>679.79</ele>
        <time>2012-12-10T11:37:52Z</time>
      </trkpt>
      <trkpt lat="43.98354" lon="5.26258">
        <ele>681.71</ele>
        <time>2012-12-10T11:38:12Z</time>
      </trkpt>
      <trkpt lat="43.98356" lon="5.26273">
        <ele>683.63</ele>
        <time>2012-12-10T11:38:29Z</time>
      </trkpt>
      <trkpt lat="43.98358" lon="5.2628">
        <ele>684.12</ele>
        <time>2012-12-10T11:38:37Z</time>
      </trkpt>
      <trkpt lat="43.98367" lon="5.26295">
        <ele>684.6</ele>
        <time>2012-12-10T11:38:55Z</time>
      </trkpt>
      <trkpt lat="43.98374" lon="5.26307">
        <ele>686.04</ele>
        <time>2012-12-10T11:39:12Z</time>
      </trkpt>
      <trkpt lat="43.98378" lon="5.26319">
        <ele>687.48</ele>
        <time>2012-12-10T11:39:30Z</time>
      </trkpt>
      <trkpt lat="43.98381" lon="5.26328">
        <ele>688.92</ele>
        <time>2012-12-10T11:39:50Z</time>
      </trkpt>
      <trkpt lat="43.98387" lon="5.2634">
        <ele>690.84</ele>
        <time>2012-12-10T11:40:09Z</time>
      </trkpt>
      <trkpt lat="43.98387" lon="5.26344">
        <ele>691.81</ele>
        <time>2012-12-10T11:40:14Z</time>
      </trkpt>
      <trkpt lat="43.98387" lon="5.26357">
        <ele>695.17</ele>
        <time>2012-12-10T11:40:32Z</time>
      </trkpt>
      <trkpt lat="43.98387" lon="5.26367">
        <ele>695.17</ele>
        <time>2012-12-10T11:40:46Z</time>
      </trkpt>
      <trkpt lat="43.98389" lon="5.26382">
        <ele>696.13</ele>
        <time>2012-12-10T11:41:06Z</time>
      </trkpt>
      <trkpt lat="43.98389" lon="5.26384">
        <ele>697.57</ele>
        <time>2012-12-10T11:41:09Z</time>
      </trkpt>
      <trkpt lat="43.9839" lon="5.26388">
        <ele>698.05</ele>
        <time>2012-12-10T11:41:13Z</time>
      </trkpt>
      <trkpt lat="43.98393" lon="5.26401">
        <ele>699.02</ele>
        <time>2012-12-10T11:41:30Z</time>
      </trkpt>
      <trkpt lat="43.98395" lon="5.26415">
        <ele>699.02</ele>
        <time>2012-12-10T11:41:46Z</time>
      </trkpt>
      <trkpt lat="43.98399" lon="5.26408">
        <ele>700.46</ele>
        <time>2012-12-10T11:42:07Z</time>
      </trkpt>
      <trkpt lat="43.98396" lon="5.2641">
        <ele>698.53</ele>
        <time>2012-12-10T11:42:24Z</time>
      </trkpt>
      <trkpt lat="43.98401" lon="5.26403">
        <ele>698.53</ele>
        <time>2012-12-10T11:42:36Z</time>
      </trkpt>
      <trkpt lat="43.98405" lon="5.26398">
        <ele>699.98</ele>
        <time>2012-12-10T11:42:51Z</time>
      </trkpt>
      <trkpt lat="43.98405" lon="5.26398">
        <ele>699.98</ele>
        <time>2012-12-10T11:42:52Z</time>
      </trkpt>
      <trkpt lat="43.98406" lon="5.26398">
        <ele>695.65</ele>
        <time>2012-12-10T11:42:53Z</time>
      </trkpt>
      <trkpt lat="43.98406" lon="5.26397">
        <ele>700.94</ele>
        <time>2012-12-10T11:42:54Z</time>
      </trkpt>
      <trkpt lat="43.98406" lon="5.26396">
        <ele>701.42</ele>
        <time>2012-12-10T11:42:55Z</time>
      </trkpt>
      <trkpt lat="43.98406" lon="5.26395">
        <ele>699.5</ele>
        <time>2012-12-10T11:42:57Z</time>
      </trkpt>
      <trkpt lat="43.98405" lon="5.26395">
        <ele>695.17</ele>
        <time>2012-12-10T11:43:01Z</time>
      </trkpt>
      <trkpt lat="43.98405" lon="5.26396">
        <ele>698.53</ele>
        <time>2012-12-10T11:43:10Z</time>
      </trkpt>
      <trkpt lat="43.98405" lon="5.26394">
        <ele>699.02</ele>
        <time>2012-12-10T11:43:41Z</time>
      </trkpt>
      <trkpt lat="43.98406" lon="5.26398">
        <ele>699.02</ele>
        <time>2012-12-10T11:44:06Z</time>
      </trkpt>
      <trkpt lat="43.98407" lon="5.26398">
        <ele>699.02</ele>
        <time>2012-12-10T11:44:35Z</time>
      </trkpt>
      <trkpt lat="43.98405" lon="5.26397">
        <ele>697.57</ele>
        <time>2012-12-10T11:44:55Z</time>
      </trkpt>
      <trkpt lat="43.98408" lon="5.264">
        <ele>699.02</ele>
        <time>2012-12-10T11:45:22Z</time>
      </trkpt>
      <trkpt lat="43.98408" lon="5.26401">
        <ele>698.53</ele>
        <time>2012-12-10T11:45:46Z</time>
      </trkpt>
      <trkpt lat="43.98407" lon="5.26403">
        <ele>698.05</ele>
        <time>2012-12-10T11:46:17Z</time>
      </trkpt>
      <trkpt lat="43.98407" lon="5.26402">
        <ele>697.57</ele>
        <time>2012-12-10T11:46:35Z</time>
      </trkpt>
      <trkpt lat="43.98406" lon="5.26402">
        <ele>699.02</ele>
        <time>2012-12-10T11:46:46Z</time>
      </trkpt>
      <trkpt lat="43.98405" lon="5.26401">
        <ele>700.46</ele>
        <time>2012-12-10T11:47:11Z</time>
      </trkpt>
      <trkpt lat="43.98405" lon="5.26401">
        <ele>698.05</ele>
        <time>2012-12-10T11:47:14Z</time>
      </trkpt>
      <trkpt lat="43.98405" lon="5.26402">
        <ele>702.38</ele>
        <time>2012-12-10T11:47:19Z</time>
      </trkpt>
      <trkpt lat="43.98405" lon="5.26402">
        <ele>698.53</ele>
        <time>2012-12-10T11:47:20Z</time>
      </trkpt>
      <trkpt lat="43.98408" lon="5.26396">
        <ele>698.53</ele>
        <time>2012-12-10T11:47:36Z</time>
      </trkpt>
      <trkpt lat="43.98408" lon="5.26392">
        <ele>695.17</ele>
        <time>2012-12-10T11:47:44Z</time>
      </trkpt>
      <trkpt lat="43.98408" lon="5.26393">
        <ele>701.9</ele>
        <time>2012-12-10T11:47:45Z</time>
      </trkpt>
      <trkpt lat="43.98408" lon="5.26392">
        <ele>698.53</ele>
        <time>2012-12-10T11:47:46Z</time>
      </trkpt>
      <trkpt lat="43.9841" lon="5.26391">
        <ele>699.5</ele>
        <time>2012-12-10T11:48:17Z</time>
      </trkpt>
      <trkpt lat="43.98408" lon="5.26394">
        <ele>698.05</ele>
        <time>2012-12-10T11:48:23Z</time>
      </trkpt>
      <trkpt lat="43.98411" lon="5.26397">
        <ele>699.5</ele>
        <time>2012-12-10T11:48:48Z</time>
      </trkpt>
      <trkpt lat="43.98408" lon="5.26392">
        <ele>700.46</ele>
        <time>2012-12-10T11:49:14Z</time>
      </trkpt>
      <trkpt lat="43.98407" lon="5.2639">
        <ele>696.13</ele>
        <time>2012-12-10T11:49:30Z</time>
      </trkpt>
      <trkpt lat="43.98407" lon="5.2639">
        <ele>699.5</ele>
        <time>2012-12-10T11:49:33Z</time>
      </trkpt>
      <trkpt lat="43.984" lon="5.26399">
        <ele>699.5</ele>
        <time>2012-12-10T11:49:54Z</time>
      </trkpt>
      <trkpt lat="43.98398" lon="5.264">
        <ele>695.17</ele>
        <time>2012-12-10T11:50:06Z</time>
      </trkpt>
      <trkpt lat="43.98399" lon="5.264">
        <ele>703.34</ele>
        <time>2012-12-10T11:50:07Z</time>
      </trkpt>
      <trkpt lat="43.98399" lon="5.264">
        <ele>698.53</ele>
        <time>2012-12-10T11:50:08Z</time>
      </trkpt>
      <trkpt lat="43.98403" lon="5.26396">
        <ele>698.05</ele>
        <time>2012-12-10T11:50:33Z</time>
      </trkpt>
      <trkpt lat="43.98405" lon="5.26396">
        <ele>700.94</ele>
        <time>2012-12-10T11:50:54Z</time>
      </trkpt>
      <trkpt lat="43.98407" lon="5.26397">
        <ele>698.05</ele>
        <time>2012-12-10T11:51:22Z</time>
      </trkpt>
      <trkpt lat="43.98408" lon="5.26397">
        <ele>699.98</ele>
        <time>2012-12-10T11:52:01Z</time>
      </trkpt>
      <trkpt lat="43.98406" lon="5.26394">
        <ele>699.5</ele>
        <time>2012-12-10T11:52:33Z</time>
      </trkpt>
      <trkpt lat="43.98398" lon="5.26405">
        <ele>699.5</ele>
        <time>2012-12-10T11:52:54Z</time>
      </trkpt>
      <trkpt lat="43.98391" lon="5.26413">
        <ele>699.98</ele>
        <time>2012-12-10T11:53:11Z</time>
      </trkpt>
      <trkpt lat="43.98392" lon="5.26414">
        <ele>696.61</ele>
        <time>2012-12-10T11:53:23Z</time>
      </trkpt>
      <trkpt lat="43.98396" lon="5.26411">
        <ele>699.98</ele>
        <time>2012-12-10T11:53:30Z</time>
      </trkpt>
      <trkpt lat="43.984" lon="5.26406">
        <ele>698.53</ele>
        <time>2012-12-10T11:53:51Z</time>
      </trkpt>
      <trkpt lat="43.98407" lon="5.26398">
        <ele>699.98</ele>
        <time>2012-12-10T11:54:11Z</time>
      </trkpt>
      <trkpt lat="43.98406" lon="5.26396">
        <ele>699.5</ele>
        <time>2012-12-10T11:54:35Z</time>
      </trkpt>
      <trkpt lat="43.98405" lon="5.26394">
        <ele>702.38</ele>
        <time>2012-12-10T11:54:48Z</time>
      </trkpt>
      <trkpt lat="43.98405" lon="5.26394">
        <ele>700.46</ele>
        <time>2012-12-10T11:54:50Z</time>
      </trkpt>
      <trkpt lat="43.98412" lon="5.26397">
        <ele>699.5</ele>
        <time>2012-12-10T11:55:12Z</time>
      </trkpt>
      <trkpt lat="43.98411" lon="5.26393">
        <ele>700.46</ele>
        <time>2012-12-10T11:55:29Z</time>
      </trkpt>
      <trkpt lat="43.98411" lon="5.26399">
        <ele>699.98</ele>
        <time>2012-12-10T11:55:53Z</time>
      </trkpt>
      <trkpt lat="43.98411" lon="5.26396">
        <ele>700.46</ele>
        <time>2012-12-10T11:56:13Z</time>
      </trkpt>
      <trkpt lat="43.9841" lon="5.26395">
        <ele>700.46</ele>
        <time>2012-12-10T11:56:41Z</time>
      </trkpt>
      <trkpt lat="43.98409" lon="5.26394">
        <ele>696.61</ele>
        <time>2012-12-10T11:56:54Z</time>
      </trkpt>
      <trkpt lat="43.98409" lon="5.26394">
        <ele>700.94</ele>
        <time>2012-12-10T11:56:55Z</time>
      </trkpt>
      <trkpt lat="43.98408" lon="5.26392">
        <ele>697.57</ele>
        <time>2012-12-10T11:57:23Z</time>
      </trkpt>
      <trkpt lat="43.98409" lon="5.26392">
        <ele>699.98</ele>
        <time>2012-12-10T11:57:58Z</time>
      </trkpt>
      <trkpt lat="43.98409" lon="5.26394">
        <ele>700.46</ele>
        <time>2012-12-10T11:58:38Z</time>
      </trkpt>
      <trkpt lat="43.9841" lon="5.26397">
        <ele>699.5</ele>
        <time>2012-12-10T11:59:09Z</time>
      </trkpt>
      <trkpt lat="43.9841" lon="5.26396">
        <ele>700.46</ele>
        <time>2012-12-10T11:59:11Z</time>
      </trkpt>
      <trkpt lat="43.98406" lon="5.26394">
        <ele>698.53</ele>
        <time>2012-12-10T11:59:43Z</time>
      </trkpt>
      <trkpt lat="43.98407" lon="5.26395">
        <ele>699.98</ele>
        <time>2012-12-10T12:00:17Z</time>
      </trkpt>
      <trkpt lat="43.98408" lon="5.26395">
        <ele>700.46</ele>
        <time>2012-12-10T12:00:44Z</time>
      </trkpt>
      <trkpt lat="43.98408" lon="5.26395">
        <ele>699.98</ele>
        <time>2012-12-10T12:01:10Z</time>
      </trkpt>
      <trkpt lat="43.9841" lon="5.26395">
        <ele>701.9</ele>
        <time>2012-12-10T12:01:39Z</time>
      </trkpt>
      <trkpt lat="43.9841" lon="5.26395">
        <ele>699.5</ele>
        <time>2012-12-10T12:02:12Z</time>
      </trkpt>
      <trkpt lat="43.98409" lon="5.26395">
        <ele>700.46</ele>
        <time>2012-12-10T12:02:25Z</time>
      </trkpt>
      <trkpt lat="43.98406" lon="5.26396">
        <ele>700.46</ele>
        <time>2012-12-10T12:02:47Z</time>
      </trkpt>
      <trkpt lat="43.98405" lon="5.26396">
        <ele>700.94</ele>
        <time>2012-12-10T12:03:18Z</time>
      </trkpt>
      <trkpt lat="43.98403" lon="5.26394">
        <ele>699.98</ele>
        <time>2012-12-10T12:03:46Z</time>
      </trkpt>
      <trkpt lat="43.98403" lon="5.26394">
        <ele>699.02</ele>
        <time>2012-12-10T12:03:48Z</time>
      </trkpt>
      <trkpt lat="43.98404" lon="5.26393">
        <ele>701.9</ele>
        <time>2012-12-10T12:03:54Z</time>
      </trkpt>
      <trkpt lat="43.98405" lon="5.26393">
        <ele>701.42</ele>
        <time>2012-12-10T12:03:55Z</time>
      </trkpt>
      <trkpt lat="43.98407" lon="5.26394">
        <ele>701.42</ele>
        <time>2012-12-10T12:04:16Z</time>
      </trkpt>
      <trkpt lat="43.98408" lon="5.26395">
        <ele>701.42</ele>
        <time>2012-12-10T12:04:47Z</time>
      </trkpt>
      <trkpt lat="43.9841" lon="5.26396">
        <ele>700.94</ele>
        <time>2012-12-10T12:05:18Z</time>
      </trkpt>
      <trkpt lat="43.98411" lon="5.26396">
        <ele>702.38</ele>
        <time>2012-12-10T12:05:38Z</time>
      </trkpt>
      <trkpt lat="43.98411" lon="5.26396">
        <ele>701.9</ele>
        <time>2012-12-10T12:06:10Z</time>
      </trkpt>
      <trkpt lat="43.98408" lon="5.26394">
        <ele>701.42</ele>
        <time>2012-12-10T12:06:32Z</time>
      </trkpt>
      <trkpt lat="43.98411" lon="5.26396">
        <ele>701.42</ele>
        <time>2012-12-10T12:07:06Z</time>
      </trkpt>
      <trkpt lat="43.98407" lon="5.26394">
        <ele>700.94</ele>
        <time>2012-12-10T12:07:37Z</time>
      </trkpt>
      <trkpt lat="43.98405" lon="5.26394">
        <ele>699.02</ele>
        <time>2012-12-10T12:08:14Z</time>
      </trkpt>
      <trkpt lat="43.98405" lon="5.26394">
        <ele>699.02</ele>
        <time>2012-12-10T12:08:15Z</time>
      </trkpt>
      <trkpt lat="43.98406" lon="5.26395">
        <ele>700.94</ele>
        <time>2012-12-10T12:08:51Z</time>
      </trkpt>
      <trkpt lat="43.98406" lon="5.26394">
        <ele>701.42</ele>
        <time>2012-12-10T12:09:26Z</time>
      </trkpt>
      <trkpt lat="43.98407" lon="5.26395">
        <ele>701.9</ele>
        <time>2012-12-10T12:09:49Z</time>
      </trkpt>
      <trkpt lat="43.9841" lon="5.26397">
        <ele>701.9</ele>
        <time>2012-12-10T12:10:16Z</time>
      </trkpt>
      <trkpt lat="43.98408" lon="5.26397">
        <ele>701.42</ele>
        <time>2012-12-10T12:10:50Z</time>
      </trkpt>
      <trkpt lat="43.98409" lon="5.26397">
        <ele>701.42</ele>
        <time>2012-12-10T12:11:14Z</time>
      </trkpt>
      <trkpt lat="43.9841" lon="5.26397">
        <ele>700.46</ele>
        <time>2012-12-10T12:11:16Z</time>
      </trkpt>
      <trkpt lat="43.9841" lon="5.26397">
        <ele>705.26</ele>
        <time>2012-12-10T12:11:17Z</time>
      </trkpt>
      <trkpt lat="43.9841" lon="5.26396">
        <ele>702.38</ele>
        <time>2012-12-10T12:11:18Z</time>
      </trkpt>
      <trkpt lat="43.98411" lon="5.26396">
        <ele>702.86</ele>
        <time>2012-12-10T12:11:50Z</time>
      </trkpt>
      <trkpt lat="43.98404" lon="5.26392">
        <ele>701.42</ele>
        <time>2012-12-10T12:12:23Z</time>
      </trkpt>
      <trkpt lat="43.98406" lon="5.26394">
        <ele>700.94</ele>
        <time>2012-12-10T12:12:59Z</time>
      </trkpt>
      <trkpt lat="43.98408" lon="5.26394">
        <ele>699.98</ele>
        <time>2012-12-10T12:13:26Z</time>
      </trkpt>
      <trkpt lat="43.98409" lon="5.26393">
        <ele>702.38</ele>
        <time>2012-12-10T12:13:48Z</time>
      </trkpt>
      <trkpt lat="43.98407" lon="5.26392">
        <ele>700.46</ele>
        <time>2012-12-10T12:14:06Z</time>
      </trkpt>
      <trkpt lat="43.98409" lon="5.26393">
        <ele>701.42</ele>
        <time>2012-12-10T12:14:35Z</time>
      </trkpt>
      <trkpt lat="43.98409" lon="5.26393">
        <ele>700.94</ele>
        <time>2012-12-10T12:14:36Z</time>
      </trkpt>
      <trkpt lat="43.98407" lon="5.26392">
        <ele>701.9</ele>
        <time>2012-12-10T12:14:50Z</time>
      </trkpt>
      <trkpt lat="43.98412" lon="5.26394">
        <ele>701.42</ele>
        <time>2012-12-10T12:15:20Z</time>
      </trkpt>
      <trkpt lat="43.98411" lon="5.26394">
        <ele>701.9</ele>
        <time>2012-12-10T12:15:34Z</time>
      </trkpt>
      <trkpt lat="43.98408" lon="5.26394">
        <ele>701.42</ele>
        <time>2012-12-10T12:16:09Z</time>
      </trkpt>
      <trkpt lat="43.98408" lon="5.26393">
        <ele>701.9</ele>
        <time>2012-12-10T12:16:46Z</time>
      </trkpt>
      <trkpt lat="43.98409" lon="5.26393">
        <ele>700.94</ele>
        <time>2012-12-10T12:16:48Z</time>
      </trkpt>
      <trkpt lat="43.9841" lon="5.26394">
        <ele>696.61</ele>
        <time>2012-12-10T12:17:12Z</time>
      </trkpt>
      <trkpt lat="43.98409" lon="5.26394">
        <ele>700.94</ele>
        <time>2012-12-10T12:17:13Z</time>
      </trkpt>
      <trkpt lat="43.98411" lon="5.26396">
        <ele>702.38</ele>
        <time>2012-12-10T12:17:43Z</time>
      </trkpt>
      <trkpt lat="43.9841" lon="5.26396">
        <ele>699.02</ele>
        <time>2012-12-10T12:17:56Z</time>
      </trkpt>
      <trkpt lat="43.9841" lon="5.26395">
        <ele>702.38</ele>
        <time>2012-12-10T12:17:58Z</time>
      </trkpt>
      <trkpt lat="43.98409" lon="5.26395">
        <ele>701.42</ele>
        <time>2012-12-10T12:18:27Z</time>
      </trkpt>
      <trkpt lat="43.9841" lon="5.26395">
        <ele>703.34</ele>
        <time>2012-12-10T12:19:02Z</time>
      </trkpt>
      <trkpt lat="43.9841" lon="5.26395">
        <ele>699.5</ele>
        <time>2012-12-10T12:19:08Z</time>
      </trkpt>
      <trkpt lat="43.9841" lon="5.26395">
        <ele>699.5</ele>
        <time>2012-12-10T12:19:09Z</time>
      </trkpt>
      <trkpt lat="43.9841" lon="5.26394">
        <ele>703.34</ele>
        <time>2012-12-10T12:19:11Z</time>
      </trkpt>
      <trkpt lat="43.98411" lon="5.26395">
        <ele>701.9</ele>
        <time>2012-12-10T12:19:20Z</time>
      </trkpt>
      <trkpt lat="43.98409" lon="5.26395">
        <ele>701.9</ele>
        <time>2012-12-10T12:19:59Z</time>
      </trkpt>
      <trkpt lat="43.98409" lon="5.26395">
        <ele>702.38</ele>
        <time>2012-12-10T12:20:22Z</time>
      </trkpt>
      <trkpt lat="43.98409" lon="5.26394">
        <ele>700.94</ele>
        <time>2012-12-10T12:20:59Z</time>
      </trkpt>
      <trkpt lat="43.98412" lon="5.26395">
        <ele>701.42</ele>
        <time>2012-12-10T12:21:25Z</time>
      </trkpt>
      <trkpt lat="43.98412" lon="5.26395">
        <ele>698.53</ele>
        <time>2012-12-10T12:21:32Z</time>
      </trkpt>
      <trkpt lat="43.98412" lon="5.26396">
        <ele>699.5</ele>
        <time>2012-12-10T12:21:33Z</time>
      </trkpt>
      <trkpt lat="43.98411" lon="5.26394">
        <ele>699.98</ele>
        <time>2012-12-10T12:21:57Z</time>
      </trkpt>
      <trkpt lat="43.98411" lon="5.26395">
        <ele>700.94</ele>
        <time>2012-12-10T12:22:09Z</time>
      </trkpt>
      <trkpt lat="43.9841" lon="5.26394">
        <ele>699.5</ele>
        <time>2012-12-10T12:22:18Z</time>
      </trkpt>
      <trkpt lat="43.98408" lon="5.26395">
        <ele>700.94</ele>
        <time>2012-12-10T12:22:50Z</time>
      </trkpt>
      <trkpt lat="43.98408" lon="5.26393">
        <ele>697.09</ele>
        <time>2012-12-10T12:23:18Z</time>
      </trkpt>
      <trkpt lat="43.98408" lon="5.26393">
        <ele>697.09</ele>
        <time>2012-12-10T12:23:19Z</time>
      </trkpt>
      <trkpt lat="43.98411" lon="5.26396">
        <ele>700.46</ele>
        <time>2012-12-10T12:23:35Z</time>
      </trkpt>
      <trkpt lat="43.98407" lon="5.26393">
        <ele>699.5</ele>
        <time>2012-12-10T12:24:05Z</time>
      </trkpt>
      <trkpt lat="43.98407" lon="5.26392">
        <ele>695.17</ele>
        <time>2012-12-10T12:24:22Z</time>
      </trkpt>
      <trkpt lat="43.98407" lon="5.26392">
        <ele>699.02</ele>
        <time>2012-12-10T12:24:23Z</time>
      </trkpt>
      <trkpt lat="43.98408" lon="5.26393">
        <ele>702.86</ele>
        <time>2012-12-10T12:24:24Z</time>
      </trkpt>
      <trkpt lat="43.98408" lon="5.26393">
        <ele>701.9</ele>
        <time>2012-12-10T12:24:25Z</time>
      </trkpt>
      <trkpt lat="43.98411" lon="5.26394">
        <ele>697.57</ele>
        <time>2012-12-10T12:24:47Z</time>
      </trkpt>
      <trkpt lat="43.98411" lon="5.26395">
        <ele>701.9</ele>
        <time>2012-12-10T12:24:48Z</time>
      </trkpt>
      <trkpt lat="43.98412" lon="5.26395">
        <ele>695.17</ele>
        <time>2012-12-10T12:24:54Z</time>
      </trkpt>
      <trkpt lat="43.98412" lon="5.26395">
        <ele>699.5</ele>
        <time>2012-12-10T12:24:55Z</time>
      </trkpt>
      <trkpt lat="43.98412" lon="5.26395">
        <ele>696.13</ele>
        <time>2012-12-10T12:24:56Z</time>
      </trkpt>
      <trkpt lat="43.98412" lon="5.26395">
        <ele>710.55</ele>
        <time>2012-12-10T12:24:57Z</time>
      </trkpt>
      <trkpt lat="43.98412" lon="5.26395">
        <ele>703.34</ele>
        <time>2012-12-10T12:24:58Z</time>
      </trkpt>
      <trkpt lat="43.98412" lon="5.26396">
        <ele>698.05</ele>
        <time>2012-12-10T12:25:02Z</time>
      </trkpt>
      <trkpt lat="43.98411" lon="5.26395">
        <ele>699.98</ele>
        <time>2012-12-10T12:25:03Z</time>
      </trkpt>
      <trkpt lat="43.98411" lon="5.26396">
        <ele>704.78</ele>
        <time>2012-12-10T12:25:04Z</time>
      </trkpt>
      <trkpt lat="43.98411" lon="5.26396">
        <ele>701.42</ele>
        <time>2012-12-10T12:25:05Z</time>
      </trkpt>
      <trkpt lat="43.98412" lon="5.26402">
        <ele>700.94</ele>
        <time>2012-12-10T12:25:29Z</time>
      </trkpt>
      <trkpt lat="43.98406" lon="5.26401">
        <ele>700.94</ele>
        <time>2012-12-10T12:25:43Z</time>
      </trkpt>
      <trkpt lat="43.98412" lon="5.26396">
        <ele>698.53</ele>
        <time>2012-12-10T12:25:55Z</time>
      </trkpt>
      <trkpt lat="43.98412" lon="5.26396">
        <ele>701.9</ele>
        <time>2012-12-10T12:25:57Z</time>
      </trkpt>
      <trkpt lat="43.98412" lon="5.26396">
        <ele>698.53</ele>
        <time>2012-12-10T12:25:58Z</time>
      </trkpt>
      <trkpt lat="43.98412" lon="5.26396">
        <ele>704.78</ele>
        <time>2012-12-10T12:26:01Z</time>
      </trkpt>
      <trkpt lat="43.98412" lon="5.26396">
        <ele>701.42</ele>
        <time>2012-12-10T12:26:02Z</time>
      </trkpt>
      <trkpt lat="43.98411" lon="5.26397">
        <ele>699.98</ele>
        <time>2012-12-10T12:26:04Z</time>
      </trkpt>
      <trkpt lat="43.98407" lon="5.26397">
        <ele>699.5</ele>
        <time>2012-12-10T12:26:23Z</time>
      </trkpt>
      <trkpt lat="43.9841" lon="5.26398">
        <ele>699.98</ele>
        <time>2012-12-10T12:26:46Z</time>
      </trkpt>
      <trkpt lat="43.98411" lon="5.26396">
        <ele>700.94</ele>
        <time>2012-12-10T12:26:55Z</time>
      </trkpt>
      <trkpt lat="43.98412" lon="5.26396">
        <ele>699.98</ele>
        <time>2012-12-10T12:27:08Z</time>
      </trkpt>
      <trkpt lat="43.98406" lon="5.26399">
        <ele>699.98</ele>
        <time>2012-12-10T12:27:24Z</time>
      </trkpt>
      <trkpt lat="43.98406" lon="5.26402">
        <ele>699.02</ele>
        <time>2012-12-10T12:27:48Z</time>
      </trkpt>
      <trkpt lat="43.98409" lon="5.26396">
        <ele>699.98</ele>
        <time>2012-12-10T12:28:11Z</time>
      </trkpt>
      <trkpt lat="43.98401" lon="5.26402">
        <ele>698.05</ele>
        <time>2012-12-10T12:28:27Z</time>
      </trkpt>
      <trkpt lat="43.98399" lon="5.26404">
        <ele>699.98</ele>
        <time>2012-12-10T12:28:32Z</time>
      </trkpt>
      <trkpt lat="43.98392" lon="5.26409">
        <ele>699.5</ele>
        <time>2012-12-10T12:28:50Z</time>
      </trkpt>
      <trkpt lat="43.98392" lon="5.26397">
        <ele>698.53</ele>
        <time>2012-12-10T12:29:14Z</time>
      </trkpt>
      <trkpt lat="43.98392" lon="5.26401">
        <ele>697.09</ele>
        <time>2012-12-10T12:29:30Z</time>
      </trkpt>
      <trkpt lat="43.98392" lon="5.26402">
        <ele>697.09</ele>
        <time>2012-12-10T12:29:31Z</time>
      </trkpt>
      <trkpt lat="43.98396" lon="5.26409">
        <ele>698.05</ele>
        <time>2012-12-10T12:29:42Z</time>
      </trkpt>
      <trkpt lat="43.98402" lon="5.26401">
        <ele>697.57</ele>
        <time>2012-12-10T12:29:58Z</time>
      </trkpt>
      <trkpt lat="43.98409" lon="5.26397">
        <ele>699.5</ele>
        <time>2012-12-10T12:30:13Z</time>
      </trkpt>
      <trkpt lat="43.98412" lon="5.26394">
        <ele>699.5</ele>
        <time>2012-12-10T12:30:30Z</time>
      </trkpt>
      <trkpt lat="43.98409" lon="5.26396">
        <ele>699.5</ele>
        <time>2012-12-10T12:30:48Z</time>
      </trkpt>
      <trkpt lat="43.98414" lon="5.26402">
        <ele>698.53</ele>
        <time>2012-12-10T12:31:02Z</time>
      </trkpt>
      <trkpt lat="43.9841" lon="5.26396">
        <ele>699.02</ele>
        <time>2012-12-10T12:31:22Z</time>
      </trkpt>
      <trkpt lat="43.98407" lon="5.26395">
        <ele>699.02</ele>
        <time>2012-12-10T12:31:48Z</time>
      </trkpt>
      <trkpt lat="43.98405" lon="5.26399">
        <ele>698.53</ele>
        <time>2012-12-10T12:32:05Z</time>
      </trkpt>
      <trkpt lat="43.9841" lon="5.26394">
        <ele>698.53</ele>
        <time>2012-12-10T12:32:29Z</time>
      </trkpt>
      <trkpt lat="43.98401" lon="5.26398">
        <ele>697.57</ele>
        <time>2012-12-10T12:32:51Z</time>
      </trkpt>
      <trkpt lat="43.984" lon="5.26397">
        <ele>698.05</ele>
        <time>2012-12-10T12:33:06Z</time>
      </trkpt>
      <trkpt lat="43.98399" lon="5.26399">
        <ele>698.05</ele>
        <time>2012-12-10T12:33:31Z</time>
      </trkpt>
      <trkpt lat="43.984" lon="5.26401">
        <ele>695.65</ele>
        <time>2012-12-10T12:33:47Z</time>
      </trkpt>
      <trkpt lat="43.98401" lon="5.26401">
        <ele>697.57</ele>
        <time>2012-12-10T12:33:49Z</time>
      </trkpt>
      <trkpt lat="43.98402" lon="5.26404">
        <ele>698.53</ele>
        <time>2012-12-10T12:33:53Z</time>
      </trkpt>
      <trkpt lat="43.98405" lon="5.264">
        <ele>697.57</ele>
        <time>2012-12-10T12:34:23Z</time>
      </trkpt>
      <trkpt lat="43.98401" lon="5.26405">
        <ele>697.57</ele>
        <time>2012-12-10T12:34:40Z</time>
      </trkpt>
      <trkpt lat="43.98397" lon="5.26402">
        <ele>698.05</ele>
        <time>2012-12-10T12:35:00Z</time>
      </trkpt>
      <trkpt lat="43.98403" lon="5.26399">
        <ele>697.09</ele>
        <time>2012-12-10T12:35:18Z</time>
      </trkpt>
      <trkpt lat="43.98411" lon="5.26397">
        <ele>698.05</ele>
        <time>2012-12-10T12:35:32Z</time>
      </trkpt>
      <trkpt lat="43.98413" lon="5.26395">
        <ele>696.61</ele>
        <time>2012-12-10T12:35:37Z</time>
      </trkpt>
      <trkpt lat="43.98412" lon="5.26397">
        <ele>700.94</ele>
        <time>2012-12-10T12:35:46Z</time>
      </trkpt>
      <trkpt lat="43.9841" lon="5.26397">
        <ele>697.09</ele>
        <time>2012-12-10T12:35:50Z</time>
      </trkpt>
      <trkpt lat="43.98407" lon="5.26399">
        <ele>696.13</ele>
        <time>2012-12-10T12:35:58Z</time>
      </trkpt>
      <trkpt lat="43.98406" lon="5.26399">
        <ele>697.57</ele>
        <time>2012-12-10T12:36:01Z</time>
      </trkpt>
      <trkpt lat="43.98402" lon="5.26399">
        <ele>697.09</ele>
        <time>2012-12-10T12:36:20Z</time>
      </trkpt>
      <trkpt lat="43.98399" lon="5.26401">
        <ele>697.57</ele>
        <time>2012-12-10T12:36:40Z</time>
      </trkpt>
      <trkpt lat="43.98397" lon="5.26401">
        <ele>696.13</ele>
        <time>2012-12-10T12:37:03Z</time>
      </trkpt>
      <trkpt lat="43.98398" lon="5.264">
        <ele>697.09</ele>
        <time>2012-12-10T12:37:07Z</time>
      </trkpt>
      <trkpt lat="43.98398" lon="5.264">
        <ele>698.05</ele>
        <time>2012-12-10T12:37:27Z</time>
      </trkpt>
      <trkpt lat="43.98398" lon="5.26399">
        <ele>697.09</ele>
        <time>2012-12-10T12:37:44Z</time>
      </trkpt>
      <trkpt lat="43.98397" lon="5.26399">
        <ele>696.61</ele>
        <time>2012-12-10T12:37:45Z</time>
      </trkpt>
      <trkpt lat="43.98398" lon="5.26398">
        <ele>696.13</ele>
        <time>2012-12-10T12:38:07Z</time>
      </trkpt>
      <trkpt lat="43.98403" lon="5.26394">
        <ele>696.13</ele>
        <time>2012-12-10T12:38:27Z</time>
      </trkpt>
      <trkpt lat="43.98411" lon="5.26393">
        <ele>697.57</ele>
        <time>2012-12-10T12:38:43Z</time>
      </trkpt>
      <trkpt lat="43.98413" lon="5.26393">
        <ele>697.57</ele>
        <time>2012-12-10T12:39:03Z</time>
      </trkpt>
      <trkpt lat="43.98413" lon="5.2639">
        <ele>696.61</ele>
        <time>2012-12-10T12:39:28Z</time>
      </trkpt>
      <trkpt lat="43.98413" lon="5.26392">
        <ele>698.53</ele>
        <time>2012-12-10T12:39:44Z</time>
      </trkpt>
      <trkpt lat="43.98414" lon="5.26392">
        <ele>694.69</ele>
        <time>2012-12-10T12:40:08Z</time>
      </trkpt>
      <trkpt lat="43.98415" lon="5.26391">
        <ele>698.05</ele>
        <time>2012-12-10T12:40:10Z</time>
      </trkpt>
      <trkpt lat="43.98416" lon="5.26391">
        <ele>695.17</ele>
        <time>2012-12-10T12:40:13Z</time>
      </trkpt>
      <trkpt lat="43.98417" lon="5.2639">
        <ele>697.09</ele>
        <time>2012-12-10T12:40:19Z</time>
      </trkpt>
      <trkpt lat="43.98418" lon="5.26391">
        <ele>698.53</ele>
        <time>2012-12-10T12:40:22Z</time>
      </trkpt>
      <trkpt lat="43.98417" lon="5.26392">
        <ele>696.13</ele>
        <time>2012-12-10T12:40:33Z</time>
      </trkpt>
      <trkpt lat="43.98416" lon="5.2639">
        <ele>697.09</ele>
        <time>2012-12-10T12:40:55Z</time>
      </trkpt>
      <trkpt lat="43.98417" lon="5.2639">
        <ele>698.05</ele>
        <time>2012-12-10T12:41:15Z</time>
      </trkpt>
      <trkpt lat="43.98416" lon="5.26391">
        <ele>696.61</ele>
        <time>2012-12-10T12:41:42Z</time>
      </trkpt>
      <trkpt lat="43.98416" lon="5.2639">
        <ele>699.5</ele>
        <time>2012-12-10T12:42:03Z</time>
      </trkpt>
      <trkpt lat="43.98416" lon="5.2639">
        <ele>698.05</ele>
        <time>2012-12-10T12:42:04Z</time>
      </trkpt>
      <trkpt lat="43.98419" lon="5.26392">
        <ele>696.61</ele>
        <time>2012-12-10T12:42:37Z</time>
      </trkpt>
      <trkpt lat="43.98418" lon="5.26389">
        <ele>697.57</ele>
        <time>2012-12-10T12:43:09Z</time>
      </trkpt>
      <trkpt lat="43.98413" lon="5.2639">
        <ele>696.13</ele>
        <time>2012-12-10T12:43:41Z</time>
      </trkpt>
      <trkpt lat="43.98413" lon="5.2639">
        <ele>696.13</ele>
        <time>2012-12-10T12:43:42Z</time>
      </trkpt>
      <trkpt lat="43.98412" lon="5.26391">
        <ele>700.46</ele>
        <time>2012-12-10T12:43:54Z</time>
      </trkpt>
      <trkpt lat="43.98412" lon="5.2639">
        <ele>699.5</ele>
        <time>2012-12-10T12:43:55Z</time>
      </trkpt>
      <trkpt lat="43.98416" lon="5.26394">
        <ele>698.53</ele>
        <time>2012-12-10T12:44:20Z</time>
      </trkpt>
      <trkpt lat="43.98416" lon="5.2639">
        <ele>697.09</ele>
        <time>2012-12-10T12:44:46Z</time>
      </trkpt>
      <trkpt lat="43.98411" lon="5.26393">
        <ele>697.57</ele>
        <time>2012-12-10T12:45:14Z</time>
      </trkpt>
      <trkpt lat="43.98414" lon="5.2639">
        <ele>698.53</ele>
        <time>2012-12-10T12:45:41Z</time>
      </trkpt>
      <trkpt lat="43.98415" lon="5.26385">
        <ele>698.53</ele>
        <time>2012-12-10T12:46:12Z</time>
      </trkpt>
      <trkpt lat="43.98413" lon="5.26386">
        <ele>695.17</ele>
        <time>2012-12-10T12:46:29Z</time>
      </trkpt>
      <trkpt lat="43.98414" lon="5.26391">
        <ele>700.46</ele>
        <time>2012-12-10T12:46:38Z</time>
      </trkpt>
      <trkpt lat="43.98414" lon="5.26391">
        <ele>699.98</ele>
        <time>2012-12-10T12:46:39Z</time>
      </trkpt>
      <trkpt lat="43.98416" lon="5.26391">
        <ele>696.61</ele>
        <time>2012-12-10T12:46:47Z</time>
      </trkpt>
      <trkpt lat="43.98416" lon="5.26391">
        <ele>698.05</ele>
        <time>2012-12-10T12:47:11Z</time>
      </trkpt>
      <trkpt lat="43.98416" lon="5.26392">
        <ele>697.57</ele>
        <time>2012-12-10T12:47:41Z</time>
      </trkpt>
      <trkpt lat="43.98415" lon="5.26391">
        <ele>695.65</ele>
        <time>2012-12-10T12:48:06Z</time>
      </trkpt>
      <trkpt lat="43.98415" lon="5.26391">
        <ele>697.09</ele>
        <time>2012-12-10T12:48:09Z</time>
      </trkpt>
      <trkpt lat="43.98415" lon="5.26389">
        <ele>697.09</ele>
        <time>2012-12-10T12:48:33Z</time>
      </trkpt>
      <trkpt lat="43.98415" lon="5.26389">
        <ele>698.53</ele>
        <time>2012-12-10T12:48:39Z</time>
      </trkpt>
      <trkpt lat="43.98416" lon="5.26389">
        <ele>696.13</ele>
        <time>2012-12-10T12:48:45Z</time>
      </trkpt>
      <trkpt lat="43.98416" lon="5.26389">
        <ele>698.05</ele>
        <time>2012-12-10T12:48:48Z</time>
      </trkpt>
      <trkpt lat="43.98418" lon="5.26393">
        <ele>697.09</ele>
        <time>2012-12-10T12:49:12Z</time>
      </trkpt>
      <trkpt lat="43.98417" lon="5.26388">
        <ele>699.5</ele>
        <time>2012-12-10T12:49:46Z</time>
      </trkpt>
      <trkpt lat="43.98416" lon="5.26391">
        <ele>698.05</ele>
        <time>2012-12-10T12:50:10Z</time>
      </trkpt>
      <trkpt lat="43.98414" lon="5.26392">
        <ele>697.57</ele>
        <time>2012-12-10T12:50:34Z</time>
      </trkpt>
      <trkpt lat="43.98414" lon="5.26391">
        <ele>697.09</ele>
        <time>2012-12-10T12:51:01Z</time>
      </trkpt>
      <trkpt lat="43.98414" lon="5.26391">
        <ele>698.53</ele>
        <time>2012-12-10T12:51:29Z</time>
      </trkpt>
      <trkpt lat="43.98414" lon="5.2639">
        <ele>695.65</ele>
        <time>2012-12-10T12:51:34Z</time>
      </trkpt>
      <trkpt lat="43.98414" lon="5.2639">
        <ele>695.65</ele>
        <time>2012-12-10T12:51:35Z</time>
      </trkpt>
      <trkpt lat="43.98414" lon="5.26391">
        <ele>698.53</ele>
        <time>2012-12-10T12:51:38Z</time>
      </trkpt>
      <trkpt lat="43.98413" lon="5.26397">
        <ele>697.09</ele>
        <time>2012-12-10T12:52:03Z</time>
      </trkpt>
      <trkpt lat="43.98416" lon="5.26394">
        <ele>698.53</ele>
        <time>2012-12-10T12:52:31Z</time>
      </trkpt>
      <trkpt lat="43.98415" lon="5.26394">
        <ele>697.57</ele>
        <time>2012-12-10T12:53:01Z</time>
      </trkpt>
      <trkpt lat="43.98414" lon="5.26397">
        <ele>694.69</ele>
        <time>2012-12-10T12:53:13Z</time>
      </trkpt>
      <trkpt lat="43.98414" lon="5.26397">
        <ele>699.98</ele>
        <time>2012-12-10T12:53:14Z</time>
      </trkpt>
      <trkpt lat="43.98408" lon="5.26398">
        <ele>697.09</ele>
        <time>2012-12-10T12:53:36Z</time>
      </trkpt>
      <trkpt lat="43.98406" lon="5.26393">
        <ele>696.61</ele>
        <time>2012-12-10T12:53:49Z</time>
      </trkpt>
      <trkpt lat="43.98415" lon="5.26378">
        <ele>697.57</ele>
        <time>2012-12-10T12:54:06Z</time>
      </trkpt>
      <trkpt lat="43.98421" lon="5.26358">
        <ele>697.09</ele>
        <time>2012-12-10T12:54:23Z</time>
      </trkpt>
      <trkpt lat="43.98422" lon="5.26357">
        <ele>697.09</ele>
        <time>2012-12-10T12:54:24Z</time>
      </trkpt>
      <trkpt lat="43.98428" lon="5.26334">
        <ele>697.09</ele>
        <time>2012-12-10T12:54:41Z</time>
      </trkpt>
      <trkpt lat="43.98432" lon="5.26311">
        <ele>697.09</ele>
        <time>2012-12-10T12:54:57Z</time>
      </trkpt>
      <trkpt lat="43.98431" lon="5.26302">
        <ele>698.05</ele>
        <time>2012-12-10T12:55:02Z</time>
      </trkpt>
      <trkpt lat="43.98431" lon="5.26299">
        <ele>697.09</ele>
        <time>2012-12-10T12:55:04Z</time>
      </trkpt>
      <trkpt lat="43.98427" lon="5.26268">
        <ele>697.09</ele>
        <time>2012-12-10T12:55:25Z</time>
      </trkpt>
      <trkpt lat="43.98425" lon="5.26243">
        <ele>697.09</ele>
        <time>2012-12-10T12:55:42Z</time>
      </trkpt>
      <trkpt lat="43.98426" lon="5.26235">
        <ele>696.13</ele>
        <time>2012-12-10T12:55:47Z</time>
      </trkpt>
      <trkpt lat="43.98424" lon="5.26212">
        <ele>697.09</ele>
        <time>2012-12-10T12:56:04Z</time>
      </trkpt>
      <trkpt lat="43.98415" lon="5.26191">
        <ele>695.17</ele>
        <time>2012-12-10T12:56:22Z</time>
      </trkpt>
      <trkpt lat="43.98405" lon="5.26172">
        <ele>694.21</ele>
        <time>2012-12-10T12:56:39Z</time>
      </trkpt>
      <trkpt lat="43.98398" lon="5.26153">
        <ele>692.77</ele>
        <time>2012-12-10T12:56:55Z</time>
      </trkpt>
      <trkpt lat="43.98391" lon="5.26135">
        <ele>691.81</ele>
        <time>2012-12-10T12:57:11Z</time>
      </trkpt>
      <trkpt lat="43.98385" lon="5.26116">
        <ele>690.36</ele>
        <time>2012-12-10T12:57:27Z</time>
      </trkpt>
      <trkpt lat="43.98377" lon="5.26096">
        <ele>689.4</ele>
        <time>2012-12-10T12:57:44Z</time>
      </trkpt>
      <trkpt lat="43.98368" lon="5.26076">
        <ele>689.4</ele>
        <time>2012-12-10T12:58:03Z</time>
      </trkpt>
      <trkpt lat="43.98366" lon="5.26068">
        <ele>690.84</ele>
        <time>2012-12-10T12:58:09Z</time>
      </trkpt>
      <trkpt lat="43.98365" lon="5.26067">
        <ele>690.36</ele>
        <time>2012-12-10T12:58:11Z</time>
      </trkpt>
      <trkpt lat="43.9836" lon="5.26053">
        <ele>686.52</ele>
        <time>2012-12-10T12:58:23Z</time>
      </trkpt>
      <trkpt lat="43.98357" lon="5.26041">
        <ele>688.44</ele>
        <time>2012-12-10T12:58:33Z</time>
      </trkpt>
      <trkpt lat="43.98356" lon="5.2603">
        <ele>685.08</ele>
        <time>2012-12-10T12:58:40Z</time>
      </trkpt>
      <trkpt lat="43.98356" lon="5.26028">
        <ele>688.44</ele>
        <time>2012-12-10T12:58:42Z</time>
      </trkpt>
      <trkpt lat="43.98357" lon="5.26018">
        <ele>686.52</ele>
        <time>2012-12-10T12:58:49Z</time>
      </trkpt>
      <trkpt lat="43.98358" lon="5.26008">
        <ele>687.48</ele>
        <time>2012-12-10T12:58:57Z</time>
      </trkpt>
      <trkpt lat="43.98363" lon="5.25995">
        <ele>685.56</ele>
        <time>2012-12-10T12:59:09Z</time>
      </trkpt>
      <trkpt lat="43.98365" lon="5.25992">
        <ele>683.63</ele>
        <time>2012-12-10T12:59:12Z</time>
      </trkpt>
      <trkpt lat="43.98367" lon="5.2599">
        <ele>685.56</ele>
        <time>2012-12-10T12:59:15Z</time>
      </trkpt>
      <trkpt lat="43.98368" lon="5.25988">
        <ele>684.12</ele>
        <time>2012-12-10T12:59:17Z</time>
      </trkpt>
      <trkpt lat="43.98374" lon="5.25981">
        <ele>687.48</ele>
        <time>2012-12-10T12:59:26Z</time>
      </trkpt>
      <trkpt lat="43.98375" lon="5.2598">
        <ele>687.48</ele>
        <time>2012-12-10T12:59:27Z</time>
      </trkpt>
      <trkpt lat="43.98377" lon="5.25978">
        <ele>686.04</ele>
        <time>2012-12-10T12:59:29Z</time>
      </trkpt>
      <trkpt lat="43.98379" lon="5.25976">
        <ele>685.08</ele>
        <time>2012-12-10T12:59:32Z</time>
      </trkpt>
      <trkpt lat="43.98395" lon="5.25964">
        <ele>684.6</ele>
        <time>2012-12-10T12:59:49Z</time>
      </trkpt>
      <trkpt lat="43.98406" lon="5.25953">
        <ele>684.12</ele>
        <time>2012-12-10T13:00:02Z</time>
      </trkpt>
      <trkpt lat="43.98406" lon="5.25952">
        <ele>684.12</ele>
        <time>2012-12-10T13:00:03Z</time>
      </trkpt>
      <trkpt lat="43.98413" lon="5.25935">
        <ele>685.08</ele>
        <time>2012-12-10T13:00:16Z</time>
      </trkpt>
      <trkpt lat="43.9841" lon="5.25907">
        <ele>681.71</ele>
        <time>2012-12-10T13:00:35Z</time>
      </trkpt>
      <trkpt lat="43.98404" lon="5.25893">
        <ele>682.67</ele>
        <time>2012-12-10T13:00:46Z</time>
      </trkpt>
      <trkpt lat="43.98394" lon="5.25874">
        <ele>680.75</ele>
        <time>2012-12-10T13:01:01Z</time>
      </trkpt>
      <trkpt lat="43.9839" lon="5.25862">
        <ele>681.23</ele>
        <time>2012-12-10T13:01:10Z</time>
      </trkpt>
      <trkpt lat="43.98388" lon="5.25841">
        <ele>680.75</ele>
        <time>2012-12-10T13:01:25Z</time>
      </trkpt>
      <trkpt lat="43.98387" lon="5.25834">
        <ele>680.27</ele>
        <time>2012-12-10T13:01:30Z</time>
      </trkpt>
      <trkpt lat="43.98388" lon="5.25828">
        <ele>681.71</ele>
        <time>2012-12-10T13:01:47Z</time>
      </trkpt>
      <trkpt lat="43.98384" lon="5.25826">
        <ele>682.19</ele>
        <time>2012-12-10T13:02:09Z</time>
      </trkpt>
      <trkpt lat="43.98385" lon="5.25818">
        <ele>680.75</ele>
        <time>2012-12-10T13:02:25Z</time>
      </trkpt>
      <trkpt lat="43.98386" lon="5.25809">
        <ele>682.67</ele>
        <time>2012-12-10T13:02:43Z</time>
      </trkpt>
      <trkpt lat="43.98396" lon="5.25791">
        <ele>681.23</ele>
        <time>2012-12-10T13:03:01Z</time>
      </trkpt>
      <trkpt lat="43.98393" lon="5.25775">
        <ele>683.63</ele>
        <time>2012-12-10T13:03:16Z</time>
      </trkpt>
      <trkpt lat="43.98388" lon="5.25759">
        <ele>680.27</ele>
        <time>2012-12-10T13:03:32Z</time>
      </trkpt>
      <trkpt lat="43.98387" lon="5.25752">
        <ele>681.71</ele>
        <time>2012-12-10T13:03:47Z</time>
      </trkpt>
      <trkpt lat="43.98393" lon="5.25735">
        <ele>681.23</ele>
        <time>2012-12-10T13:04:03Z</time>
      </trkpt>
      <trkpt lat="43.98396" lon="5.25714">
        <ele>680.75</ele>
        <time>2012-12-10T13:04:20Z</time>
      </trkpt>
      <trkpt lat="43.98394" lon="5.25706">
        <ele>681.71</ele>
        <time>2012-12-10T13:04:26Z</time>
      </trkpt>
      <trkpt lat="43.98388" lon="5.25685">
        <ele>680.27</ele>
        <time>2012-12-10T13:04:43Z</time>
      </trkpt>
      <trkpt lat="43.98385" lon="5.25667">
        <ele>682.67</ele>
        <time>2012-12-10T13:04:56Z</time>
      </trkpt>
      <trkpt lat="43.9838" lon="5.25654">
        <ele>682.67</ele>
        <time>2012-12-10T13:05:06Z</time>
      </trkpt>
      <trkpt lat="43.98368" lon="5.25632">
        <ele>680.75</ele>
        <time>2012-12-10T13:05:24Z</time>
      </trkpt>
      <trkpt lat="43.98364" lon="5.25611">
        <ele>682.67</ele>
        <time>2012-12-10T13:05:39Z</time>
      </trkpt>
      <trkpt lat="43.98363" lon="5.25593">
        <ele>680.75</ele>
        <time>2012-12-10T13:05:52Z</time>
      </trkpt>
      <trkpt lat="43.98364" lon="5.25565">
        <ele>682.19</ele>
        <time>2012-12-10T13:06:11Z</time>
      </trkpt>
      <trkpt lat="43.98361" lon="5.25538">
        <ele>681.23</ele>
        <time>2012-12-10T13:06:30Z</time>
      </trkpt>
      <trkpt lat="43.98356" lon="5.25514">
        <ele>682.19</ele>
        <time>2012-12-10T13:06:46Z</time>
      </trkpt>
      <trkpt lat="43.9835" lon="5.25493">
        <ele>681.23</ele>
        <time>2012-12-10T13:07:01Z</time>
      </trkpt>
      <trkpt lat="43.98339" lon="5.2547">
        <ele>682.19</ele>
        <time>2012-12-10T13:07:20Z</time>
      </trkpt>
      <trkpt lat="43.98339" lon="5.25468">
        <ele>680.75</ele>
        <time>2012-12-10T13:07:23Z</time>
      </trkpt>
      <trkpt lat="43.98335" lon="5.25453">
        <ele>681.23</ele>
        <time>2012-12-10T13:07:41Z</time>
      </trkpt>
      <trkpt lat="43.98333" lon="5.25454">
        <ele>682.67</ele>
        <time>2012-12-10T13:08:00Z</time>
      </trkpt>
      <trkpt lat="43.98331" lon="5.25443">
        <ele>682.19</ele>
        <time>2012-12-10T13:08:22Z</time>
      </trkpt>
      <trkpt lat="43.98327" lon="5.25428">
        <ele>680.27</ele>
        <time>2012-12-10T13:08:36Z</time>
      </trkpt>
      <trkpt lat="43.98326" lon="5.25429">
        <ele>682.67</ele>
        <time>2012-12-10T13:08:43Z</time>
      </trkpt>
      <trkpt lat="43.98324" lon="5.25419">
        <ele>683.15</ele>
        <time>2012-12-10T13:08:59Z</time>
      </trkpt>
      <trkpt lat="43.98321" lon="5.25396">
        <ele>682.19</ele>
        <time>2012-12-10T13:09:16Z</time>
      </trkpt>
      <trkpt lat="43.98319" lon="5.25393">
        <ele>681.23</ele>
        <time>2012-12-10T13:09:30Z</time>
      </trkpt>
      <trkpt lat="43.98321" lon="5.25379">
        <ele>683.15</ele>
        <time>2012-12-10T13:09:49Z</time>
      </trkpt>
      <trkpt lat="43.98319" lon="5.25366">
        <ele>682.67</ele>
        <time>2012-12-10T13:10:01Z</time>
      </trkpt>
      <trkpt lat="43.98312" lon="5.25348">
        <ele>680.27</ele>
        <time>2012-12-10T13:10:17Z</time>
      </trkpt>
      <trkpt lat="43.98304" lon="5.25325">
        <ele>679.79</ele>
        <time>2012-12-10T13:10:37Z</time>
      </trkpt>
      <trkpt lat="43.98303" lon="5.25323">
        <ele>682.19</ele>
        <time>2012-12-10T13:10:39Z</time>
      </trkpt>
      <trkpt lat="43.98299" lon="5.25309">
        <ele>684.12</ele>
        <time>2012-12-10T13:10:51Z</time>
      </trkpt>
      <trkpt lat="43.98298" lon="5.25307">
        <ele>682.67</ele>
        <time>2012-12-10T13:10:53Z</time>
      </trkpt>
      <trkpt lat="43.98298" lon="5.25304">
        <ele>679.31</ele>
        <time>2012-12-10T13:10:55Z</time>
      </trkpt>
      <trkpt lat="43.98297" lon="5.25303">
        <ele>679.79</ele>
        <time>2012-12-10T13:10:56Z</time>
      </trkpt>
      <trkpt lat="43.98297" lon="5.25302">
        <ele>683.63</ele>
        <time>2012-12-10T13:10:57Z</time>
      </trkpt>
      <trkpt lat="43.98296" lon="5.25295">
        <ele>681.23</ele>
        <time>2012-12-10T13:11:03Z</time>
      </trkpt>
      <trkpt lat="43.98294" lon="5.2528">
        <ele>681.71</ele>
        <time>2012-12-10T13:11:16Z</time>
      </trkpt>
      <trkpt lat="43.98296" lon="5.25266">
        <ele>677.87</ele>
        <time>2012-12-10T13:11:26Z</time>
      </trkpt>
      <trkpt lat="43.98296" lon="5.25265">
        <ele>678.83</ele>
        <time>2012-12-10T13:11:27Z</time>
      </trkpt>
      <trkpt lat="43.983" lon="5.25254">
        <ele>680.27</ele>
        <time>2012-12-10T13:11:36Z</time>
      </trkpt>
      <trkpt lat="43.98301" lon="5.2525">
        <ele>677.39</ele>
        <time>2012-12-10T13:11:39Z</time>
      </trkpt>
      <trkpt lat="43.98311" lon="5.2524">
        <ele>676.42</ele>
        <time>2012-12-10T13:11:51Z</time>
      </trkpt>
      <trkpt lat="43.98322" lon="5.25229">
        <ele>674.5</ele>
        <time>2012-12-10T13:12:05Z</time>
      </trkpt>
      <trkpt lat="43.98337" lon="5.2523">
        <ele>672.1</ele>
        <time>2012-12-10T13:12:21Z</time>
      </trkpt>
      <trkpt lat="43.98339" lon="5.25231">
        <ele>670.66</ele>
        <time>2012-12-10T13:12:23Z</time>
      </trkpt>
      <trkpt lat="43.98343" lon="5.25232">
        <ele>669.7</ele>
        <time>2012-12-10T13:12:27Z</time>
      </trkpt>
      <trkpt lat="43.98361" lon="5.25234">
        <ele>670.18</ele>
        <time>2012-12-10T13:12:45Z</time>
      </trkpt>
      <trkpt lat="43.9837" lon="5.25237">
        <ele>670.18</ele>
        <time>2012-12-10T13:12:54Z</time>
      </trkpt>
      <trkpt lat="43.9838" lon="5.2524">
        <ele>669.7</ele>
        <time>2012-12-10T13:13:05Z</time>
      </trkpt>
      <trkpt lat="43.98397" lon="5.25246">
        <ele>667.29</ele>
        <time>2012-12-10T13:13:21Z</time>
      </trkpt>
      <trkpt lat="43.98418" lon="5.25248">
        <ele>665.37</ele>
        <time>2012-12-10T13:13:41Z</time>
      </trkpt>
      <trkpt lat="43.98432" lon="5.25248">
        <ele>662.97</ele>
        <time>2012-12-10T13:13:53Z</time>
      </trkpt>
      <trkpt lat="43.98435" lon="5.2525">
        <ele>666.33</ele>
        <time>2012-12-10T13:13:57Z</time>
      </trkpt>
      <trkpt lat="43.98436" lon="5.2525">
        <ele>666.33</ele>
        <time>2012-12-10T13:13:58Z</time>
      </trkpt>
      <trkpt lat="43.98441" lon="5.25249">
        <ele>663.93</ele>
        <time>2012-12-10T13:14:03Z</time>
      </trkpt>
      <trkpt lat="43.98458" lon="5.25246">
        <ele>662.49</ele>
        <time>2012-12-10T13:14:19Z</time>
      </trkpt>
      <trkpt lat="43.98466" lon="5.25232">
        <ele>663.93</ele>
        <time>2012-12-10T13:14:35Z</time>
      </trkpt>
      <trkpt lat="43.98466" lon="5.25231">
        <ele>663.93</ele>
        <time>2012-12-10T13:14:36Z</time>
      </trkpt>
      <trkpt lat="43.98469" lon="5.25218">
        <ele>663.93</ele>
        <time>2012-12-10T13:14:49Z</time>
      </trkpt>
      <trkpt lat="43.98478" lon="5.25201">
        <ele>663.45</ele>
        <time>2012-12-10T13:15:06Z</time>
      </trkpt>
      <trkpt lat="43.98487" lon="5.25186">
        <ele>661.04</ele>
        <time>2012-12-10T13:15:22Z</time>
      </trkpt>
      <trkpt lat="43.98496" lon="5.25167">
        <ele>660.56</ele>
        <time>2012-12-10T13:15:37Z</time>
      </trkpt>
      <trkpt lat="43.98501" lon="5.25145">
        <ele>659.12</ele>
        <time>2012-12-10T13:15:54Z</time>
      </trkpt>
      <trkpt lat="43.98508" lon="5.25133">
        <ele>657.2</ele>
        <time>2012-12-10T13:16:09Z</time>
      </trkpt>
      <trkpt lat="43.985" lon="5.25115">
        <ele>656.24</ele>
        <time>2012-12-10T13:16:26Z</time>
      </trkpt>
      <trkpt lat="43.98499" lon="5.25115">
        <ele>655.76</ele>
        <time>2012-12-10T13:16:28Z</time>
      </trkpt>
      <trkpt lat="43.98487" lon="5.25112">
        <ele>655.28</ele>
        <time>2012-12-10T13:16:42Z</time>
      </trkpt>
      <trkpt lat="43.98476" lon="5.25117">
        <ele>654.31</ele>
        <time>2012-12-10T13:16:58Z</time>
      </trkpt>
      <trkpt lat="43.98463" lon="5.25127">
        <ele>652.39</ele>
        <time>2012-12-10T13:17:15Z</time>
      </trkpt>
      <trkpt lat="43.98455" lon="5.25133">
        <ele>651.91</ele>
        <time>2012-12-10T13:17:29Z</time>
      </trkpt>
      <trkpt lat="43.98443" lon="5.25135">
        <ele>650.95</ele>
        <time>2012-12-10T13:17:43Z</time>
      </trkpt>
      <trkpt lat="43.98434" lon="5.2513">
        <ele>650.47</ele>
        <time>2012-12-10T13:17:59Z</time>
      </trkpt>
      <trkpt lat="43.98422" lon="5.25125">
        <ele>649.99</ele>
        <time>2012-12-10T13:18:15Z</time>
      </trkpt>
      <trkpt lat="43.98414" lon="5.25119">
        <ele>649.03</ele>
        <time>2012-12-10T13:18:27Z</time>
      </trkpt>
      <trkpt lat="43.98404" lon="5.25109">
        <ele>649.51</ele>
        <time>2012-12-10T13:18:41Z</time>
      </trkpt>
      <trkpt lat="43.98399" lon="5.25093">
        <ele>648.55</ele>
        <time>2012-12-10T13:18:55Z</time>
      </trkpt>
      <trkpt lat="43.9839" lon="5.25074">
        <ele>648.55</ele>
        <time>2012-12-10T13:19:13Z</time>
      </trkpt>
      <trkpt lat="43.98385" lon="5.25069">
        <ele>648.07</ele>
        <time>2012-12-10T13:19:20Z</time>
      </trkpt>
      <trkpt lat="43.98379" lon="5.25063">
        <ele>648.55</ele>
        <time>2012-12-10T13:19:27Z</time>
      </trkpt>
      <trkpt lat="43.98367" lon="5.25056">
        <ele>648.55</ele>
        <time>2012-12-10T13:19:41Z</time>
      </trkpt>
      <trkpt lat="43.98364" lon="5.25053">
        <ele>648.55</ele>
        <time>2012-12-10T13:19:45Z</time>
      </trkpt>
      <trkpt lat="43.98349" lon="5.25046">
        <ele>649.03</ele>
        <time>2012-12-10T13:20:00Z</time>
      </trkpt>
      <trkpt lat="43.9833" lon="5.25044">
        <ele>649.03</ele>
        <time>2012-12-10T13:20:19Z</time>
      </trkpt>
      <trkpt lat="43.98315" lon="5.25046">
        <ele>649.51</ele>
        <time>2012-12-10T13:20:33Z</time>
      </trkpt>
      <trkpt lat="43.983" lon="5.25043">
        <ele>649.03</ele>
        <time>2012-12-10T13:20:49Z</time>
      </trkpt>
      <trkpt lat="43.98284" lon="5.25036">
        <ele>648.55</ele>
        <time>2012-12-10T13:21:05Z</time>
      </trkpt>
      <trkpt lat="43.9828" lon="5.25029">
        <ele>648.55</ele>
        <time>2012-12-10T13:21:12Z</time>
      </trkpt>
      <trkpt lat="43.98268" lon="5.25013">
        <ele>647.59</ele>
        <time>2012-12-10T13:21:29Z</time>
      </trkpt>
      <trkpt lat="43.9826" lon="5.25003">
        <ele>648.07</ele>
        <time>2012-12-10T13:21:40Z</time>
      </trkpt>
      <trkpt lat="43.98257" lon="5.24996">
        <ele>648.55</ele>
        <time>2012-12-10T13:21:47Z</time>
      </trkpt>
      <trkpt lat="43.98248" lon="5.24977">
        <ele>648.07</ele>
        <time>2012-12-10T13:22:03Z</time>
      </trkpt>
      <trkpt lat="43.98244" lon="5.24973">
        <ele>648.55</ele>
        <time>2012-12-10T13:22:09Z</time>
      </trkpt>
      <trkpt lat="43.98233" lon="5.24958">
        <ele>648.55</ele>
        <time>2012-12-10T13:22:24Z</time>
      </trkpt>
      <trkpt lat="43.98222" lon="5.24945">
        <ele>648.07</ele>
        <time>2012-12-10T13:22:39Z</time>
      </trkpt>
      <trkpt lat="43.98216" lon="5.24943">
        <ele>647.1</ele>
        <time>2012-12-10T13:22:53Z</time>
      </trkpt>
      <trkpt lat="43.98207" lon="5.24935">
        <ele>647.1</ele>
        <time>2012-12-10T13:23:09Z</time>
      </trkpt>
      <trkpt lat="43.98193" lon="5.24927">
        <ele>646.62</ele>
        <time>2012-12-10T13:23:25Z</time>
      </trkpt>
      <trkpt lat="43.98183" lon="5.24924">
        <ele>646.14</ele>
        <time>2012-12-10T13:23:38Z</time>
      </trkpt>
      <trkpt lat="43.98166" lon="5.24925">
        <ele>646.62</ele>
        <time>2012-12-10T13:23:56Z</time>
      </trkpt>
      <trkpt lat="43.98151" lon="5.24927">
        <ele>646.14</ele>
        <time>2012-12-10T13:24:11Z</time>
      </trkpt>
      <trkpt lat="43.98135" lon="5.24932">
        <ele>646.14</ele>
        <time>2012-12-10T13:24:29Z</time>
      </trkpt>
      <trkpt lat="43.98122" lon="5.24943">
        <ele>646.14</ele>
        <time>2012-12-10T13:24:46Z</time>
      </trkpt>
      <trkpt lat="43.98111" lon="5.24953">
        <ele>646.14</ele>
        <time>2012-12-10T13:25:02Z</time>
      </trkpt>
      <trkpt lat="43.98096" lon="5.24963">
        <ele>645.18</ele>
        <time>2012-12-10T13:25:19Z</time>
      </trkpt>
      <trkpt lat="43.98081" lon="5.24971">
        <ele>646.14</ele>
        <time>2012-12-10T13:25:36Z</time>
      </trkpt>
      <trkpt lat="43.9808" lon="5.24974">
        <ele>646.14</ele>
        <time>2012-12-10T13:25:44Z</time>
      </trkpt>
      <trkpt lat="43.9808" lon="5.24975">
        <ele>644.7</ele>
        <time>2012-12-10T13:25:57Z</time>
      </trkpt>
      <trkpt lat="43.9808" lon="5.24977">
        <ele>647.59</ele>
        <time>2012-12-10T13:26:15Z</time>
      </trkpt>
      <trkpt lat="43.98079" lon="5.24977">
        <ele>645.18</ele>
        <time>2012-12-10T13:26:25Z</time>
      </trkpt>
      <trkpt lat="43.98077" lon="5.24975">
        <ele>646.14</ele>
        <time>2012-12-10T13:26:43Z</time>
      </trkpt>
      <trkpt lat="43.98065" lon="5.24975">
        <ele>647.1</ele>
        <time>2012-12-10T13:26:59Z</time>
      </trkpt>
      <trkpt lat="43.98048" lon="5.24971">
        <ele>646.62</ele>
        <time>2012-12-10T13:27:17Z</time>
      </trkpt>
      <trkpt lat="43.9804" lon="5.24969">
        <ele>646.14</ele>
        <time>2012-12-10T13:27:34Z</time>
      </trkpt>
      <trkpt lat="43.98038" lon="5.24968">
        <ele>646.14</ele>
        <time>2012-12-10T13:27:53Z</time>
      </trkpt>
      <trkpt lat="43.98027" lon="5.2496">
        <ele>644.22</ele>
        <time>2012-12-10T13:28:06Z</time>
      </trkpt>
      <trkpt lat="43.9802" lon="5.24953">
        <ele>646.14</ele>
        <time>2012-12-10T13:28:15Z</time>
      </trkpt>
      <trkpt lat="43.98006" lon="5.24941">
        <ele>644.22</ele>
        <time>2012-12-10T13:28:32Z</time>
      </trkpt>
      <trkpt lat="43.97997" lon="5.24921">
        <ele>645.18</ele>
        <time>2012-12-10T13:28:49Z</time>
      </trkpt>
      <trkpt lat="43.97993" lon="5.24897">
        <ele>644.22</ele>
        <time>2012-12-10T13:29:08Z</time>
      </trkpt>
      <trkpt lat="43.97996" lon="5.24877">
        <ele>644.7</ele>
        <time>2012-12-10T13:29:25Z</time>
      </trkpt>
      <trkpt lat="43.98006" lon="5.2486">
        <ele>645.66</ele>
        <time>2012-12-10T13:29:42Z</time>
      </trkpt>
      <trkpt lat="43.98019" lon="5.24838">
        <ele>645.18</ele>
        <time>2012-12-10T13:30:00Z</time>
      </trkpt>
      <trkpt lat="43.98031" lon="5.24825">
        <ele>645.66</ele>
        <time>2012-12-10T13:30:15Z</time>
      </trkpt>
      <trkpt lat="43.98042" lon="5.24813">
        <ele>645.66</ele>
        <time>2012-12-10T13:30:28Z</time>
      </trkpt>
      <trkpt lat="43.98056" lon="5.24793">
        <ele>645.18</ele>
        <time>2012-12-10T13:30:47Z</time>
      </trkpt>
      <trkpt lat="43.98066" lon="5.24782">
        <ele>647.1</ele>
        <time>2012-12-10T13:31:02Z</time>
      </trkpt>
      <trkpt lat="43.98077" lon="5.24769">
        <ele>647.1</ele>
        <time>2012-12-10T13:31:18Z</time>
      </trkpt>
      <trkpt lat="43.98085" lon="5.24751">
        <ele>648.07</ele>
        <time>2012-12-10T13:31:34Z</time>
      </trkpt>
      <trkpt lat="43.98095" lon="5.24733">
        <ele>648.55</ele>
        <time>2012-12-10T13:31:51Z</time>
      </trkpt>
      <trkpt lat="43.98101" lon="5.24719">
        <ele>649.51</ele>
        <time>2012-12-10T13:32:03Z</time>
      </trkpt>
      <trkpt lat="43.98106" lon="5.24701">
        <ele>648.55</ele>
        <time>2012-12-10T13:32:18Z</time>
      </trkpt>
      <trkpt lat="43.98109" lon="5.24698">
        <ele>649.99</ele>
        <time>2012-12-10T13:32:22Z</time>
      </trkpt>
      <trkpt lat="43.98125" lon="5.24689">
        <ele>649.99</ele>
        <time>2012-12-10T13:32:39Z</time>
      </trkpt>
      <trkpt lat="43.98127" lon="5.24688">
        <ele>648.07</ele>
        <time>2012-12-10T13:32:41Z</time>
      </trkpt>
      <trkpt lat="43.98138" lon="5.24674">
        <ele>647.59</ele>
        <time>2012-12-10T13:32:58Z</time>
      </trkpt>
      <trkpt lat="43.98149" lon="5.24658">
        <ele>647.59</ele>
        <time>2012-12-10T13:33:14Z</time>
      </trkpt>
      <trkpt lat="43.98156" lon="5.24641">
        <ele>648.55</ele>
        <time>2012-12-10T13:33:28Z</time>
      </trkpt>
      <trkpt lat="43.98168" lon="5.24627">
        <ele>647.59</ele>
        <time>2012-12-10T13:33:45Z</time>
      </trkpt>
      <trkpt lat="43.98177" lon="5.24612">
        <ele>646.62</ele>
        <time>2012-12-10T13:34:02Z</time>
      </trkpt>
      <trkpt lat="43.98188" lon="5.24597">
        <ele>647.1</ele>
        <time>2012-12-10T13:34:21Z</time>
      </trkpt>
      <trkpt lat="43.98199" lon="5.24589">
        <ele>647.1</ele>
        <time>2012-12-10T13:34:38Z</time>
      </trkpt>
      <trkpt lat="43.98202" lon="5.24568">
        <ele>645.18</ele>
        <time>2012-12-10T13:34:56Z</time>
      </trkpt>
      <trkpt lat="43.98201" lon="5.2456">
        <ele>646.62</ele>
        <time>2012-12-10T13:35:13Z</time>
      </trkpt>
      <trkpt lat="43.98185" lon="5.24561">
        <ele>647.1</ele>
        <time>2012-12-10T13:35:30Z</time>
      </trkpt>
      <trkpt lat="43.98173" lon="5.24564">
        <ele>648.07</ele>
        <time>2012-12-10T13:35:41Z</time>
      </trkpt>
      <trkpt lat="43.98156" lon="5.24567">
        <ele>649.03</ele>
        <time>2012-12-10T13:35:58Z</time>
      </trkpt>
      <trkpt lat="43.98141" lon="5.2457">
        <ele>648.55</ele>
        <time>2012-12-10T13:36:13Z</time>
      </trkpt>
      <trkpt lat="43.98129" lon="5.24573">
        <ele>649.51</ele>
        <time>2012-12-10T13:36:25Z</time>
      </trkpt>
      <trkpt lat="43.98112" lon="5.24576">
        <ele>649.51</ele>
        <time>2012-12-10T13:36:42Z</time>
      </trkpt>
      <trkpt lat="43.98094" lon="5.2458">
        <ele>649.51</ele>
        <time>2012-12-10T13:37:00Z</time>
      </trkpt>
      <trkpt lat="43.98089" lon="5.24582">
        <ele>649.99</ele>
        <time>2012-12-10T13:37:06Z</time>
      </trkpt>
      <trkpt lat="43.9807" lon="5.24587">
        <ele>649.99</ele>
        <time>2012-12-10T13:37:25Z</time>
      </trkpt>
      <trkpt lat="43.98057" lon="5.24592">
        <ele>648.55</ele>
        <time>2012-12-10T13:37:39Z</time>
      </trkpt>
      <trkpt lat="43.98049" lon="5.24594">
        <ele>648.55</ele>
        <time>2012-12-10T13:37:48Z</time>
      </trkpt>
      <trkpt lat="43.98036" lon="5.246">
        <ele>649.51</ele>
        <time>2012-12-10T13:38:03Z</time>
      </trkpt>
      <trkpt lat="43.98029" lon="5.24601">
        <ele>649.99</ele>
        <time>2012-12-10T13:38:11Z</time>
      </trkpt>
      <trkpt lat="43.98013" lon="5.24603">
        <ele>649.51</ele>
        <time>2012-12-10T13:38:27Z</time>
      </trkpt>
      <trkpt lat="43.98008" lon="5.24603">
        <ele>648.07</ele>
        <time>2012-12-10T13:38:32Z</time>
      </trkpt>
      <trkpt lat="43.98004" lon="5.24604">
        <ele>647.59</ele>
        <time>2012-12-10T13:38:36Z</time>
      </trkpt>
      <trkpt lat="43.97988" lon="5.24607">
        <ele>648.55</ele>
        <time>2012-12-10T13:38:53Z</time>
      </trkpt>
      <trkpt lat="43.97986" lon="5.24607">
        <ele>649.51</ele>
        <time>2012-12-10T13:38:55Z</time>
      </trkpt>
      <trkpt lat="43.9798" lon="5.24609">
        <ele>646.62</ele>
        <time>2012-12-10T13:39:00Z</time>
      </trkpt>
      <trkpt lat="43.97969" lon="5.24614">
        <ele>648.07</ele>
        <time>2012-12-10T13:39:14Z</time>
      </trkpt>
      <trkpt lat="43.97955" lon="5.24617">
        <ele>646.62</ele>
        <time>2012-12-10T13:39:30Z</time>
      </trkpt>
      <trkpt lat="43.97945" lon="5.24616">
        <ele>646.14</ele>
        <time>2012-12-10T13:39:46Z</time>
      </trkpt>
      <trkpt lat="43.97925" lon="5.24615">
        <ele>645.66</ele>
        <time>2012-12-10T13:40:06Z</time>
      </trkpt>
      <trkpt lat="43.97919" lon="5.24617">
        <ele>644.22</ele>
        <time>2012-12-10T13:40:11Z</time>
      </trkpt>
      <trkpt lat="43.97904" lon="5.24617">
        <ele>644.22</ele>
        <time>2012-12-10T13:40:27Z</time>
      </trkpt>
      <trkpt lat="43.97889" lon="5.24618">
        <ele>642.78</ele>
        <time>2012-12-10T13:40:43Z</time>
      </trkpt>
      <trkpt lat="43.97877" lon="5.24613">
        <ele>642.3</ele>
        <time>2012-12-10T13:40:57Z</time>
      </trkpt>
      <trkpt lat="43.97865" lon="5.24598">
        <ele>640.38</ele>
        <time>2012-12-10T13:41:16Z</time>
      </trkpt>
      <trkpt lat="43.97852" lon="5.24581">
        <ele>638.45</ele>
        <time>2012-12-10T13:41:34Z</time>
      </trkpt>
      <trkpt lat="43.97843" lon="5.24564">
        <ele>638.93</ele>
        <time>2012-12-10T13:41:49Z</time>
      </trkpt>
      <trkpt lat="43.97835" lon="5.24545">
        <ele>639.41</ele>
        <time>2012-12-10T13:42:05Z</time>
      </trkpt>
      <trkpt lat="43.9783" lon="5.24532">
        <ele>638.93</ele>
        <time>2012-12-10T13:42:16Z</time>
      </trkpt>
      <trkpt lat="43.9782" lon="5.24509">
        <ele>639.41</ele>
        <time>2012-12-10T13:42:33Z</time>
      </trkpt>
      <trkpt lat="43.97809" lon="5.24487">
        <ele>638.45</ele>
        <time>2012-12-10T13:42:51Z</time>
      </trkpt>
      <trkpt lat="43.97803" lon="5.24469">
        <ele>637.97</ele>
        <time>2012-12-10T13:43:04Z</time>
      </trkpt>
      <trkpt lat="43.97798" lon="5.24447">
        <ele>637.97</ele>
        <time>2012-12-10T13:43:20Z</time>
      </trkpt>
      <trkpt lat="43.97798" lon="5.24421">
        <ele>637.49</ele>
        <time>2012-12-10T13:43:38Z</time>
      </trkpt>
      <trkpt lat="43.97804" lon="5.2439">
        <ele>636.53</ele>
        <time>2012-12-10T13:43:58Z</time>
      </trkpt>
      <trkpt lat="43.97808" lon="5.24369">
        <ele>636.53</ele>
        <time>2012-12-10T13:44:16Z</time>
      </trkpt>
      <trkpt lat="43.97811" lon="5.24338">
        <ele>635.09</ele>
        <time>2012-12-10T13:44:37Z</time>
      </trkpt>
      <trkpt lat="43.97816" lon="5.24313">
        <ele>635.09</ele>
        <time>2012-12-10T13:44:56Z</time>
      </trkpt>
      <trkpt lat="43.97811" lon="5.24304">
        <ele>634.61</ele>
        <time>2012-12-10T13:45:05Z</time>
      </trkpt>
      <trkpt lat="43.97794" lon="5.24302">
        <ele>633.65</ele>
        <time>2012-12-10T13:45:22Z</time>
      </trkpt>
      <trkpt lat="43.97773" lon="5.24305">
        <ele>631.24</ele>
        <time>2012-12-10T13:45:42Z</time>
      </trkpt>
      <trkpt lat="43.97752" lon="5.24308">
        <ele>631.24</ele>
        <time>2012-12-10T13:46:02Z</time>
      </trkpt>
      <trkpt lat="43.97734" lon="5.24305">
        <ele>630.28</ele>
        <time>2012-12-10T13:46:20Z</time>
      </trkpt>
      <trkpt lat="43.97725" lon="5.24303">
        <ele>629.32</ele>
        <time>2012-12-10T13:46:36Z</time>
      </trkpt>
      <trkpt lat="43.97714" lon="5.24297">
        <ele>629.32</ele>
        <time>2012-12-10T13:46:56Z</time>
      </trkpt>
      <trkpt lat="43.97707" lon="5.24293">
        <ele>629.32</ele>
        <time>2012-12-10T13:47:13Z</time>
      </trkpt>
      <trkpt lat="43.97702" lon="5.2429">
        <ele>629.32</ele>
        <time>2012-12-10T13:47:26Z</time>
      </trkpt>
      <trkpt lat="43.97699" lon="5.24286">
        <ele>629.8</ele>
        <time>2012-12-10T13:47:45Z</time>
      </trkpt>
      <trkpt lat="43.97689" lon="5.24267">
        <ele>626.92</ele>
        <time>2012-12-10T13:48:02Z</time>
      </trkpt>
      <trkpt lat="43.97678" lon="5.24244">
        <ele>627.4</ele>
        <time>2012-12-10T13:48:19Z</time>
      </trkpt>
      <trkpt lat="43.97669" lon="5.24225">
        <ele>625.47</ele>
        <time>2012-12-10T13:48:35Z</time>
      </trkpt>
      <trkpt lat="43.97659" lon="5.24198">
        <ele>624.51</ele>
        <time>2012-12-10T13:48:55Z</time>
      </trkpt>
      <trkpt lat="43.97652" lon="5.24176">
        <ele>624.03</ele>
        <time>2012-12-10T13:49:11Z</time>
      </trkpt>
      <trkpt lat="43.97645" lon="5.24152">
        <ele>624.03</ele>
        <time>2012-12-10T13:49:28Z</time>
      </trkpt>
      <trkpt lat="43.97644" lon="5.24143">
        <ele>624.03</ele>
        <time>2012-12-10T13:49:44Z</time>
      </trkpt>
      <trkpt lat="43.97641" lon="5.24126">
        <ele>624.99</ele>
        <time>2012-12-10T13:49:59Z</time>
      </trkpt>
      <trkpt lat="43.97636" lon="5.24105">
        <ele>624.51</ele>
        <time>2012-12-10T13:50:14Z</time>
      </trkpt>
      <trkpt lat="43.9763" lon="5.24085">
        <ele>624.51</ele>
        <time>2012-12-10T13:50:29Z</time>
      </trkpt>
      <trkpt lat="43.97624" lon="5.24066">
        <ele>624.99</ele>
        <time>2012-12-10T13:50:46Z</time>
      </trkpt>
      <trkpt lat="43.97622" lon="5.24067">
        <ele>624.03</ele>
        <time>2012-12-10T13:51:11Z</time>
      </trkpt>
      <trkpt lat="43.97622" lon="5.24066">
        <ele>624.99</ele>
        <time>2012-12-10T13:51:31Z</time>
      </trkpt>
      <trkpt lat="43.97621" lon="5.24068">
        <ele>624.99</ele>
        <time>2012-12-10T13:51:58Z</time>
      </trkpt>
      <trkpt lat="43.9762" lon="5.24068">
        <ele>624.99</ele>
        <time>2012-12-10T13:52:23Z</time>
      </trkpt>
      <trkpt lat="43.97621" lon="5.24066">
        <ele>626.44</ele>
        <time>2012-12-10T13:52:54Z</time>
      </trkpt>
      <trkpt lat="43.9762" lon="5.2406">
        <ele>626.44</ele>
        <time>2012-12-10T13:53:21Z</time>
      </trkpt>
      <trkpt lat="43.97616" lon="5.24041">
        <ele>624.99</ele>
        <time>2012-12-10T13:53:36Z</time>
      </trkpt>
      <trkpt lat="43.97611" lon="5.24025">
        <ele>625.96</ele>
        <time>2012-12-10T13:53:50Z</time>
      </trkpt>
      <trkpt lat="43.97606" lon="5.24001">
        <ele>624.99</ele>
        <time>2012-12-10T13:54:10Z</time>
      </trkpt>
      <trkpt lat="43.97606" lon="5.23981">
        <ele>626.44</ele>
        <time>2012-12-10T13:54:26Z</time>
      </trkpt>
      <trkpt lat="43.97607" lon="5.23955">
        <ele>627.88</ele>
        <time>2012-12-10T13:54:45Z</time>
      </trkpt>
      <trkpt lat="43.97612" lon="5.23937">
        <ele>628.36</ele>
        <time>2012-12-10T13:55:02Z</time>
      </trkpt>
      <trkpt lat="43.97622" lon="5.23921">
        <ele>629.32</ele>
        <time>2012-12-10T13:55:18Z</time>
      </trkpt>
      <trkpt lat="43.97635" lon="5.23908">
        <ele>629.8</ele>
        <time>2012-12-10T13:55:35Z</time>
      </trkpt>
      <trkpt lat="43.97637" lon="5.23905">
        <ele>629.8</ele>
        <time>2012-12-10T13:55:38Z</time>
      </trkpt>
      <trkpt lat="43.97657" lon="5.23892">
        <ele>629.32</ele>
        <time>2012-12-10T13:56:00Z</time>
      </trkpt>
      <trkpt lat="43.97675" lon="5.23876">
        <ele>626.92</ele>
        <time>2012-12-10T13:56:20Z</time>
      </trkpt>
      <trkpt lat="43.9769" lon="5.2386">
        <ele>628.84</ele>
        <time>2012-12-10T13:56:37Z</time>
      </trkpt>
      <trkpt lat="43.97706" lon="5.23848">
        <ele>630.28</ele>
        <time>2012-12-10T13:56:54Z</time>
      </trkpt>
      <trkpt lat="43.97707" lon="5.23847">
        <ele>629.8</ele>
        <time>2012-12-10T13:56:55Z</time>
      </trkpt>
      <trkpt lat="43.97723" lon="5.23844">
        <ele>629.8</ele>
        <time>2012-12-10T13:57:12Z</time>
      </trkpt>
      <trkpt lat="43.97735" lon="5.23839">
        <ele>632.2</ele>
        <time>2012-12-10T13:57:28Z</time>
      </trkpt>
      <trkpt lat="43.97753" lon="5.23835">
        <ele>633.17</ele>
        <time>2012-12-10T13:57:45Z</time>
      </trkpt>
      <trkpt lat="43.97755" lon="5.23835">
        <ele>633.65</ele>
        <time>2012-12-10T13:57:47Z</time>
      </trkpt>
      <trkpt lat="43.97769" lon="5.23832">
        <ele>633.65</ele>
        <time>2012-12-10T13:58:02Z</time>
      </trkpt>
      <trkpt lat="43.97778" lon="5.23819">
        <ele>632.68</ele>
        <time>2012-12-10T13:58:17Z</time>
      </trkpt>
      <trkpt lat="43.97767" lon="5.23809">
        <ele>634.13</ele>
        <time>2012-12-10T13:58:29Z</time>
      </trkpt>
      <trkpt lat="43.97749" lon="5.23803">
        <ele>631.72</ele>
        <time>2012-12-10T13:58:44Z</time>
      </trkpt>
      <trkpt lat="43.97747" lon="5.23802">
        <ele>632.2</ele>
        <time>2012-12-10T13:58:46Z</time>
      </trkpt>
      <trkpt lat="43.97724" lon="5.23795">
        <ele>631.24</ele>
        <time>2012-12-10T13:59:06Z</time>
      </trkpt>
      <trkpt lat="43.97709" lon="5.23792">
        <ele>630.28</ele>
        <time>2012-12-10T13:59:19Z</time>
      </trkpt>
      <trkpt lat="43.97692" lon="5.23787">
        <ele>630.28</ele>
        <time>2012-12-10T13:59:35Z</time>
      </trkpt>
      <trkpt lat="43.97686" lon="5.23786">
        <ele>631.24</ele>
        <time>2012-12-10T13:59:41Z</time>
      </trkpt>
      <trkpt lat="43.97672" lon="5.23782">
        <ele>631.24</ele>
        <time>2012-12-10T13:59:57Z</time>
      </trkpt>
      <trkpt lat="43.97659" lon="5.23776">
        <ele>632.2</ele>
        <time>2012-12-10T14:00:12Z</time>
      </trkpt>
      <trkpt lat="43.97643" lon="5.23769">
        <ele>631.24</ele>
        <time>2012-12-10T14:00:29Z</time>
      </trkpt>
      <trkpt lat="43.97627" lon="5.23761">
        <ele>629.32</ele>
        <time>2012-12-10T14:00:48Z</time>
      </trkpt>
      <trkpt lat="43.97611" lon="5.23751">
        <ele>628.84</ele>
        <time>2012-12-10T14:01:06Z</time>
      </trkpt>
      <trkpt lat="43.97607" lon="5.23748">
        <ele>628.36</ele>
        <time>2012-12-10T14:01:11Z</time>
      </trkpt>
      <trkpt lat="43.97592" lon="5.23737">
        <ele>628.36</ele>
        <time>2012-12-10T14:01:28Z</time>
      </trkpt>
      <trkpt lat="43.97583" lon="5.23736">
        <ele>628.84</ele>
        <time>2012-12-10T14:01:43Z</time>
      </trkpt>
      <trkpt lat="43.97574" lon="5.23729">
        <ele>627.88</ele>
        <time>2012-12-10T14:01:56Z</time>
      </trkpt>
      <trkpt lat="43.97561" lon="5.2372">
        <ele>626.92</ele>
        <time>2012-12-10T14:02:12Z</time>
      </trkpt>
      <trkpt lat="43.97548" lon="5.23707">
        <ele>626.92</ele>
        <time>2012-12-10T14:02:28Z</time>
      </trkpt>
      <trkpt lat="43.97543" lon="5.23703">
        <ele>626.92</ele>
        <time>2012-12-10T14:02:33Z</time>
      </trkpt>
      <trkpt lat="43.97535" lon="5.23682">
        <ele>626.44</ele>
        <time>2012-12-10T14:02:50Z</time>
      </trkpt>
      <trkpt lat="43.97532" lon="5.23674">
        <ele>626.44</ele>
        <time>2012-12-10T14:03:06Z</time>
      </trkpt>
      <trkpt lat="43.97529" lon="5.23669">
        <ele>624.99</ele>
        <time>2012-12-10T14:03:24Z</time>
      </trkpt>
      <trkpt lat="43.97525" lon="5.23655">
        <ele>622.11</ele>
        <time>2012-12-10T14:03:39Z</time>
      </trkpt>
      <trkpt lat="43.97521" lon="5.23639">
        <ele>622.59</ele>
        <time>2012-12-10T14:03:56Z</time>
      </trkpt>
      <trkpt lat="43.97514" lon="5.23622">
        <ele>620.67</ele>
        <time>2012-12-10T14:04:12Z</time>
      </trkpt>
      <trkpt lat="43.9751" lon="5.23612">
        <ele>619.71</ele>
        <time>2012-12-10T14:04:28Z</time>
      </trkpt>
      <trkpt lat="43.9751" lon="5.23605">
        <ele>618.26</ele>
        <time>2012-12-10T14:04:49Z</time>
      </trkpt>
      <trkpt lat="43.97508" lon="5.23602">
        <ele>618.26</ele>
        <time>2012-12-10T14:05:19Z</time>
      </trkpt>
      <trkpt lat="43.97508" lon="5.23605">
        <ele>618.75</ele>
        <time>2012-12-10T14:05:38Z</time>
      </trkpt>
      <trkpt lat="43.97504" lon="5.23594">
        <ele>615.86</ele>
        <time>2012-12-10T14:05:51Z</time>
      </trkpt>
      <trkpt lat="43.97499" lon="5.23589">
        <ele>616.34</ele>
        <time>2012-12-10T14:06:04Z</time>
      </trkpt>
      <trkpt lat="43.97492" lon="5.23596">
        <ele>612.98</ele>
        <time>2012-12-10T14:06:17Z</time>
      </trkpt>
      <trkpt lat="43.97482" lon="5.23598">
        <ele>612.02</ele>
        <time>2012-12-10T14:06:33Z</time>
      </trkpt>
      <trkpt lat="43.97471" lon="5.23601">
        <ele>612.5</ele>
        <time>2012-12-10T14:06:47Z</time>
      </trkpt>
      <trkpt lat="43.97467" lon="5.23602">
        <ele>612.98</ele>
        <time>2012-12-10T14:06:51Z</time>
      </trkpt>
      <trkpt lat="43.97462" lon="5.23603">
        <ele>610.57</ele>
        <time>2012-12-10T14:06:57Z</time>
      </trkpt>
      <trkpt lat="43.97451" lon="5.23605">
        <ele>610.57</ele>
        <time>2012-12-10T14:07:12Z</time>
      </trkpt>
      <trkpt lat="43.97439" lon="5.23607">
        <ele>608.17</ele>
        <time>2012-12-10T14:07:28Z</time>
      </trkpt>
      <trkpt lat="43.97428" lon="5.23611">
        <ele>608.17</ele>
        <time>2012-12-10T14:07:45Z</time>
      </trkpt>
      <trkpt lat="43.97417" lon="5.23614">
        <ele>604.81</ele>
        <time>2012-12-10T14:07:59Z</time>
      </trkpt>
      <trkpt lat="43.97406" lon="5.23612">
        <ele>603.85</ele>
        <time>2012-12-10T14:08:15Z</time>
      </trkpt>
      <trkpt lat="43.97393" lon="5.23613">
        <ele>602.4</ele>
        <time>2012-12-10T14:08:31Z</time>
      </trkpt>
      <trkpt lat="43.97386" lon="5.23613">
        <ele>602.4</ele>
        <time>2012-12-10T14:08:41Z</time>
      </trkpt>
      <trkpt lat="43.97378" lon="5.23614">
        <ele>599.04</ele>
        <time>2012-12-10T14:08:50Z</time>
      </trkpt>
      <trkpt lat="43.97366" lon="5.23615">
        <ele>600.96</ele>
        <time>2012-12-10T14:09:05Z</time>
      </trkpt>
      <trkpt lat="43.97351" lon="5.23614">
        <ele>598.08</ele>
        <time>2012-12-10T14:09:22Z</time>
      </trkpt>
      <trkpt lat="43.97338" lon="5.23613">
        <ele>598.56</ele>
        <time>2012-12-10T14:09:35Z</time>
      </trkpt>
      <trkpt lat="43.97325" lon="5.23612">
        <ele>598.08</ele>
        <time>2012-12-10T14:09:49Z</time>
      </trkpt>
      <trkpt lat="43.97313" lon="5.23607">
        <ele>595.67</ele>
        <time>2012-12-10T14:10:04Z</time>
      </trkpt>
      <trkpt lat="43.97305" lon="5.23605">
        <ele>592.31</ele>
        <time>2012-12-10T14:10:13Z</time>
      </trkpt>
      <trkpt lat="43.97305" lon="5.23605">
        <ele>592.31</ele>
        <time>2012-12-10T14:10:14Z</time>
      </trkpt>
      <trkpt lat="43.973" lon="5.23604">
        <ele>594.71</ele>
        <time>2012-12-10T14:10:20Z</time>
      </trkpt>
      <trkpt lat="43.97292" lon="5.23603">
        <ele>593.27</ele>
        <time>2012-12-10T14:10:30Z</time>
      </trkpt>
      <trkpt lat="43.97279" lon="5.236">
        <ele>592.79</ele>
        <time>2012-12-10T14:10:47Z</time>
      </trkpt>
      <trkpt lat="43.97266" lon="5.23597">
        <ele>591.35</ele>
        <time>2012-12-10T14:11:03Z</time>
      </trkpt>
      <trkpt lat="43.97253" lon="5.23593">
        <ele>589.91</ele>
        <time>2012-12-10T14:11:18Z</time>
      </trkpt>
      <trkpt lat="43.97241" lon="5.2359">
        <ele>589.43</ele>
        <time>2012-12-10T14:11:34Z</time>
      </trkpt>
      <trkpt lat="43.97231" lon="5.23587">
        <ele>586.54</ele>
        <time>2012-12-10T14:11:47Z</time>
      </trkpt>
      <trkpt lat="43.97221" lon="5.23584">
        <ele>585.58</ele>
        <time>2012-12-10T14:12:02Z</time>
      </trkpt>
      <trkpt lat="43.97211" lon="5.23581">
        <ele>584.62</ele>
        <time>2012-12-10T14:12:17Z</time>
      </trkpt>
      <trkpt lat="43.97199" lon="5.23578">
        <ele>581.73</ele>
        <time>2012-12-10T14:12:34Z</time>
      </trkpt>
      <trkpt lat="43.97187" lon="5.23571">
        <ele>581.73</ele>
        <time>2012-12-10T14:12:50Z</time>
      </trkpt>
      <trkpt lat="43.97172" lon="5.23561">
        <ele>580.29</ele>
        <time>2012-12-10T14:13:07Z</time>
      </trkpt>
      <trkpt lat="43.97158" lon="5.23548">
        <ele>579.81</ele>
        <time>2012-12-10T14:13:26Z</time>
      </trkpt>
      <trkpt lat="43.97148" lon="5.23539">
        <ele>577.89</ele>
        <time>2012-12-10T14:13:41Z</time>
      </trkpt>
      <trkpt lat="43.97135" lon="5.23526">
        <ele>577.89</ele>
        <time>2012-12-10T14:13:59Z</time>
      </trkpt>
      <trkpt lat="43.97123" lon="5.23511">
        <ele>575.97</ele>
        <time>2012-12-10T14:14:16Z</time>
      </trkpt>
      <trkpt lat="43.97109" lon="5.23496">
        <ele>575.49</ele>
        <time>2012-12-10T14:14:34Z</time>
      </trkpt>
      <trkpt lat="43.97095" lon="5.23492">
        <ele>575.01</ele>
        <time>2012-12-10T14:14:49Z</time>
      </trkpt>
      <trkpt lat="43.9709" lon="5.23492">
        <ele>574.53</ele>
        <time>2012-12-10T14:14:54Z</time>
      </trkpt>
      <trkpt lat="43.97077" lon="5.23487">
        <ele>574.04</ele>
        <time>2012-12-10T14:15:08Z</time>
      </trkpt>
      <trkpt lat="43.97062" lon="5.23479">
        <ele>572.6</ele>
        <time>2012-12-10T14:15:24Z</time>
      </trkpt>
      <trkpt lat="43.9705" lon="5.23475">
        <ele>569.24</ele>
        <time>2012-12-10T14:15:39Z</time>
      </trkpt>
      <trkpt lat="43.97043" lon="5.23471">
        <ele>568.76</ele>
        <time>2012-12-10T14:15:52Z</time>
      </trkpt>
      <trkpt lat="43.97034" lon="5.23466">
        <ele>568.28</ele>
        <time>2012-12-10T14:16:04Z</time>
      </trkpt>
      <trkpt lat="43.97022" lon="5.23463">
        <ele>566.35</ele>
        <time>2012-12-10T14:16:18Z</time>
      </trkpt>
      <trkpt lat="43.97012" lon="5.23457">
        <ele>566.35</ele>
        <time>2012-12-10T14:16:32Z</time>
      </trkpt>
      <trkpt lat="43.97004" lon="5.23454">
        <ele>564.91</ele>
        <time>2012-12-10T14:16:45Z</time>
      </trkpt>
      <trkpt lat="43.96996" lon="5.23446">
        <ele>562.03</ele>
        <time>2012-12-10T14:16:59Z</time>
      </trkpt>
      <trkpt lat="43.96995" lon="5.23444">
        <ele>562.51</ele>
        <time>2012-12-10T14:17:17Z</time>
      </trkpt>
      <trkpt lat="43.96992" lon="5.2345">
        <ele>561.55</ele>
        <time>2012-12-10T14:17:34Z</time>
      </trkpt>
      <trkpt lat="43.96993" lon="5.2346">
        <ele>560.59</ele>
        <time>2012-12-10T14:17:56Z</time>
      </trkpt>
      <trkpt lat="43.96994" lon="5.2346">
        <ele>560.59</ele>
        <time>2012-12-10T14:17:57Z</time>
      </trkpt>
      <trkpt lat="43.97013" lon="5.23474">
        <ele>560.11</ele>
        <time>2012-12-10T14:18:15Z</time>
      </trkpt>
      <trkpt lat="43.97026" lon="5.23485">
        <ele>559.14</ele>
        <time>2012-12-10T14:18:31Z</time>
      </trkpt>
      <trkpt lat="43.97038" lon="5.235">
        <ele>558.18</ele>
        <time>2012-12-10T14:18:47Z</time>
      </trkpt>
      <trkpt lat="43.97052" lon="5.23513">
        <ele>557.7</ele>
        <time>2012-12-10T14:19:04Z</time>
      </trkpt>
      <trkpt lat="43.97066" lon="5.23531">
        <ele>556.74</ele>
        <time>2012-12-10T14:19:22Z</time>
      </trkpt>
      <trkpt lat="43.97079" lon="5.23548">
        <ele>555.78</ele>
        <time>2012-12-10T14:19:42Z</time>
      </trkpt>
      <trkpt lat="43.97073" lon="5.23554">
        <ele>554.82</ele>
        <time>2012-12-10T14:19:55Z</time>
      </trkpt>
      <trkpt lat="43.97067" lon="5.23553">
        <ele>553.38</ele>
        <time>2012-12-10T14:20:11Z</time>
      </trkpt>
      <trkpt lat="43.97065" lon="5.23551">
        <ele>551.93</ele>
        <time>2012-12-10T14:20:14Z</time>
      </trkpt>
      <trkpt lat="43.9705" lon="5.23538">
        <ele>550.97</ele>
        <time>2012-12-10T14:20:33Z</time>
      </trkpt>
      <trkpt lat="43.97036" lon="5.2353">
        <ele>549.53</ele>
        <time>2012-12-10T14:20:50Z</time>
      </trkpt>
      <trkpt lat="43.97025" lon="5.23527">
        <ele>546.17</ele>
        <time>2012-12-10T14:21:00Z</time>
      </trkpt>
      <trkpt lat="43.9701" lon="5.23518">
        <ele>547.61</ele>
        <time>2012-12-10T14:21:17Z</time>
      </trkpt>
      <trkpt lat="43.97005" lon="5.23516">
        <ele>545.69</ele>
        <time>2012-12-10T14:21:21Z</time>
      </trkpt>
      <trkpt lat="43.9699" lon="5.23501">
        <ele>546.65</ele>
        <time>2012-12-10T14:21:41Z</time>
      </trkpt>
      <trkpt lat="43.96979" lon="5.2349">
        <ele>549.05</ele>
        <time>2012-12-10T14:21:58Z</time>
      </trkpt>
      <trkpt lat="43.96978" lon="5.23489">
        <ele>548.09</ele>
        <time>2012-12-10T14:21:59Z</time>
      </trkpt>
      <trkpt lat="43.96976" lon="5.23486">
        <ele>546.17</ele>
        <time>2012-12-10T14:22:02Z</time>
      </trkpt>
      <trkpt lat="43.9697" lon="5.23479">
        <ele>549.53</ele>
        <time>2012-12-10T14:22:11Z</time>
      </trkpt>
      <trkpt lat="43.96957" lon="5.23458">
        <ele>548.57</ele>
        <time>2012-12-10T14:22:32Z</time>
      </trkpt>
      <trkpt lat="43.96947" lon="5.23436">
        <ele>547.13</ele>
        <time>2012-12-10T14:22:51Z</time>
      </trkpt>
      <trkpt lat="43.96937" lon="5.23416">
        <ele>549.53</ele>
        <time>2012-12-10T14:23:09Z</time>
      </trkpt>
      <trkpt lat="43.96927" lon="5.23399">
        <ele>549.05</ele>
        <time>2012-12-10T14:23:25Z</time>
      </trkpt>
      <trkpt lat="43.96918" lon="5.23381">
        <ele>549.05</ele>
        <time>2012-12-10T14:23:44Z</time>
      </trkpt>
      <trkpt lat="43.96909" lon="5.23364">
        <ele>549.53</ele>
        <time>2012-12-10T14:24:01Z</time>
      </trkpt>
      <trkpt lat="43.969" lon="5.23353">
        <ele>550.49</ele>
        <time>2012-12-10T14:24:13Z</time>
      </trkpt>
      <trkpt lat="43.96896" lon="5.23337">
        <ele>550.97</ele>
        <time>2012-12-10T14:24:28Z</time>
      </trkpt>
      <trkpt lat="43.96893" lon="5.23321">
        <ele>551.93</ele>
        <time>2012-12-10T14:24:43Z</time>
      </trkpt>
      <trkpt lat="43.9689" lon="5.23304">
        <ele>551.93</ele>
        <time>2012-12-10T14:24:58Z</time>
      </trkpt>
      <trkpt lat="43.96889" lon="5.23304">
        <ele>552.9</ele>
        <time>2012-12-10T14:25:14Z</time>
      </trkpt>
      <trkpt lat="43.96889" lon="5.23301">
        <ele>552.9</ele>
        <time>2012-12-10T14:25:34Z</time>
      </trkpt>
      <trkpt lat="43.96889" lon="5.23303">
        <ele>555.3</ele>
        <time>2012-12-10T14:25:51Z</time>
      </trkpt>
      <trkpt lat="43.96888" lon="5.23303">
        <ele>553.86</ele>
        <time>2012-12-10T14:26:25Z</time>
      </trkpt>
      <trkpt lat="43.9689" lon="5.23303">
        <ele>553.86</ele>
        <time>2012-12-10T14:26:45Z</time>
      </trkpt>
      <trkpt lat="43.96889" lon="5.23301">
        <ele>554.34</ele>
        <time>2012-12-10T14:27:08Z</time>
      </trkpt>
      <trkpt lat="43.96887" lon="5.23286">
        <ele>554.82</ele>
        <time>2012-12-10T14:27:26Z</time>
      </trkpt>
      <trkpt lat="43.96889" lon="5.23268">
        <ele>554.82</ele>
        <time>2012-12-10T14:27:45Z</time>
      </trkpt>
      <trkpt lat="43.96882" lon="5.23253">
        <ele>555.78</ele>
        <time>2012-12-10T14:28:01Z</time>
      </trkpt>
      <trkpt lat="43.96876" lon="5.23247">
        <ele>553.38</ele>
        <time>2012-12-10T14:28:14Z</time>
      </trkpt>
      <trkpt lat="43.9687" lon="5.23231">
        <ele>551.45</ele>
        <time>2012-12-10T14:28:29Z</time>
      </trkpt>
      <trkpt lat="43.96865" lon="5.2322">
        <ele>550.01</ele>
        <time>2012-12-10T14:28:44Z</time>
      </trkpt>
      <trkpt lat="43.96865" lon="5.23219">
        <ele>553.38</ele>
        <time>2012-12-10T14:28:54Z</time>
      </trkpt>
      <trkpt lat="43.96865" lon="5.23219">
        <ele>553.38</ele>
        <time>2012-12-10T14:28:55Z</time>
      </trkpt>
      <trkpt lat="43.96862" lon="5.23223">
        <ele>553.38</ele>
        <time>2012-12-10T14:29:15Z</time>
      </trkpt>
      <trkpt lat="43.96859" lon="5.23207">
        <ele>550.49</ele>
        <time>2012-12-10T14:29:31Z</time>
      </trkpt>
      <trkpt lat="43.96853" lon="5.23187">
        <ele>547.61</ele>
        <time>2012-12-10T14:29:48Z</time>
      </trkpt>
      <trkpt lat="43.96852" lon="5.23178">
        <ele>544.72</ele>
        <time>2012-12-10T14:29:57Z</time>
      </trkpt>
      <trkpt lat="43.96845" lon="5.23168">
        <ele>544.24</ele>
        <time>2012-12-10T14:30:13Z</time>
      </trkpt>
      <trkpt lat="43.96843" lon="5.23167">
        <ele>542.32</ele>
        <time>2012-12-10T14:30:16Z</time>
      </trkpt>
      <trkpt lat="43.96837" lon="5.23158">
        <ele>539.92</ele>
        <time>2012-12-10T14:30:31Z</time>
      </trkpt>
      <trkpt lat="43.96832" lon="5.23146">
        <ele>537.99</ele>
        <time>2012-12-10T14:30:47Z</time>
      </trkpt>
      <trkpt lat="43.96828" lon="5.23138">
        <ele>536.07</ele>
        <time>2012-12-10T14:31:09Z</time>
      </trkpt>
      <trkpt lat="43.96825" lon="5.23131">
        <ele>532.71</ele>
        <time>2012-12-10T14:31:18Z</time>
      </trkpt>
      <trkpt lat="43.96824" lon="5.2313">
        <ele>532.71</ele>
        <time>2012-12-10T14:31:19Z</time>
      </trkpt>
      <trkpt lat="43.96818" lon="5.23127">
        <ele>531.75</ele>
        <time>2012-12-10T14:31:34Z</time>
      </trkpt>
      <trkpt lat="43.96815" lon="5.23128">
        <ele>529.82</ele>
        <time>2012-12-10T14:31:38Z</time>
      </trkpt>
      <trkpt lat="43.96804" lon="5.23134">
        <ele>526.94</ele>
        <time>2012-12-10T14:31:55Z</time>
      </trkpt>
      <trkpt lat="43.96793" lon="5.23148">
        <ele>525.98</ele>
        <time>2012-12-10T14:32:12Z</time>
      </trkpt>
      <trkpt lat="43.96792" lon="5.23148">
        <ele>526.46</ele>
        <time>2012-12-10T14:32:13Z</time>
      </trkpt>
      <trkpt lat="43.96784" lon="5.23151">
        <ele>524.06</ele>
        <time>2012-12-10T14:32:22Z</time>
      </trkpt>
      <trkpt lat="43.96775" lon="5.23156">
        <ele>521.17</ele>
        <time>2012-12-10T14:32:36Z</time>
      </trkpt>
      <trkpt lat="43.96771" lon="5.23171">
        <ele>522.13</ele>
        <time>2012-12-10T14:32:50Z</time>
      </trkpt>
      <trkpt lat="43.96767" lon="5.23172">
        <ele>520.69</ele>
        <time>2012-12-10T14:32:58Z</time>
      </trkpt>
      <trkpt lat="43.96766" lon="5.23171">
        <ele>516.85</ele>
        <time>2012-12-10T14:33:04Z</time>
      </trkpt>
      <trkpt lat="43.96766" lon="5.23171">
        <ele>521.17</ele>
        <time>2012-12-10T14:33:05Z</time>
      </trkpt>
      <trkpt lat="43.96765" lon="5.23168">
        <ele>520.69</ele>
        <time>2012-12-10T14:33:15Z</time>
      </trkpt>
      <trkpt lat="43.96767" lon="5.23166">
        <ele>519.73</ele>
        <time>2012-12-10T14:33:17Z</time>
      </trkpt>
      <trkpt lat="43.96761" lon="5.2316">
        <ele>519.73</ele>
        <time>2012-12-10T14:33:31Z</time>
      </trkpt>
      <trkpt lat="43.96754" lon="5.2315">
        <ele>516.85</ele>
        <time>2012-12-10T14:33:47Z</time>
      </trkpt>
      <trkpt lat="43.96753" lon="5.23151">
        <ele>517.33</ele>
        <time>2012-12-10T14:33:48Z</time>
      </trkpt>
      <trkpt lat="43.96748" lon="5.23152">
        <ele>516.37</ele>
        <time>2012-12-10T14:33:53Z</time>
      </trkpt>
      <trkpt lat="43.96733" lon="5.23155">
        <ele>513.96</ele>
        <time>2012-12-10T14:34:10Z</time>
      </trkpt>
      <trkpt lat="43.96717" lon="5.23158">
        <ele>511.56</ele>
        <time>2012-12-10T14:34:26Z</time>
      </trkpt>
      <trkpt lat="43.96706" lon="5.23164">
        <ele>510.6</ele>
        <time>2012-12-10T14:34:40Z</time>
      </trkpt>
      <trkpt lat="43.96701" lon="5.23169">
        <ele>510.12</ele>
        <time>2012-12-10T14:34:48Z</time>
      </trkpt>
      <trkpt lat="43.96689" lon="5.2317">
        <ele>508.67</ele>
        <time>2012-12-10T14:35:03Z</time>
      </trkpt>
      <trkpt lat="43.96687" lon="5.2317">
        <ele>507.23</ele>
        <time>2012-12-10T14:35:06Z</time>
      </trkpt>
      <trkpt lat="43.96685" lon="5.23168">
        <ele>506.75</ele>
        <time>2012-12-10T14:35:08Z</time>
      </trkpt>
      <trkpt lat="43.96673" lon="5.23168">
        <ele>506.27</ele>
        <time>2012-12-10T14:35:23Z</time>
      </trkpt>
      <trkpt lat="43.96669" lon="5.23171">
        <ele>506.27</ele>
        <time>2012-12-10T14:35:28Z</time>
      </trkpt>
      <trkpt lat="43.96657" lon="5.23188">
        <ele>502.43</ele>
        <time>2012-12-10T14:35:43Z</time>
      </trkpt>
      <trkpt lat="43.96655" lon="5.23195">
        <ele>501.46</ele>
        <time>2012-12-10T14:35:48Z</time>
      </trkpt>
      <trkpt lat="43.9665" lon="5.2321">
        <ele>504.35</ele>
        <time>2012-12-10T14:35:58Z</time>
      </trkpt>
      <trkpt lat="43.96649" lon="5.23211">
        <ele>504.35</ele>
        <time>2012-12-10T14:35:59Z</time>
      </trkpt>
      <trkpt lat="43.96644" lon="5.23238">
        <ele>502.91</ele>
        <time>2012-12-10T14:36:19Z</time>
      </trkpt>
      <trkpt lat="43.9664" lon="5.23257">
        <ele>504.35</ele>
        <time>2012-12-10T14:36:35Z</time>
      </trkpt>
      <trkpt lat="43.96638" lon="5.23277">
        <ele>501.95</ele>
        <time>2012-12-10T14:36:51Z</time>
      </trkpt>
      <trkpt lat="43.96634" lon="5.23301">
        <ele>500.98</ele>
        <time>2012-12-10T14:37:09Z</time>
      </trkpt>
      <trkpt lat="43.96631" lon="5.23317">
        <ele>501.95</ele>
        <time>2012-12-10T14:37:21Z</time>
      </trkpt>
      <trkpt lat="43.96617" lon="5.2333">
        <ele>500.98</ele>
        <time>2012-12-10T14:37:37Z</time>
      </trkpt>
      <trkpt lat="43.96613" lon="5.23332">
        <ele>500.5</ele>
        <time>2012-12-10T14:37:41Z</time>
      </trkpt>
      <trkpt lat="43.96595" lon="5.23336">
        <ele>499.06</ele>
        <time>2012-12-10T14:37:58Z</time>
      </trkpt>
      <trkpt lat="43.96578" lon="5.23343">
        <ele>496.66</ele>
        <time>2012-12-10T14:38:15Z</time>
      </trkpt>
      <trkpt lat="43.96565" lon="5.23345">
        <ele>496.66</ele>
        <time>2012-12-10T14:38:29Z</time>
      </trkpt>
      <trkpt lat="43.9655" lon="5.23343">
        <ele>496.18</ele>
        <time>2012-12-10T14:38:44Z</time>
      </trkpt>
      <trkpt lat="43.96531" lon="5.23342">
        <ele>494.26</ele>
        <time>2012-12-10T14:39:01Z</time>
      </trkpt>
      <trkpt lat="43.96516" lon="5.23348">
        <ele>491.37</ele>
        <time>2012-12-10T14:39:18Z</time>
      </trkpt>
      <trkpt lat="43.96509" lon="5.23356">
        <ele>491.37</ele>
        <time>2012-12-10T14:39:27Z</time>
      </trkpt>
      <trkpt lat="43.96507" lon="5.23373">
        <ele>490.89</ele>
        <time>2012-12-10T14:39:42Z</time>
      </trkpt>
      <trkpt lat="43.96507" lon="5.23377">
        <ele>489.45</ele>
        <time>2012-12-10T14:39:45Z</time>
      </trkpt>
      <trkpt lat="43.96511" lon="5.23397">
        <ele>490.41</ele>
        <time>2012-12-10T14:40:00Z</time>
      </trkpt>
      <trkpt lat="43.96511" lon="5.23399">
        <ele>489.93</ele>
        <time>2012-12-10T14:40:01Z</time>
      </trkpt>
      <trkpt lat="43.96512" lon="5.23406">
        <ele>488.49</ele>
        <time>2012-12-10T14:40:06Z</time>
      </trkpt>
      <trkpt lat="43.96518" lon="5.2343">
        <ele>489.45</ele>
        <time>2012-12-10T14:40:24Z</time>
      </trkpt>
      <trkpt lat="43.96525" lon="5.2345">
        <ele>489.45</ele>
        <time>2012-12-10T14:40:39Z</time>
      </trkpt>
      <trkpt lat="43.96528" lon="5.23475">
        <ele>489.45</ele>
        <time>2012-12-10T14:40:56Z</time>
      </trkpt>
      <trkpt lat="43.96529" lon="5.23478">
        <ele>489.93</ele>
        <time>2012-12-10T14:40:59Z</time>
      </trkpt>
      <trkpt lat="43.96534" lon="5.23505">
        <ele>489.45</ele>
        <time>2012-12-10T14:41:17Z</time>
      </trkpt>
      <trkpt lat="43.96538" lon="5.23529">
        <ele>489.45</ele>
        <time>2012-12-10T14:41:35Z</time>
      </trkpt>
      <trkpt lat="43.96542" lon="5.23549">
        <ele>488.97</ele>
        <time>2012-12-10T14:41:50Z</time>
      </trkpt>
      <trkpt lat="43.9655" lon="5.23565">
        <ele>488.49</ele>
        <time>2012-12-10T14:42:05Z</time>
      </trkpt>
      <trkpt lat="43.96558" lon="5.23581">
        <ele>487.05</ele>
        <time>2012-12-10T14:42:21Z</time>
      </trkpt>
      <trkpt lat="43.96561" lon="5.23586">
        <ele>487.05</ele>
        <time>2012-12-10T14:42:26Z</time>
      </trkpt>
      <trkpt lat="43.96572" lon="5.23606">
        <ele>488.01</ele>
        <time>2012-12-10T14:42:43Z</time>
      </trkpt>
      <trkpt lat="43.96576" lon="5.23614">
        <ele>486.08</ele>
        <time>2012-12-10T14:42:59Z</time>
      </trkpt>
      <trkpt lat="43.96592" lon="5.23628">
        <ele>484.16</ele>
        <time>2012-12-10T14:43:18Z</time>
      </trkpt>
      <trkpt lat="43.96608" lon="5.23635">
        <ele>482.72</ele>
        <time>2012-12-10T14:43:37Z</time>
      </trkpt>
      <trkpt lat="43.96623" lon="5.23645">
        <ele>481.76</ele>
        <time>2012-12-10T14:43:55Z</time>
      </trkpt>
      <trkpt lat="43.96635" lon="5.23663">
        <ele>481.28</ele>
        <time>2012-12-10T14:44:11Z</time>
      </trkpt>
      <trkpt lat="43.96629" lon="5.23683">
        <ele>480.8</ele>
        <time>2012-12-10T14:44:26Z</time>
      </trkpt>
      <trkpt lat="43.96619" lon="5.23697">
        <ele>480.8</ele>
        <time>2012-12-10T14:44:39Z</time>
      </trkpt>
      <trkpt lat="43.96607" lon="5.23711">
        <ele>481.28</ele>
        <time>2012-12-10T14:44:55Z</time>
      </trkpt>
      <trkpt lat="43.96595" lon="5.23724">
        <ele>480.8</ele>
        <time>2012-12-10T14:45:11Z</time>
      </trkpt>
      <trkpt lat="43.96581" lon="5.23739">
        <ele>478.87</ele>
        <time>2012-12-10T14:45:28Z</time>
      </trkpt>
      <trkpt lat="43.96568" lon="5.23759">
        <ele>478.39</ele>
        <time>2012-12-10T14:45:47Z</time>
      </trkpt>
      <trkpt lat="43.96564" lon="5.23766">
        <ele>478.39</ele>
        <time>2012-12-10T14:46:01Z</time>
      </trkpt>
      <trkpt lat="43.96557" lon="5.23778">
        <ele>477.43</ele>
        <time>2012-12-10T14:46:21Z</time>
      </trkpt>
      <trkpt lat="43.96552" lon="5.23787">
        <ele>476.95</ele>
        <time>2012-12-10T14:46:37Z</time>
      </trkpt>
      <trkpt lat="43.96543" lon="5.23801">
        <ele>474.55</ele>
        <time>2012-12-10T14:46:54Z</time>
      </trkpt>
      <trkpt lat="43.96532" lon="5.23808">
        <ele>474.55</ele>
        <time>2012-12-10T14:47:07Z</time>
      </trkpt>
      <trkpt lat="43.96516" lon="5.2381">
        <ele>473.59</ele>
        <time>2012-12-10T14:47:24Z</time>
      </trkpt>
      <trkpt lat="43.96511" lon="5.23811">
        <ele>474.07</ele>
        <time>2012-12-10T14:47:44Z</time>
      </trkpt>
      <trkpt lat="43.96511" lon="5.23814">
        <ele>475.03</ele>
        <time>2012-12-10T14:48:13Z</time>
      </trkpt>
      <trkpt lat="43.96508" lon="5.23815">
        <ele>472.14</ele>
        <time>2012-12-10T14:48:42Z</time>
      </trkpt>
      <trkpt lat="43.96504" lon="5.23813">
        <ele>473.11</ele>
        <time>2012-12-10T14:48:47Z</time>
      </trkpt>
      <trkpt lat="43.96503" lon="5.23814">
        <ele>476.47</ele>
        <time>2012-12-10T14:48:51Z</time>
      </trkpt>
      <trkpt lat="43.96503" lon="5.23814">
        <ele>474.55</ele>
        <time>2012-12-10T14:48:52Z</time>
      </trkpt>
      <trkpt lat="43.96504" lon="5.23812">
        <ele>475.03</ele>
        <time>2012-12-10T14:49:08Z</time>
      </trkpt>
      <trkpt lat="43.96502" lon="5.23812">
        <ele>471.66</ele>
        <time>2012-12-10T14:49:24Z</time>
      </trkpt>
      <trkpt lat="43.96502" lon="5.23812">
        <ele>476.95</ele>
        <time>2012-12-10T14:49:25Z</time>
      </trkpt>
      <trkpt lat="43.96502" lon="5.23812">
        <ele>472.63</ele>
        <time>2012-12-10T14:49:26Z</time>
      </trkpt>
      <trkpt lat="43.96503" lon="5.23812">
        <ele>475.51</ele>
        <time>2012-12-10T14:49:34Z</time>
      </trkpt>
      <trkpt lat="43.96503" lon="5.23811">
        <ele>474.07</ele>
        <time>2012-12-10T14:49:36Z</time>
      </trkpt>
      <trkpt lat="43.96502" lon="5.2381">
        <ele>472.63</ele>
        <time>2012-12-10T14:49:47Z</time>
      </trkpt>
      <trkpt lat="43.96501" lon="5.23811">
        <ele>476.95</ele>
        <time>2012-12-10T14:49:48Z</time>
      </trkpt>
      <trkpt lat="43.96501" lon="5.2381">
        <ele>473.59</ele>
        <time>2012-12-10T14:49:49Z</time>
      </trkpt>
      <trkpt lat="43.965" lon="5.2381">
        <ele>477.43</ele>
        <time>2012-12-10T14:49:54Z</time>
      </trkpt>
      <trkpt lat="43.965" lon="5.23811">
        <ele>472.14</ele>
        <time>2012-12-10T14:49:55Z</time>
      </trkpt>
      <trkpt lat="43.96501" lon="5.23812">
        <ele>476.95</ele>
        <time>2012-12-10T14:50:00Z</time>
      </trkpt>
      <trkpt lat="43.96499" lon="5.23813">
        <ele>473.59</ele>
        <time>2012-12-10T14:50:04Z</time>
      </trkpt>
      <trkpt lat="43.96494" lon="5.23814">
        <ele>472.63</ele>
        <time>2012-12-10T14:50:10Z</time>
      </trkpt>
      <trkpt lat="43.96489" lon="5.23816">
        <ele>476.95</ele>
        <time>2012-12-10T14:50:15Z</time>
      </trkpt>
      <trkpt lat="43.96488" lon="5.23816">
        <ele>473.11</ele>
        <time>2012-12-10T14:50:16Z</time>
      </trkpt>
      <trkpt lat="43.96467" lon="5.2382">
        <ele>472.63</ele>
        <time>2012-12-10T14:50:33Z</time>
      </trkpt>
      <trkpt lat="43.96447" lon="5.23829">
        <ele>470.7</ele>
        <time>2012-12-10T14:50:50Z</time>
      </trkpt>
      <trkpt lat="43.96431" lon="5.2385">
        <ele>469.74</ele>
        <time>2012-12-10T14:51:07Z</time>
      </trkpt>
      <trkpt lat="43.9643" lon="5.23867">
        <ele>468.78</ele>
        <time>2012-12-10T14:51:22Z</time>
      </trkpt>
      <trkpt lat="43.9643" lon="5.23892">
        <ele>467.82</ele>
        <time>2012-12-10T14:51:42Z</time>
      </trkpt>
      <trkpt lat="43.96416" lon="5.23902">
        <ele>466.86</ele>
        <time>2012-12-10T14:51:57Z</time>
      </trkpt>
      <trkpt lat="43.96399" lon="5.23904">
        <ele>467.82</ele>
        <time>2012-12-10T14:52:13Z</time>
      </trkpt>
      <trkpt lat="43.96398" lon="5.23904">
        <ele>467.82</ele>
        <time>2012-12-10T14:52:14Z</time>
      </trkpt>
      <trkpt lat="43.96383" lon="5.23911">
        <ele>466.86</ele>
        <time>2012-12-10T14:52:30Z</time>
      </trkpt>
      <trkpt lat="43.96367" lon="5.2392">
        <ele>469.26</ele>
        <time>2012-12-10T14:52:47Z</time>
      </trkpt>
      <trkpt lat="43.96353" lon="5.23931">
        <ele>470.22</ele>
        <time>2012-12-10T14:53:06Z</time>
      </trkpt>
      <trkpt lat="43.96344" lon="5.23943">
        <ele>472.14</ele>
        <time>2012-12-10T14:53:21Z</time>
      </trkpt>
      <trkpt lat="43.96344" lon="5.23943">
        <ele>472.14</ele>
        <time>2012-12-10T14:53:22Z</time>
      </trkpt>
      <trkpt lat="43.96331" lon="5.23955">
        <ele>473.11</ele>
        <time>2012-12-10T14:53:40Z</time>
      </trkpt>
      <trkpt lat="43.96325" lon="5.23961">
        <ele>474.55</ele>
        <time>2012-12-10T14:53:49Z</time>
      </trkpt>
      <trkpt lat="43.96322" lon="5.23965">
        <ele>473.59</ele>
        <time>2012-12-10T14:53:55Z</time>
      </trkpt>
      <trkpt lat="43.96307" lon="5.23977">
        <ele>475.51</ele>
        <time>2012-12-10T14:54:12Z</time>
      </trkpt>
      <trkpt lat="43.96295" lon="5.23985">
        <ele>475.99</ele>
        <time>2012-12-10T14:54:27Z</time>
      </trkpt>
      <trkpt lat="43.96293" lon="5.23986">
        <ele>478.87</ele>
        <time>2012-12-10T14:54:30Z</time>
      </trkpt>
      <trkpt lat="43.96292" lon="5.23986">
        <ele>477.91</ele>
        <time>2012-12-10T14:54:31Z</time>
      </trkpt>
      <trkpt lat="43.96282" lon="5.23995">
        <ele>479.35</ele>
        <time>2012-12-10T14:54:45Z</time>
      </trkpt>
      <trkpt lat="43.96277" lon="5.24">
        <ele>481.28</ele>
        <time>2012-12-10T14:54:52Z</time>
      </trkpt>
      <trkpt lat="43.96268" lon="5.24007">
        <ele>484.64</ele>
        <time>2012-12-10T14:55:06Z</time>
      </trkpt>
      <trkpt lat="43.96267" lon="5.24008">
        <ele>483.68</ele>
        <time>2012-12-10T14:55:22Z</time>
      </trkpt>
      <trkpt lat="43.96271" lon="5.24021">
        <ele>484.16</ele>
        <time>2012-12-10T14:55:41Z</time>
      </trkpt>
      <trkpt lat="43.96276" lon="5.24027">
        <ele>483.68</ele>
        <time>2012-12-10T14:56:01Z</time>
      </trkpt>
      <trkpt lat="43.96278" lon="5.2403">
        <ele>484.16</ele>
        <time>2012-12-10T14:56:09Z</time>
      </trkpt>
      <trkpt lat="43.9629" lon="5.24056">
        <ele>486.56</ele>
        <time>2012-12-10T14:56:29Z</time>
      </trkpt>
      <trkpt lat="43.96304" lon="5.2407">
        <ele>484.64</ele>
        <time>2012-12-10T14:56:46Z</time>
      </trkpt>
      <trkpt lat="43.96318" lon="5.24077">
        <ele>485.12</ele>
        <time>2012-12-10T14:57:03Z</time>
      </trkpt>
      <trkpt lat="43.96324" lon="5.24078">
        <ele>485.6</ele>
        <time>2012-12-10T14:57:08Z</time>
      </trkpt>
      <trkpt lat="43.96346" lon="5.2408">
        <ele>487.53</ele>
        <time>2012-12-10T14:57:28Z</time>
      </trkpt>
      <trkpt lat="43.96364" lon="5.24085">
        <ele>487.05</ele>
        <time>2012-12-10T14:57:44Z</time>
      </trkpt>
      <trkpt lat="43.96377" lon="5.24087">
        <ele>490.41</ele>
        <time>2012-12-10T14:57:57Z</time>
      </trkpt>
      <trkpt lat="43.96381" lon="5.24088">
        <ele>487.53</ele>
        <time>2012-12-10T14:58:01Z</time>
      </trkpt>
      <trkpt lat="43.96383" lon="5.24089">
        <ele>488.97</ele>
        <time>2012-12-10T14:58:04Z</time>
      </trkpt>
      <trkpt lat="43.964" lon="5.24092">
        <ele>488.97</ele>
        <time>2012-12-10T14:58:21Z</time>
      </trkpt>
      <trkpt lat="43.96418" lon="5.24092">
        <ele>492.33</ele>
        <time>2012-12-10T14:58:40Z</time>
      </trkpt>
      <trkpt lat="43.96423" lon="5.24092">
        <ele>494.74</ele>
        <time>2012-12-10T14:58:45Z</time>
      </trkpt>
      <trkpt lat="43.96425" lon="5.24093">
        <ele>491.37</ele>
        <time>2012-12-10T14:58:49Z</time>
      </trkpt>
      <trkpt lat="43.96443" lon="5.24102">
        <ele>492.81</ele>
        <time>2012-12-10T14:59:09Z</time>
      </trkpt>
      <trkpt lat="43.96458" lon="5.24117">
        <ele>493.77</ele>
        <time>2012-12-10T14:59:27Z</time>
      </trkpt>
      <trkpt lat="43.96469" lon="5.24131">
        <ele>495.7</ele>
        <time>2012-12-10T14:59:43Z</time>
      </trkpt>
      <trkpt lat="43.9647" lon="5.24133">
        <ele>496.18</ele>
        <time>2012-12-10T14:59:45Z</time>
      </trkpt>
      <trkpt lat="43.9648" lon="5.24151">
        <ele>498.58</ele>
        <time>2012-12-10T15:00:03Z</time>
      </trkpt>
      <trkpt lat="43.96485" lon="5.24166">
        <ele>497.62</ele>
        <time>2012-12-10T15:00:20Z</time>
      </trkpt>
      <trkpt lat="43.96486" lon="5.24168">
        <ele>498.58</ele>
        <time>2012-12-10T15:00:22Z</time>
      </trkpt>
      <trkpt lat="43.96489" lon="5.24185">
        <ele>499.06</ele>
        <time>2012-12-10T15:00:37Z</time>
      </trkpt>
      <trkpt lat="43.96489" lon="5.24202">
        <ele>500.02</ele>
        <time>2012-12-10T15:00:53Z</time>
      </trkpt>
      <trkpt lat="43.96482" lon="5.24217">
        <ele>500.98</ele>
        <time>2012-12-10T15:01:09Z</time>
      </trkpt>
      <trkpt lat="43.96476" lon="5.24228">
        <ele>502.43</ele>
        <time>2012-12-10T15:01:28Z</time>
      </trkpt>
      <trkpt lat="43.96471" lon="5.24234">
        <ele>502.43</ele>
        <time>2012-12-10T15:01:43Z</time>
      </trkpt>
      <trkpt lat="43.96473" lon="5.24234">
        <ele>503.39</ele>
        <time>2012-12-10T15:01:52Z</time>
      </trkpt>
      <trkpt lat="43.96478" lon="5.24231">
        <ele>503.39</ele>
        <time>2012-12-10T15:02:18Z</time>
      </trkpt>
      <trkpt lat="43.96478" lon="5.24233">
        <ele>502.91</ele>
        <time>2012-12-10T15:02:29Z</time>
      </trkpt>
      <trkpt lat="43.96476" lon="5.24232">
        <ele>502.91</ele>
        <time>2012-12-10T15:02:53Z</time>
      </trkpt>
      <trkpt lat="43.96476" lon="5.2423">
        <ele>502.43</ele>
        <time>2012-12-10T15:03:22Z</time>
      </trkpt>
      <trkpt lat="43.96476" lon="5.24232">
        <ele>505.31</ele>
        <time>2012-12-10T15:03:26Z</time>
      </trkpt>
      <trkpt lat="43.96476" lon="5.24232">
        <ele>504.35</ele>
        <time>2012-12-10T15:03:30Z</time>
      </trkpt>
      <trkpt lat="43.96473" lon="5.24231">
        <ele>502.43</ele>
        <time>2012-12-10T15:03:51Z</time>
      </trkpt>
      <trkpt lat="43.96473" lon="5.24229">
        <ele>505.31</ele>
        <time>2012-12-10T15:04:02Z</time>
      </trkpt>
      <trkpt lat="43.96473" lon="5.24229">
        <ele>504.35</ele>
        <time>2012-12-10T15:04:31Z</time>
      </trkpt>
      <trkpt lat="43.96472" lon="5.2423">
        <ele>501.46</ele>
        <time>2012-12-10T15:04:54Z</time>
      </trkpt>
      <trkpt lat="43.96474" lon="5.24229">
        <ele>504.83</ele>
        <time>2012-12-10T15:05:06Z</time>
      </trkpt>
      <trkpt lat="43.96472" lon="5.24229">
        <ele>505.79</ele>
        <time>2012-12-10T15:05:22Z</time>
      </trkpt>
      <trkpt lat="43.96472" lon="5.24231">
        <ele>506.75</ele>
        <time>2012-12-10T15:05:27Z</time>
      </trkpt>
      <trkpt lat="43.96473" lon="5.24231">
        <ele>503.39</ele>
        <time>2012-12-10T15:05:36Z</time>
      </trkpt>
      <trkpt lat="43.96473" lon="5.24233">
        <ele>504.35</ele>
        <time>2012-12-10T15:06:05Z</time>
      </trkpt>
      <trkpt lat="43.96473" lon="5.24226">
        <ele>502.91</ele>
        <time>2012-12-10T15:06:30Z</time>
      </trkpt>
      <trkpt lat="43.96472" lon="5.24225">
        <ele>504.35</ele>
        <time>2012-12-10T15:07:03Z</time>
      </trkpt>
      <trkpt lat="43.9647" lon="5.2423">
        <ele>505.31</ele>
        <time>2012-12-10T15:07:29Z</time>
      </trkpt>
      <trkpt lat="43.96471" lon="5.24231">
        <ele>503.87</ele>
        <time>2012-12-10T15:07:32Z</time>
      </trkpt>
      <trkpt lat="43.96468" lon="5.24229">
        <ele>504.83</ele>
        <time>2012-12-10T15:07:43Z</time>
      </trkpt>
      <trkpt lat="43.96454" lon="5.24217">
        <ele>502.91</ele>
        <time>2012-12-10T15:07:59Z</time>
      </trkpt>
      <trkpt lat="43.9645" lon="5.24211">
        <ele>502.91</ele>
        <time>2012-12-10T15:08:05Z</time>
      </trkpt>
      <trkpt lat="43.96434" lon="5.24198">
        <ele>504.83</ele>
        <time>2012-12-10T15:08:20Z</time>
      </trkpt>
      <trkpt lat="43.96422" lon="5.2419">
        <ele>502.43</ele>
        <time>2012-12-10T15:08:32Z</time>
      </trkpt>
      <trkpt lat="43.96418" lon="5.24188">
        <ele>503.87</ele>
        <time>2012-12-10T15:08:36Z</time>
      </trkpt>
      <trkpt lat="43.96407" lon="5.24184">
        <ele>503.39</ele>
        <time>2012-12-10T15:08:47Z</time>
      </trkpt>
      <trkpt lat="43.9639" lon="5.24177">
        <ele>502.91</ele>
        <time>2012-12-10T15:09:05Z</time>
      </trkpt>
      <trkpt lat="43.9638" lon="5.24174">
        <ele>506.27</ele>
        <time>2012-12-10T15:09:13Z</time>
      </trkpt>
      <trkpt lat="43.96379" lon="5.24173">
        <ele>505.79</ele>
        <time>2012-12-10T15:09:14Z</time>
      </trkpt>
      <trkpt lat="43.96356" lon="5.2417">
        <ele>504.35</ele>
        <time>2012-12-10T15:09:32Z</time>
      </trkpt>
      <trkpt lat="43.96344" lon="5.24168">
        <ele>507.71</ele>
        <time>2012-12-10T15:09:41Z</time>
      </trkpt>
      <trkpt lat="43.96323" lon="5.24164">
        <ele>506.27</ele>
        <time>2012-12-10T15:09:58Z</time>
      </trkpt>
      <trkpt lat="43.96302" lon="5.24166">
        <ele>506.75</ele>
        <time>2012-12-10T15:10:15Z</time>
      </trkpt>
      <trkpt lat="43.96282" lon="5.2417">
        <ele>508.67</ele>
        <time>2012-12-10T15:10:32Z</time>
      </trkpt>
      <trkpt lat="43.96262" lon="5.24175">
        <ele>508.19</ele>
        <time>2012-12-10T15:10:50Z</time>
      </trkpt>
      <trkpt lat="43.96239" lon="5.24182">
        <ele>507.23</ele>
        <time>2012-12-10T15:11:09Z</time>
      </trkpt>
      <trkpt lat="43.96221" lon="5.24187">
        <ele>509.16</ele>
        <time>2012-12-10T15:11:24Z</time>
      </trkpt>
      <trkpt lat="43.962" lon="5.24189">
        <ele>510.12</ele>
        <time>2012-12-10T15:11:41Z</time>
      </trkpt>
      <trkpt lat="43.96182" lon="5.24192">
        <ele>510.6</ele>
        <time>2012-12-10T15:11:58Z</time>
      </trkpt>
      <trkpt lat="43.96168" lon="5.24213">
        <ele>509.16</ele>
        <time>2012-12-10T15:12:14Z</time>
      </trkpt>
      <trkpt lat="43.96154" lon="5.24232">
        <ele>507.23</ele>
        <time>2012-12-10T15:12:30Z</time>
      </trkpt>
      <trkpt lat="43.96152" lon="5.24236">
        <ele>509.16</ele>
        <time>2012-12-10T15:12:33Z</time>
      </trkpt>
      <trkpt lat="43.96133" lon="5.24259">
        <ele>508.67</ele>
        <time>2012-12-10T15:12:54Z</time>
      </trkpt>
      <trkpt lat="43.96119" lon="5.24282">
        <ele>508.67</ele>
        <time>2012-12-10T15:13:12Z</time>
      </trkpt>
      <trkpt lat="43.96108" lon="5.24303">
        <ele>509.64</ele>
        <time>2012-12-10T15:13:28Z</time>
      </trkpt>
      <trkpt lat="43.96106" lon="5.2431">
        <ele>508.67</ele>
        <time>2012-12-10T15:13:32Z</time>
      </trkpt>
      <trkpt lat="43.96104" lon="5.24333">
        <ele>505.31</ele>
        <time>2012-12-10T15:13:46Z</time>
      </trkpt>
      <trkpt lat="43.961" lon="5.24362">
        <ele>504.35</ele>
        <time>2012-12-10T15:14:03Z</time>
      </trkpt>
      <trkpt lat="43.96096" lon="5.24392">
        <ele>503.87</ele>
        <time>2012-12-10T15:14:22Z</time>
      </trkpt>
      <trkpt lat="43.96094" lon="5.24409">
        <ele>501.46</ele>
        <time>2012-12-10T15:14:33Z</time>
      </trkpt>
      <trkpt lat="43.96091" lon="5.24429">
        <ele>500.98</ele>
        <time>2012-12-10T15:14:46Z</time>
      </trkpt>
      <trkpt lat="43.96087" lon="5.24449">
        <ele>498.1</ele>
        <time>2012-12-10T15:14:59Z</time>
      </trkpt>
      <trkpt lat="43.96084" lon="5.24475">
        <ele>499.54</ele>
        <time>2012-12-10T15:15:18Z</time>
      </trkpt>
      <trkpt lat="43.9608" lon="5.24495">
        <ele>493.77</ele>
        <time>2012-12-10T15:15:31Z</time>
      </trkpt>
      <trkpt lat="43.9608" lon="5.24496">
        <ele>500.5</ele>
        <time>2012-12-10T15:15:32Z</time>
      </trkpt>
      <trkpt lat="43.96079" lon="5.24505">
        <ele>500.5</ele>
        <time>2012-12-10T15:15:38Z</time>
      </trkpt>
      <trkpt lat="43.96078" lon="5.24509">
        <ele>497.14</ele>
        <time>2012-12-10T15:15:40Z</time>
      </trkpt>
      <trkpt lat="43.96075" lon="5.24532">
        <ele>495.7</ele>
        <time>2012-12-10T15:15:56Z</time>
      </trkpt>
      <trkpt lat="43.96075" lon="5.24533">
        <ele>497.14</ele>
        <time>2012-12-10T15:15:57Z</time>
      </trkpt>
      <trkpt lat="43.96071" lon="5.2456">
        <ele>495.7</ele>
        <time>2012-12-10T15:16:15Z</time>
      </trkpt>
      <trkpt lat="43.96068" lon="5.24587">
        <ele>494.74</ele>
        <time>2012-12-10T15:16:32Z</time>
      </trkpt>
      <trkpt lat="43.96065" lon="5.24614">
        <ele>492.81</ele>
        <time>2012-12-10T15:16:50Z</time>
      </trkpt>
      <trkpt lat="43.96064" lon="5.24624">
        <ele>493.29</ele>
        <time>2012-12-10T15:16:58Z</time>
      </trkpt>
      <trkpt lat="43.96062" lon="5.24644">
        <ele>493.29</ele>
        <time>2012-12-10T15:17:13Z</time>
      </trkpt>
      <trkpt lat="43.96057" lon="5.24667">
        <ele>493.77</ele>
        <time>2012-12-10T15:17:28Z</time>
      </trkpt>
      <trkpt lat="43.96054" lon="5.24683">
        <ele>493.29</ele>
        <time>2012-12-10T15:17:42Z</time>
      </trkpt>
      <trkpt lat="43.96054" lon="5.24694">
        <ele>492.81</ele>
        <time>2012-12-10T15:17:49Z</time>
      </trkpt>
      <trkpt lat="43.96054" lon="5.24707">
        <ele>493.77</ele>
        <time>2012-12-10T15:17:57Z</time>
      </trkpt>
      <trkpt lat="43.96053" lon="5.24727">
        <ele>494.26</ele>
        <time>2012-12-10T15:18:09Z</time>
      </trkpt>
      <trkpt lat="43.96062" lon="5.24737">
        <ele>494.26</ele>
        <time>2012-12-10T15:18:22Z</time>
      </trkpt>
      <trkpt lat="43.96065" lon="5.24738">
        <ele>490.89</ele>
        <time>2012-12-10T15:18:26Z</time>
      </trkpt>
      <trkpt lat="43.96065" lon="5.24738">
        <ele>494.26</ele>
        <time>2012-12-10T15:18:27Z</time>
      </trkpt>
      <trkpt lat="43.96067" lon="5.24738">
        <ele>489.93</ele>
        <time>2012-12-10T15:18:33Z</time>
      </trkpt>
      <trkpt lat="43.96067" lon="5.24738">
        <ele>497.14</ele>
        <time>2012-12-10T15:18:34Z</time>
      </trkpt>
      <trkpt lat="43.96067" lon="5.24738">
        <ele>492.33</ele>
        <time>2012-12-10T15:18:35Z</time>
      </trkpt>
      <trkpt lat="43.96067" lon="5.24738">
        <ele>498.58</ele>
        <time>2012-12-10T15:18:37Z</time>
      </trkpt>
      <trkpt lat="43.96067" lon="5.24738">
        <ele>494.26</ele>
        <time>2012-12-10T15:18:38Z</time>
      </trkpt>
      <trkpt lat="43.96068" lon="5.24737">
        <ele>490.89</ele>
        <time>2012-12-10T15:18:43Z</time>
      </trkpt>
      <trkpt lat="43.96067" lon="5.24737">
        <ele>494.74</ele>
        <time>2012-12-10T15:18:44Z</time>
      </trkpt>
      <trkpt lat="43.96066" lon="5.24737">
        <ele>490.89</ele>
        <time>2012-12-10T15:18:54Z</time>
      </trkpt>
      <trkpt lat="43.96066" lon="5.24737">
        <ele>495.7</ele>
        <time>2012-12-10T15:18:55Z</time>
      </trkpt>
      <trkpt lat="43.96065" lon="5.24738">
        <ele>490.41</ele>
        <time>2012-12-10T15:19:01Z</time>
      </trkpt>
      <trkpt lat="43.96065" lon="5.24738">
        <ele>497.14</ele>
        <time>2012-12-10T15:19:02Z</time>
      </trkpt>
      <trkpt lat="43.96064" lon="5.24738">
        <ele>493.77</ele>
        <time>2012-12-10T15:19:03Z</time>
      </trkpt>
      <trkpt lat="43.96064" lon="5.24737">
        <ele>495.22</ele>
        <time>2012-12-10T15:19:32Z</time>
      </trkpt>
    </trkseg>
  </trk>
</gpx>